<?xml version="1.0" encoding="UTF-8"?>
<gpx version="1.1" creator="Endomondo.com" xsi:schemaLocation="http://www.topografix.com/GPX/1/1 http://www.topografix.com/GPX/1/1/gpx.xsd http://www.garmin.com/xmlschemas/GpxExtensions/v3 http://www.garmin.com/xmlschemas/GpxExtensionsv3.xsd http://www.garmin.com/xmlschemas/TrackPointExtension/v1 http://www.garmin.com/xmlschemas/TrackPointExtensionv1.xsd" xmlns="http://www.topografix.com/GPX/1/1" xmlns:gpxtpx="http://www.garmin.com/xmlschemas/TrackPointExtension/v1" xmlns:gpxx="http://www.garmin.com/xmlschemas/GpxExtensions/v3" xmlns:xsi="http://www.w3.org/2001/XMLSchema-instance">
  <metadata>
    <author>
      <name>Endomondo User</name>
      <email id="lipets" domain="gmail.com"/>
    </author>
    <link href="http://www.endomondo.com">
      <text>Endomondo</text>
    </link>
    <time>2011-05-26T08:24:13Z</time>
    <bounds minlat="32.799463" minlon="35.137547" maxlat="32.799307" maxlon="35.13751"/>
  </metadata>
  <trk>
    <src>http://www.endomondo.com/</src>
    <link href="http://www.endomondo.com/workouts/r30z3lEL1m0">
      <text>endomondo</text>
    </link>
    <type>CYCLING_SPORT</type>
    <trkseg>
      <trkpt lat="32.799463" lon="35.137547">
        <time>2011-05-25T16:21:42Z</time>
      </trkpt>
      <trkpt lat="32.799463" lon="35.137547">
        <ele>100.0</ele>
        <time>2011-05-25T16:21:43Z</time>
      </trkpt>
      <trkpt lat="32.799385" lon="35.137508">
        <ele>100.0</ele>
        <time>2011-05-25T16:24:07Z</time>
      </trkpt>
      <trkpt lat="32.799413" lon="35.137621">
        <ele>104.0</ele>
        <time>2011-05-25T16:36:15Z</time>
      </trkpt>
      <trkpt lat="32.799323" lon="35.137471">
        <ele>104.0</ele>
        <time>2011-05-25T16:36:58Z</time>
      </trkpt>
      <trkpt lat="32.799269" lon="35.137397">
        <ele>105.0</ele>
        <time>2011-05-25T16:37:01Z</time>
      </trkpt>
      <trkpt lat="32.799192" lon="35.13736">
        <ele>105.0</ele>
        <time>2011-05-25T16:37:04Z</time>
      </trkpt>
      <trkpt lat="32.799126" lon="35.137373">
        <ele>105.0</ele>
        <time>2011-05-25T16:37:08Z</time>
      </trkpt>
      <trkpt lat="32.799116" lon="35.13746">
        <ele>105.0</ele>
        <time>2011-05-25T16:37:12Z</time>
      </trkpt>
      <trkpt lat="32.799161" lon="35.137537">
        <ele>105.0</ele>
        <time>2011-05-25T16:37:16Z</time>
      </trkpt>
      <trkpt lat="32.799283" lon="35.137617">
        <ele>105.0</ele>
        <time>2011-05-25T16:37:22Z</time>
      </trkpt>
      <trkpt lat="32.799357" lon="35.137649">
        <ele>105.0</ele>
        <time>2011-05-25T16:37:26Z</time>
      </trkpt>
      <trkpt lat="32.799422" lon="35.137674">
        <ele>105.0</ele>
        <time>2011-05-25T16:37:30Z</time>
      </trkpt>
      <trkpt lat="32.799486" lon="35.137687">
        <ele>105.0</ele>
        <time>2011-05-25T16:37:36Z</time>
      </trkpt>
      <trkpt lat="32.799426" lon="35.137659">
        <ele>105.0</ele>
        <time>2011-05-25T16:37:48Z</time>
      </trkpt>
      <trkpt lat="32.799337" lon="35.137541">
        <ele>105.0</ele>
        <time>2011-05-25T16:37:53Z</time>
      </trkpt>
      <trkpt lat="32.799292" lon="35.137485">
        <ele>105.0</ele>
        <time>2011-05-25T16:37:55Z</time>
      </trkpt>
      <trkpt lat="32.79916" lon="35.137446">
        <ele>104.0</ele>
        <time>2011-05-25T16:38:00Z</time>
      </trkpt>
      <trkpt lat="32.799188" lon="35.137513">
        <ele>104.0</ele>
        <time>2011-05-25T16:38:08Z</time>
      </trkpt>
      <trkpt lat="32.799252" lon="35.13756">
        <ele>104.0</ele>
        <time>2011-05-25T16:38:12Z</time>
      </trkpt>
      <trkpt lat="32.799319" lon="35.137592">
        <ele>104.0</ele>
        <time>2011-05-25T16:38:16Z</time>
      </trkpt>
      <trkpt lat="32.799253" lon="35.13755">
        <ele>103.0</ele>
        <time>2011-05-25T16:40:57Z</time>
      </trkpt>
      <trkpt lat="32.799179" lon="35.137486">
        <ele>104.0</ele>
        <time>2011-05-25T16:41:00Z</time>
      </trkpt>
      <trkpt lat="32.799031" lon="35.137376">
        <ele>104.0</ele>
        <time>2011-05-25T16:41:06Z</time>
      </trkpt>
      <trkpt lat="32.798956" lon="35.137335">
        <ele>104.0</ele>
        <time>2011-05-25T16:41:09Z</time>
      </trkpt>
      <trkpt lat="32.798795" lon="35.137313">
        <ele>104.0</ele>
        <time>2011-05-25T16:41:14Z</time>
      </trkpt>
      <trkpt lat="32.798634" lon="35.137355">
        <ele>104.0</ele>
        <time>2011-05-25T16:41:18Z</time>
      </trkpt>
      <trkpt lat="32.798408" lon="35.137776">
        <ele>103.0</ele>
        <time>2011-05-25T16:41:26Z</time>
      </trkpt>
      <trkpt lat="32.798384" lon="35.138216">
        <ele>103.0</ele>
        <time>2011-05-25T16:41:30Z</time>
      </trkpt>
      <trkpt lat="32.798319" lon="35.138637">
        <ele>103.0</ele>
        <time>2011-05-25T16:41:34Z</time>
      </trkpt>
      <trkpt lat="32.798254" lon="35.138974">
        <ele>104.0</ele>
        <time>2011-05-25T16:41:38Z</time>
      </trkpt>
      <trkpt lat="32.798177" lon="35.139226">
        <ele>104.0</ele>
        <time>2011-05-25T16:41:42Z</time>
      </trkpt>
      <trkpt lat="32.798119" lon="35.139417">
        <ele>103.0</ele>
        <time>2011-05-25T16:41:46Z</time>
      </trkpt>
      <trkpt lat="32.798049" lon="35.139588">
        <ele>103.0</ele>
        <time>2011-05-25T16:41:50Z</time>
      </trkpt>
      <trkpt lat="32.797989" lon="35.139755">
        <ele>103.0</ele>
        <time>2011-05-25T16:41:54Z</time>
      </trkpt>
      <trkpt lat="32.797929" lon="35.139909">
        <ele>103.0</ele>
        <time>2011-05-25T16:41:58Z</time>
      </trkpt>
      <trkpt lat="32.797848" lon="35.140044">
        <ele>103.0</ele>
        <time>2011-05-25T16:42:02Z</time>
      </trkpt>
      <trkpt lat="32.797755" lon="35.140188">
        <ele>103.0</ele>
        <time>2011-05-25T16:42:06Z</time>
      </trkpt>
      <trkpt lat="32.797653" lon="35.140358">
        <ele>103.0</ele>
        <time>2011-05-25T16:42:10Z</time>
      </trkpt>
      <trkpt lat="32.797567" lon="35.140541">
        <ele>103.0</ele>
        <time>2011-05-25T16:42:14Z</time>
      </trkpt>
      <trkpt lat="32.797487" lon="35.14072">
        <ele>103.0</ele>
        <time>2011-05-25T16:42:18Z</time>
      </trkpt>
      <trkpt lat="32.797415" lon="35.140907">
        <ele>102.0</ele>
        <time>2011-05-25T16:42:22Z</time>
      </trkpt>
      <trkpt lat="32.797333" lon="35.14107">
        <ele>102.0</ele>
        <time>2011-05-25T16:42:26Z</time>
      </trkpt>
      <trkpt lat="32.797256" lon="35.141211">
        <ele>103.0</ele>
        <time>2011-05-25T16:42:30Z</time>
      </trkpt>
      <trkpt lat="32.797178" lon="35.141338">
        <ele>103.0</ele>
        <time>2011-05-25T16:42:34Z</time>
      </trkpt>
      <trkpt lat="32.797111" lon="35.141473">
        <ele>103.0</ele>
        <time>2011-05-25T16:42:38Z</time>
      </trkpt>
      <trkpt lat="32.797045" lon="35.141608">
        <ele>103.0</ele>
        <time>2011-05-25T16:42:42Z</time>
      </trkpt>
      <trkpt lat="32.796981" lon="35.141745">
        <ele>103.0</ele>
        <time>2011-05-25T16:42:46Z</time>
      </trkpt>
      <trkpt lat="32.79692" lon="35.141887">
        <ele>103.0</ele>
        <time>2011-05-25T16:42:50Z</time>
      </trkpt>
      <trkpt lat="32.796893" lon="35.142045">
        <ele>103.0</ele>
        <time>2011-05-25T16:42:54Z</time>
      </trkpt>
      <trkpt lat="32.796865" lon="35.1422">
        <ele>103.0</ele>
        <time>2011-05-25T16:42:58Z</time>
      </trkpt>
      <trkpt lat="32.796849" lon="35.142276">
        <ele>103.0</ele>
        <time>2011-05-25T16:43:00Z</time>
      </trkpt>
      <trkpt lat="32.796815" lon="35.142459">
        <ele>103.0</ele>
        <time>2011-05-25T16:43:05Z</time>
      </trkpt>
      <trkpt lat="32.796803" lon="35.14254">
        <ele>103.0</ele>
        <time>2011-05-25T16:43:07Z</time>
      </trkpt>
      <trkpt lat="32.796789" lon="35.142793">
        <ele>104.0</ele>
        <time>2011-05-25T16:43:13Z</time>
      </trkpt>
      <trkpt lat="32.796766" lon="35.142951">
        <ele>104.0</ele>
        <time>2011-05-25T16:43:17Z</time>
      </trkpt>
      <trkpt lat="32.796801" lon="35.143115">
        <ele>104.0</ele>
        <time>2011-05-25T16:43:21Z</time>
      </trkpt>
      <trkpt lat="32.796808" lon="35.143193">
        <ele>104.0</ele>
        <time>2011-05-25T16:43:24Z</time>
      </trkpt>
      <trkpt lat="32.796923" lon="35.143295">
        <ele>105.0</ele>
        <time>2011-05-25T16:43:30Z</time>
      </trkpt>
      <trkpt lat="32.797092" lon="35.143358">
        <ele>105.0</ele>
        <time>2011-05-25T16:43:36Z</time>
      </trkpt>
      <trkpt lat="32.797247" lon="35.143393">
        <ele>105.0</ele>
        <time>2011-05-25T16:43:41Z</time>
      </trkpt>
      <trkpt lat="32.797426" lon="35.143425">
        <ele>106.0</ele>
        <time>2011-05-25T16:43:47Z</time>
      </trkpt>
      <trkpt lat="32.797638" lon="35.143512">
        <ele>107.0</ele>
        <time>2011-05-25T16:43:56Z</time>
      </trkpt>
      <trkpt lat="32.797699" lon="35.143682">
        <ele>107.0</ele>
        <time>2011-05-25T16:44:02Z</time>
      </trkpt>
      <trkpt lat="32.797708" lon="35.14379">
        <ele>108.0</ele>
        <time>2011-05-25T16:44:05Z</time>
      </trkpt>
      <trkpt lat="32.797635" lon="35.143953">
        <ele>108.0</ele>
        <time>2011-05-25T16:44:09Z</time>
      </trkpt>
      <trkpt lat="32.797544" lon="35.144109">
        <ele>109.0</ele>
        <time>2011-05-25T16:44:14Z</time>
      </trkpt>
      <trkpt lat="32.797495" lon="35.144188">
        <ele>109.0</ele>
        <time>2011-05-25T16:44:17Z</time>
      </trkpt>
      <trkpt lat="32.79734" lon="35.144403">
        <ele>110.0</ele>
        <time>2011-05-25T16:44:26Z</time>
      </trkpt>
      <trkpt lat="32.797286" lon="35.14447">
        <ele>110.0</ele>
        <time>2011-05-25T16:44:29Z</time>
      </trkpt>
      <trkpt lat="32.797237" lon="35.14454">
        <ele>110.0</ele>
        <time>2011-05-25T16:44:32Z</time>
      </trkpt>
      <trkpt lat="32.797134" lon="35.144658">
        <ele>111.0</ele>
        <time>2011-05-25T16:44:38Z</time>
      </trkpt>
      <trkpt lat="32.79707" lon="35.144693">
        <ele>111.0</ele>
        <time>2011-05-25T16:44:41Z</time>
      </trkpt>
      <trkpt lat="32.797006" lon="35.144723">
        <ele>111.0</ele>
        <time>2011-05-25T16:44:44Z</time>
      </trkpt>
      <trkpt lat="32.796907" lon="35.14477">
        <ele>111.0</ele>
        <time>2011-05-25T16:44:51Z</time>
      </trkpt>
      <trkpt lat="32.796824" lon="35.144813">
        <ele>112.0</ele>
        <time>2011-05-25T16:44:55Z</time>
      </trkpt>
      <trkpt lat="32.796745" lon="35.144855">
        <ele>112.0</ele>
        <time>2011-05-25T16:45:00Z</time>
      </trkpt>
      <trkpt lat="32.796666" lon="35.144905">
        <ele>112.0</ele>
        <time>2011-05-25T16:45:05Z</time>
      </trkpt>
      <trkpt lat="32.79661" lon="35.144947">
        <ele>112.0</ele>
        <time>2011-05-25T16:45:09Z</time>
      </trkpt>
      <trkpt lat="32.796557" lon="35.144993">
        <ele>112.0</ele>
        <time>2011-05-25T16:45:12Z</time>
      </trkpt>
      <trkpt lat="32.796503" lon="35.145047">
        <ele>113.0</ele>
        <time>2011-05-25T16:45:16Z</time>
      </trkpt>
      <trkpt lat="32.796451" lon="35.145109">
        <ele>113.0</ele>
        <time>2011-05-25T16:45:21Z</time>
      </trkpt>
      <trkpt lat="32.796408" lon="35.145169">
        <ele>113.0</ele>
        <time>2011-05-25T16:45:26Z</time>
      </trkpt>
      <trkpt lat="32.796306" lon="35.145279">
        <ele>113.0</ele>
        <time>2011-05-25T16:45:34Z</time>
      </trkpt>
      <trkpt lat="32.796253" lon="35.145337">
        <ele>113.0</ele>
        <time>2011-05-25T16:45:38Z</time>
      </trkpt>
      <trkpt lat="32.7962" lon="35.145387">
        <ele>113.0</ele>
        <time>2011-05-25T16:45:42Z</time>
      </trkpt>
      <trkpt lat="32.796146" lon="35.145439">
        <ele>114.0</ele>
        <time>2011-05-25T16:45:46Z</time>
      </trkpt>
      <trkpt lat="32.796038" lon="35.145548">
        <ele>114.0</ele>
        <time>2011-05-25T16:45:53Z</time>
      </trkpt>
      <trkpt lat="32.7961" lon="35.145598">
        <ele>114.0</ele>
        <time>2011-05-25T16:46:05Z</time>
      </trkpt>
      <trkpt lat="32.796142" lon="35.145777">
        <ele>114.0</ele>
        <time>2011-05-25T16:46:14Z</time>
      </trkpt>
      <trkpt lat="32.796134" lon="35.145852">
        <ele>114.0</ele>
        <time>2011-05-25T16:46:17Z</time>
      </trkpt>
      <trkpt lat="32.796113" lon="35.145942">
        <ele>114.0</ele>
        <time>2011-05-25T16:46:21Z</time>
      </trkpt>
      <trkpt lat="32.796084" lon="35.146036">
        <ele>114.0</ele>
        <time>2011-05-25T16:46:25Z</time>
      </trkpt>
      <trkpt lat="32.796052" lon="35.146106">
        <ele>115.0</ele>
        <time>2011-05-25T16:46:28Z</time>
      </trkpt>
      <trkpt lat="32.796022" lon="35.146176">
        <ele>115.0</ele>
        <time>2011-05-25T16:46:31Z</time>
      </trkpt>
      <trkpt lat="32.795894" lon="35.146336">
        <ele>115.0</ele>
        <time>2011-05-25T16:46:37Z</time>
      </trkpt>
      <trkpt lat="32.795755" lon="35.14652">
        <ele>115.0</ele>
        <time>2011-05-25T16:46:41Z</time>
      </trkpt>
      <trkpt lat="32.795602" lon="35.146741">
        <ele>116.0</ele>
        <time>2011-05-25T16:46:45Z</time>
      </trkpt>
      <trkpt lat="32.795556" lon="35.146827">
        <ele>116.0</ele>
        <time>2011-05-25T16:46:47Z</time>
      </trkpt>
      <trkpt lat="32.795508" lon="35.146882">
        <ele>116.0</ele>
        <time>2011-05-25T16:46:56Z</time>
      </trkpt>
      <trkpt lat="32.795429" lon="35.146895">
        <ele>116.0</ele>
        <time>2011-05-25T16:46:59Z</time>
      </trkpt>
      <trkpt lat="32.795208" lon="35.146869">
        <ele>116.0</ele>
        <time>2011-05-25T16:47:06Z</time>
      </trkpt>
      <trkpt lat="32.795051" lon="35.146863">
        <ele>116.0</ele>
        <time>2011-05-25T16:47:10Z</time>
      </trkpt>
      <trkpt lat="32.794952" lon="35.14687">
        <ele>116.0</ele>
        <time>2011-05-25T16:47:12Z</time>
      </trkpt>
      <trkpt lat="32.794733" lon="35.14691">
        <ele>116.0</ele>
        <time>2011-05-25T16:47:16Z</time>
      </trkpt>
      <trkpt lat="32.794461" lon="35.147053">
        <ele>115.0</ele>
        <time>2011-05-25T16:47:22Z</time>
      </trkpt>
      <trkpt lat="32.794404" lon="35.147094">
        <ele>115.0</ele>
        <time>2011-05-25T16:47:24Z</time>
      </trkpt>
      <trkpt lat="32.794342" lon="35.147146">
        <ele>115.0</ele>
        <time>2011-05-25T16:47:27Z</time>
      </trkpt>
      <trkpt lat="32.79429" lon="35.14719">
        <ele>115.0</ele>
        <time>2011-05-25T16:47:32Z</time>
      </trkpt>
      <trkpt lat="32.794233" lon="35.147231">
        <ele>115.0</ele>
        <time>2011-05-25T16:47:37Z</time>
      </trkpt>
      <trkpt lat="32.794177" lon="35.147275">
        <ele>115.0</ele>
        <time>2011-05-25T16:47:40Z</time>
      </trkpt>
      <trkpt lat="32.794124" lon="35.147318">
        <ele>115.0</ele>
        <time>2011-05-25T16:47:44Z</time>
      </trkpt>
      <trkpt lat="32.794073" lon="35.147362">
        <ele>115.0</ele>
        <time>2011-05-25T16:47:48Z</time>
      </trkpt>
      <trkpt lat="32.794019" lon="35.147404">
        <ele>115.0</ele>
        <time>2011-05-25T16:47:51Z</time>
      </trkpt>
      <trkpt lat="32.793968" lon="35.14745">
        <ele>115.0</ele>
        <time>2011-05-25T16:47:55Z</time>
      </trkpt>
      <trkpt lat="32.793856" lon="35.14755">
        <ele>115.0</ele>
        <time>2011-05-25T16:48:02Z</time>
      </trkpt>
      <trkpt lat="32.793807" lon="35.147606">
        <ele>115.0</ele>
        <time>2011-05-25T16:48:05Z</time>
      </trkpt>
      <trkpt lat="32.793717" lon="35.147746">
        <ele>116.0</ele>
        <time>2011-05-25T16:48:14Z</time>
      </trkpt>
      <trkpt lat="32.793686" lon="35.147813">
        <ele>116.0</ele>
        <time>2011-05-25T16:48:18Z</time>
      </trkpt>
      <trkpt lat="32.793653" lon="35.147892">
        <ele>116.0</ele>
        <time>2011-05-25T16:48:21Z</time>
      </trkpt>
      <trkpt lat="32.793625" lon="35.147984">
        <ele>116.0</ele>
        <time>2011-05-25T16:48:25Z</time>
      </trkpt>
      <trkpt lat="32.793592" lon="35.148082">
        <ele>116.0</ele>
        <time>2011-05-25T16:48:29Z</time>
      </trkpt>
      <trkpt lat="32.79358" lon="35.148159">
        <ele>116.0</ele>
        <time>2011-05-25T16:48:33Z</time>
      </trkpt>
      <trkpt lat="32.793572" lon="35.148248">
        <ele>116.0</ele>
        <time>2011-05-25T16:48:37Z</time>
      </trkpt>
      <trkpt lat="32.793554" lon="35.148342">
        <ele>116.0</ele>
        <time>2011-05-25T16:48:41Z</time>
      </trkpt>
      <trkpt lat="32.793538" lon="35.148416">
        <ele>117.0</ele>
        <time>2011-05-25T16:48:44Z</time>
      </trkpt>
      <trkpt lat="32.793524" lon="35.148494">
        <ele>117.0</ele>
        <time>2011-05-25T16:48:48Z</time>
      </trkpt>
      <trkpt lat="32.793495" lon="35.148664">
        <ele>117.0</ele>
        <time>2011-05-25T16:48:54Z</time>
      </trkpt>
      <trkpt lat="32.793484" lon="35.148771">
        <ele>117.0</ele>
        <time>2011-05-25T16:48:58Z</time>
      </trkpt>
      <trkpt lat="32.793474" lon="35.148868">
        <ele>117.0</ele>
        <time>2011-05-25T16:49:01Z</time>
      </trkpt>
      <trkpt lat="32.793483" lon="35.148942">
        <ele>117.0</ele>
        <time>2011-05-25T16:49:04Z</time>
      </trkpt>
      <trkpt lat="32.79348" lon="35.149134">
        <ele>117.0</ele>
        <time>2011-05-25T16:49:10Z</time>
      </trkpt>
      <trkpt lat="32.793471" lon="35.14922">
        <ele>117.0</ele>
        <time>2011-05-25T16:49:13Z</time>
      </trkpt>
      <trkpt lat="32.79346" lon="35.149308">
        <ele>117.0</ele>
        <time>2011-05-25T16:49:17Z</time>
      </trkpt>
      <trkpt lat="32.793388" lon="35.149453">
        <ele>117.0</ele>
        <time>2011-05-25T16:49:23Z</time>
      </trkpt>
      <trkpt lat="32.793346" lon="35.149543">
        <ele>117.0</ele>
        <time>2011-05-25T16:49:27Z</time>
      </trkpt>
      <trkpt lat="32.793322" lon="35.149623">
        <ele>116.999</ele>
        <time>2011-05-25T16:49:31Z</time>
      </trkpt>
      <trkpt lat="32.793242" lon="35.149774">
        <ele>117.0</ele>
        <time>2011-05-25T16:49:38Z</time>
      </trkpt>
      <trkpt lat="32.793197" lon="35.149842">
        <ele>116.999</ele>
        <time>2011-05-25T16:49:41Z</time>
      </trkpt>
      <trkpt lat="32.79315" lon="35.149907">
        <ele>116.999</ele>
        <time>2011-05-25T16:49:44Z</time>
      </trkpt>
      <trkpt lat="32.793047" lon="35.150028">
        <ele>116.999</ele>
        <time>2011-05-25T16:49:49Z</time>
      </trkpt>
      <trkpt lat="32.79294" lon="35.15015">
        <ele>116.999</ele>
        <time>2011-05-25T16:49:53Z</time>
      </trkpt>
      <trkpt lat="32.792838" lon="35.150283">
        <ele>118.0</ele>
        <time>2011-05-25T16:49:57Z</time>
      </trkpt>
      <trkpt lat="32.792751" lon="35.15041">
        <ele>118.0</ele>
        <time>2011-05-25T16:50:01Z</time>
      </trkpt>
      <trkpt lat="32.792694" lon="35.150498">
        <ele>118.0</ele>
        <time>2011-05-25T16:50:04Z</time>
      </trkpt>
      <trkpt lat="32.792592" lon="35.150661">
        <ele>118.0</ele>
        <time>2011-05-25T16:50:10Z</time>
      </trkpt>
      <trkpt lat="32.792554" lon="35.150727">
        <ele>118.0</ele>
        <time>2011-05-25T16:50:14Z</time>
      </trkpt>
      <trkpt lat="32.792476" lon="35.150872">
        <ele>117.999</ele>
        <time>2011-05-25T16:50:21Z</time>
      </trkpt>
      <trkpt lat="32.792444" lon="35.150954">
        <ele>118.0</ele>
        <time>2011-05-25T16:50:24Z</time>
      </trkpt>
      <trkpt lat="32.792394" lon="35.151122">
        <ele>119.0</ele>
        <time>2011-05-25T16:50:30Z</time>
      </trkpt>
      <trkpt lat="32.792373" lon="35.151209">
        <ele>119.0</ele>
        <time>2011-05-25T16:50:33Z</time>
      </trkpt>
      <trkpt lat="32.792355" lon="35.1513">
        <ele>119.0</ele>
        <time>2011-05-25T16:50:36Z</time>
      </trkpt>
      <trkpt lat="32.792331" lon="35.151475">
        <ele>119.0</ele>
        <time>2011-05-25T16:50:42Z</time>
      </trkpt>
      <trkpt lat="32.792318" lon="35.151549">
        <ele>119.0</ele>
        <time>2011-05-25T16:50:44Z</time>
      </trkpt>
      <trkpt lat="32.792291" lon="35.151712">
        <ele>119.0</ele>
        <time>2011-05-25T16:50:50Z</time>
      </trkpt>
      <trkpt lat="32.792275" lon="35.151788">
        <ele>119.0</ele>
        <time>2011-05-25T16:50:53Z</time>
      </trkpt>
      <trkpt lat="32.792254" lon="35.151867">
        <ele>119.0</ele>
        <time>2011-05-25T16:50:56Z</time>
      </trkpt>
      <trkpt lat="32.792205" lon="35.152026">
        <ele>119.0</ele>
        <time>2011-05-25T16:51:02Z</time>
      </trkpt>
      <trkpt lat="32.792173" lon="35.152102">
        <ele>119.0</ele>
        <time>2011-05-25T16:51:05Z</time>
      </trkpt>
      <trkpt lat="32.792137" lon="35.152172">
        <ele>119.0</ele>
        <time>2011-05-25T16:51:08Z</time>
      </trkpt>
      <trkpt lat="32.792091" lon="35.152239">
        <ele>119.0</ele>
        <time>2011-05-25T16:51:11Z</time>
      </trkpt>
      <trkpt lat="32.792002" lon="35.152351">
        <ele>119.0</ele>
        <time>2011-05-25T16:51:17Z</time>
      </trkpt>
      <trkpt lat="32.791948" lon="35.1524">
        <ele>120.0</ele>
        <time>2011-05-25T16:51:20Z</time>
      </trkpt>
      <trkpt lat="32.791819" lon="35.152462">
        <ele>120.0</ele>
        <time>2011-05-25T16:51:26Z</time>
      </trkpt>
      <trkpt lat="32.79175" lon="35.152484">
        <ele>120.0</ele>
        <time>2011-05-25T16:51:29Z</time>
      </trkpt>
      <trkpt lat="32.791679" lon="35.1525">
        <ele>120.0</ele>
        <time>2011-05-25T16:51:32Z</time>
      </trkpt>
      <trkpt lat="32.791608" lon="35.152514">
        <ele>120.0</ele>
        <time>2011-05-25T16:51:35Z</time>
      </trkpt>
      <trkpt lat="32.791468" lon="35.152555">
        <ele>120.0</ele>
        <time>2011-05-25T16:51:41Z</time>
      </trkpt>
      <trkpt lat="32.791402" lon="35.152577">
        <ele>120.0</ele>
        <time>2011-05-25T16:51:44Z</time>
      </trkpt>
      <trkpt lat="32.791243" lon="35.152599">
        <ele>120.0</ele>
        <time>2011-05-25T16:51:50Z</time>
      </trkpt>
      <trkpt lat="32.791167" lon="35.152617">
        <ele>120.0</ele>
        <time>2011-05-25T16:51:53Z</time>
      </trkpt>
      <trkpt lat="32.791093" lon="35.152635">
        <ele>120.0</ele>
        <time>2011-05-25T16:51:56Z</time>
      </trkpt>
      <trkpt lat="32.790938" lon="35.152674">
        <ele>120.0</ele>
        <time>2011-05-25T16:52:02Z</time>
      </trkpt>
      <trkpt lat="32.790857" lon="35.152697">
        <ele>120.0</ele>
        <time>2011-05-25T16:52:05Z</time>
      </trkpt>
      <trkpt lat="32.790773" lon="35.152722">
        <ele>120.0</ele>
        <time>2011-05-25T16:52:08Z</time>
      </trkpt>
      <trkpt lat="32.790601" lon="35.152775">
        <ele>120.0</ele>
        <time>2011-05-25T16:52:14Z</time>
      </trkpt>
      <trkpt lat="32.790513" lon="35.1528">
        <ele>119.999</ele>
        <time>2011-05-25T16:52:17Z</time>
      </trkpt>
      <trkpt lat="32.790389" lon="35.15284">
        <ele>120.0</ele>
        <time>2011-05-25T16:52:21Z</time>
      </trkpt>
      <trkpt lat="32.790237" lon="35.152879">
        <ele>120.0</ele>
        <time>2011-05-25T16:52:26Z</time>
      </trkpt>
      <trkpt lat="32.790145" lon="35.152902">
        <ele>120.0</ele>
        <time>2011-05-25T16:52:29Z</time>
      </trkpt>
      <trkpt lat="32.790045" lon="35.152927">
        <ele>120.0</ele>
        <time>2011-05-25T16:52:32Z</time>
      </trkpt>
      <trkpt lat="32.789867" lon="35.152965">
        <ele>120.0</ele>
        <time>2011-05-25T16:52:38Z</time>
      </trkpt>
      <trkpt lat="32.789775" lon="35.152977">
        <ele>120.0</ele>
        <time>2011-05-25T16:52:41Z</time>
      </trkpt>
      <trkpt lat="32.789682" lon="35.152988">
        <ele>120.0</ele>
        <time>2011-05-25T16:52:44Z</time>
      </trkpt>
      <trkpt lat="32.789467" lon="35.153001">
        <ele>120.0</ele>
        <time>2011-05-25T16:52:50Z</time>
      </trkpt>
      <trkpt lat="32.789248" lon="35.15306">
        <ele>120.0</ele>
        <time>2011-05-25T16:52:57Z</time>
      </trkpt>
      <trkpt lat="32.789095" lon="35.15311">
        <ele>120.0</ele>
        <time>2011-05-25T16:53:02Z</time>
      </trkpt>
      <trkpt lat="32.789008" lon="35.153137">
        <ele>120.0</ele>
        <time>2011-05-25T16:53:05Z</time>
      </trkpt>
      <trkpt lat="32.788932" lon="35.153149">
        <ele>120.0</ele>
        <time>2011-05-25T16:53:08Z</time>
      </trkpt>
      <trkpt lat="32.788861" lon="35.153137">
        <ele>120.0</ele>
        <time>2011-05-25T16:53:12Z</time>
      </trkpt>
      <trkpt lat="32.788793" lon="35.153117">
        <ele>120.0</ele>
        <time>2011-05-25T16:53:17Z</time>
      </trkpt>
      <trkpt lat="32.788713" lon="35.15312">
        <ele>121.0</ele>
        <time>2011-05-25T16:53:22Z</time>
      </trkpt>
      <trkpt lat="32.788552" lon="35.153151">
        <ele>121.0</ele>
        <time>2011-05-25T16:53:30Z</time>
      </trkpt>
      <trkpt lat="32.788487" lon="35.153162">
        <ele>121.0</ele>
        <time>2011-05-25T16:53:33Z</time>
      </trkpt>
      <trkpt lat="32.788421" lon="35.153163">
        <ele>121.0</ele>
        <time>2011-05-25T16:53:36Z</time>
      </trkpt>
      <trkpt lat="32.788287" lon="35.153185">
        <ele>120.0</ele>
        <time>2011-05-25T16:53:42Z</time>
      </trkpt>
      <trkpt lat="32.788164" lon="35.153226">
        <ele>120.0</ele>
        <time>2011-05-25T16:53:48Z</time>
      </trkpt>
      <trkpt lat="32.788042" lon="35.153288">
        <ele>120.0</ele>
        <time>2011-05-25T16:53:54Z</time>
      </trkpt>
      <trkpt lat="32.787985" lon="35.153328">
        <ele>120.0</ele>
        <time>2011-05-25T16:53:57Z</time>
      </trkpt>
      <trkpt lat="32.787929" lon="35.153367">
        <ele>120.0</ele>
        <time>2011-05-25T16:54:00Z</time>
      </trkpt>
      <trkpt lat="32.787819" lon="35.153448">
        <ele>120.0</ele>
        <time>2011-05-25T16:54:06Z</time>
      </trkpt>
      <trkpt lat="32.787764" lon="35.153502">
        <ele>120.0</ele>
        <time>2011-05-25T16:54:09Z</time>
      </trkpt>
      <trkpt lat="32.787699" lon="35.153558">
        <ele>121.0</ele>
        <time>2011-05-25T16:54:13Z</time>
      </trkpt>
      <trkpt lat="32.787716" lon="35.153482">
        <ele>121.0</ele>
        <time>2011-05-25T16:54:21Z</time>
      </trkpt>
      <trkpt lat="32.787775" lon="35.153436">
        <ele>121.0</ele>
        <time>2011-05-25T16:54:25Z</time>
      </trkpt>
      <trkpt lat="32.787844" lon="35.153421">
        <ele>122.0</ele>
        <time>2011-05-25T16:54:30Z</time>
      </trkpt>
      <trkpt lat="32.787905" lon="35.153386">
        <ele>123.0</ele>
        <time>2011-05-25T16:54:33Z</time>
      </trkpt>
      <trkpt lat="32.78797" lon="35.15339">
        <ele>124.0</ele>
        <time>2011-05-25T16:54:45Z</time>
      </trkpt>
      <trkpt lat="32.787941" lon="35.153459">
        <ele>124.0</ele>
        <time>2011-05-25T16:54:58Z</time>
      </trkpt>
      <trkpt lat="32.78789" lon="35.153507">
        <ele>124.0</ele>
        <time>2011-05-25T16:55:10Z</time>
      </trkpt>
      <trkpt lat="32.787847" lon="35.153567">
        <ele>124.0</ele>
        <time>2011-05-25T16:55:38Z</time>
      </trkpt>
      <trkpt lat="32.787891" lon="35.153508">
        <ele>125.0</ele>
        <time>2011-05-25T16:56:36Z</time>
      </trkpt>
      <trkpt lat="32.787914" lon="35.153598">
        <ele>126.0</ele>
        <time>2011-05-25T16:57:12Z</time>
      </trkpt>
      <trkpt lat="32.787943" lon="35.153674">
        <ele>127.0</ele>
        <time>2011-05-25T16:57:18Z</time>
      </trkpt>
      <trkpt lat="32.788018" lon="35.153815">
        <ele>127.0</ele>
        <time>2011-05-25T16:57:31Z</time>
      </trkpt>
      <trkpt lat="32.788055" lon="35.153882">
        <ele>127.0</ele>
        <time>2011-05-25T16:57:37Z</time>
      </trkpt>
      <trkpt lat="32.788096" lon="35.153939">
        <ele>127.0</ele>
        <time>2011-05-25T16:57:40Z</time>
      </trkpt>
      <trkpt lat="32.788141" lon="35.154015">
        <ele>127.0</ele>
        <time>2011-05-25T16:57:45Z</time>
      </trkpt>
      <trkpt lat="32.788212" lon="35.154157">
        <ele>127.0</ele>
        <time>2011-05-25T16:57:53Z</time>
      </trkpt>
      <trkpt lat="32.788304" lon="35.154392">
        <ele>127.0</ele>
        <time>2011-05-25T16:58:02Z</time>
      </trkpt>
      <trkpt lat="32.788341" lon="35.15448">
        <ele>127.0</ele>
        <time>2011-05-25T16:58:05Z</time>
      </trkpt>
      <trkpt lat="32.788395" lon="35.154569">
        <ele>127.0</ele>
        <time>2011-05-25T16:58:08Z</time>
      </trkpt>
      <trkpt lat="32.788482" lon="35.154734">
        <ele>127.0</ele>
        <time>2011-05-25T16:58:13Z</time>
      </trkpt>
      <trkpt lat="32.78856" lon="35.154953">
        <ele>127.0</ele>
        <time>2011-05-25T16:58:17Z</time>
      </trkpt>
      <trkpt lat="32.788635" lon="35.155187">
        <ele>128.0</ele>
        <time>2011-05-25T16:58:21Z</time>
      </trkpt>
      <trkpt lat="32.78868" lon="35.155412">
        <ele>128.0</ele>
        <time>2011-05-25T16:58:25Z</time>
      </trkpt>
      <trkpt lat="32.788685" lon="35.155618">
        <ele>128.0</ele>
        <time>2011-05-25T16:58:29Z</time>
      </trkpt>
      <trkpt lat="32.78866" lon="35.155799">
        <ele>128.0</ele>
        <time>2011-05-25T16:58:33Z</time>
      </trkpt>
      <trkpt lat="32.788622" lon="35.155964">
        <ele>128.0</ele>
        <time>2011-05-25T16:58:37Z</time>
      </trkpt>
      <trkpt lat="32.788574" lon="35.156114">
        <ele>128.0</ele>
        <time>2011-05-25T16:58:41Z</time>
      </trkpt>
      <trkpt lat="32.788502" lon="35.156274">
        <ele>128.0</ele>
        <time>2011-05-25T16:58:46Z</time>
      </trkpt>
      <trkpt lat="32.788454" lon="35.156359">
        <ele>128.0</ele>
        <time>2011-05-25T16:58:49Z</time>
      </trkpt>
      <trkpt lat="32.788407" lon="35.15644">
        <ele>128.0</ele>
        <time>2011-05-25T16:58:52Z</time>
      </trkpt>
      <trkpt lat="32.788315" lon="35.156592">
        <ele>128.0</ele>
        <time>2011-05-25T16:58:58Z</time>
      </trkpt>
      <trkpt lat="32.788251" lon="35.156658">
        <ele>128.0</ele>
        <time>2011-05-25T16:59:01Z</time>
      </trkpt>
      <trkpt lat="32.788023" lon="35.156798">
        <ele>129.0</ele>
        <time>2011-05-25T16:59:10Z</time>
      </trkpt>
      <trkpt lat="32.787938" lon="35.156824">
        <ele>129.0</ele>
        <time>2011-05-25T16:59:13Z</time>
      </trkpt>
      <trkpt lat="32.787853" lon="35.156845">
        <ele>129.0</ele>
        <time>2011-05-25T16:59:16Z</time>
      </trkpt>
      <trkpt lat="32.787681" lon="35.156874">
        <ele>129.0</ele>
        <time>2011-05-25T16:59:22Z</time>
      </trkpt>
      <trkpt lat="32.787594" lon="35.156886">
        <ele>129.0</ele>
        <time>2011-05-25T16:59:25Z</time>
      </trkpt>
      <trkpt lat="32.787439" lon="35.156875">
        <ele>129.0</ele>
        <time>2011-05-25T16:59:30Z</time>
      </trkpt>
      <trkpt lat="32.787374" lon="35.156862">
        <ele>129.0</ele>
        <time>2011-05-25T16:59:32Z</time>
      </trkpt>
      <trkpt lat="32.787192" lon="35.156853">
        <ele>129.0</ele>
        <time>2011-05-25T16:59:38Z</time>
      </trkpt>
      <trkpt lat="32.787106" lon="35.156853">
        <ele>129.0</ele>
        <time>2011-05-25T16:59:41Z</time>
      </trkpt>
      <trkpt lat="32.78702" lon="35.156858">
        <ele>129.0</ele>
        <time>2011-05-25T16:59:44Z</time>
      </trkpt>
      <trkpt lat="32.786848" lon="35.156872">
        <ele>129.0</ele>
        <time>2011-05-25T16:59:50Z</time>
      </trkpt>
      <trkpt lat="32.786766" lon="35.15688">
        <ele>129.0</ele>
        <time>2011-05-25T16:59:53Z</time>
      </trkpt>
      <trkpt lat="32.786684" lon="35.156887">
        <ele>129.0</ele>
        <time>2011-05-25T16:59:56Z</time>
      </trkpt>
      <trkpt lat="32.786521" lon="35.156896">
        <ele>129.0</ele>
        <time>2011-05-25T17:00:02Z</time>
      </trkpt>
      <trkpt lat="32.78644" lon="35.156901">
        <ele>129.0</ele>
        <time>2011-05-25T17:00:05Z</time>
      </trkpt>
      <trkpt lat="32.78636" lon="35.156903">
        <ele>129.0</ele>
        <time>2011-05-25T17:00:08Z</time>
      </trkpt>
      <trkpt lat="32.786284" lon="35.156912">
        <ele>129.0</ele>
        <time>2011-05-25T17:00:11Z</time>
      </trkpt>
      <trkpt lat="32.786136" lon="35.156941">
        <ele>129.0</ele>
        <time>2011-05-25T17:00:17Z</time>
      </trkpt>
      <trkpt lat="32.786062" lon="35.156959">
        <ele>129.0</ele>
        <time>2011-05-25T17:00:20Z</time>
      </trkpt>
      <trkpt lat="32.785912" lon="35.156996">
        <ele>130.0</ele>
        <time>2011-05-25T17:00:26Z</time>
      </trkpt>
      <trkpt lat="32.785839" lon="35.157018">
        <ele>130.0</ele>
        <time>2011-05-25T17:00:29Z</time>
      </trkpt>
      <trkpt lat="32.785766" lon="35.157041">
        <ele>130.0</ele>
        <time>2011-05-25T17:00:32Z</time>
      </trkpt>
      <trkpt lat="32.785622" lon="35.157085">
        <ele>130.0</ele>
        <time>2011-05-25T17:00:38Z</time>
      </trkpt>
      <trkpt lat="32.785553" lon="35.157105">
        <ele>130.0</ele>
        <time>2011-05-25T17:00:41Z</time>
      </trkpt>
      <trkpt lat="32.785489" lon="35.157127">
        <ele>130.0</ele>
        <time>2011-05-25T17:00:44Z</time>
      </trkpt>
      <trkpt lat="32.785424" lon="35.157149">
        <ele>130.0</ele>
        <time>2011-05-25T17:00:47Z</time>
      </trkpt>
      <trkpt lat="32.785299" lon="35.157195">
        <ele>130.0</ele>
        <time>2011-05-25T17:00:53Z</time>
      </trkpt>
      <trkpt lat="32.785241" lon="35.157224">
        <ele>130.0</ele>
        <time>2011-05-25T17:00:56Z</time>
      </trkpt>
      <trkpt lat="32.785181" lon="35.157255">
        <ele>130.0</ele>
        <time>2011-05-25T17:00:59Z</time>
      </trkpt>
      <trkpt lat="32.785057" lon="35.157328">
        <ele>131.0</ele>
        <time>2011-05-25T17:01:05Z</time>
      </trkpt>
      <trkpt lat="32.784995" lon="35.157376">
        <ele>131.0</ele>
        <time>2011-05-25T17:01:08Z</time>
      </trkpt>
      <trkpt lat="32.78487" lon="35.157488">
        <ele>131.0</ele>
        <time>2011-05-25T17:01:14Z</time>
      </trkpt>
      <trkpt lat="32.784807" lon="35.157552">
        <ele>131.0</ele>
        <time>2011-05-25T17:01:17Z</time>
      </trkpt>
      <trkpt lat="32.784748" lon="35.157621">
        <ele>131.0</ele>
        <time>2011-05-25T17:01:20Z</time>
      </trkpt>
      <trkpt lat="32.784662" lon="35.157775">
        <ele>131.0</ele>
        <time>2011-05-25T17:01:25Z</time>
      </trkpt>
      <trkpt lat="32.784631" lon="35.157853">
        <ele>131.0</ele>
        <time>2011-05-25T17:01:27Z</time>
      </trkpt>
      <trkpt lat="32.784561" lon="35.158128">
        <ele>132.0</ele>
        <time>2011-05-25T17:01:33Z</time>
      </trkpt>
      <trkpt lat="32.784513" lon="35.158296">
        <ele>132.0</ele>
        <time>2011-05-25T17:01:37Z</time>
      </trkpt>
      <trkpt lat="32.784489" lon="35.158378">
        <ele>132.0</ele>
        <time>2011-05-25T17:01:39Z</time>
      </trkpt>
      <trkpt lat="32.784424" lon="35.15861">
        <ele>132.0</ele>
        <time>2011-05-25T17:01:45Z</time>
      </trkpt>
      <trkpt lat="32.784388" lon="35.15876">
        <ele>132.0</ele>
        <time>2011-05-25T17:01:49Z</time>
      </trkpt>
      <trkpt lat="32.784372" lon="35.158918">
        <ele>132.0</ele>
        <time>2011-05-25T17:01:53Z</time>
      </trkpt>
      <trkpt lat="32.784355" lon="35.159022">
        <ele>132.0</ele>
        <time>2011-05-25T17:01:56Z</time>
      </trkpt>
      <trkpt lat="32.784441" lon="35.159344">
        <ele>132.0</ele>
        <time>2011-05-25T17:02:02Z</time>
      </trkpt>
      <trkpt lat="32.784592" lon="35.159566">
        <ele>132.0</ele>
        <time>2011-05-25T17:02:06Z</time>
      </trkpt>
      <trkpt lat="32.784812" lon="35.15974">
        <ele>132.0</ele>
        <time>2011-05-25T17:02:10Z</time>
      </trkpt>
      <trkpt lat="32.785193" lon="35.15993">
        <ele>133.0</ele>
        <time>2011-05-25T17:02:14Z</time>
      </trkpt>
      <trkpt lat="32.785569" lon="35.160034">
        <ele>133.0</ele>
        <time>2011-05-25T17:02:18Z</time>
      </trkpt>
      <trkpt lat="32.785742" lon="35.160025">
        <ele>133.0</ele>
        <time>2011-05-25T17:02:21Z</time>
      </trkpt>
      <trkpt lat="32.785893" lon="35.159951">
        <ele>133.0</ele>
        <time>2011-05-25T17:02:25Z</time>
      </trkpt>
      <trkpt lat="32.78602" lon="35.159847">
        <ele>133.0</ele>
        <time>2011-05-25T17:02:29Z</time>
      </trkpt>
      <trkpt lat="32.786136" lon="35.159716">
        <ele>133.0</ele>
        <time>2011-05-25T17:02:33Z</time>
      </trkpt>
      <trkpt lat="32.786249" lon="35.159587">
        <ele>133.0</ele>
        <time>2011-05-25T17:02:37Z</time>
      </trkpt>
      <trkpt lat="32.78636" lon="35.159465">
        <ele>133.0</ele>
        <time>2011-05-25T17:02:41Z</time>
      </trkpt>
      <trkpt lat="32.786474" lon="35.159343">
        <ele>133.0</ele>
        <time>2011-05-25T17:02:45Z</time>
      </trkpt>
      <trkpt lat="32.7866" lon="35.159229">
        <ele>134.0</ele>
        <time>2011-05-25T17:02:49Z</time>
      </trkpt>
      <trkpt lat="32.786737" lon="35.159153">
        <ele>134.0</ele>
        <time>2011-05-25T17:02:53Z</time>
      </trkpt>
      <trkpt lat="32.786884" lon="35.159107">
        <ele>134.0</ele>
        <time>2011-05-25T17:02:57Z</time>
      </trkpt>
      <trkpt lat="32.787026" lon="35.159064">
        <ele>134.0</ele>
        <time>2011-05-25T17:03:01Z</time>
      </trkpt>
      <trkpt lat="32.787169" lon="35.159018">
        <ele>134.0</ele>
        <time>2011-05-25T17:03:05Z</time>
      </trkpt>
      <trkpt lat="32.787241" lon="35.159">
        <ele>134.0</ele>
        <time>2011-05-25T17:03:07Z</time>
      </trkpt>
      <trkpt lat="32.787456" lon="35.158957">
        <ele>135.0</ele>
        <time>2011-05-25T17:03:13Z</time>
      </trkpt>
      <trkpt lat="32.787606" lon="35.158931">
        <ele>135.0</ele>
        <time>2011-05-25T17:03:17Z</time>
      </trkpt>
      <trkpt lat="32.787679" lon="35.158925">
        <ele>135.0</ele>
        <time>2011-05-25T17:03:19Z</time>
      </trkpt>
      <trkpt lat="32.78789" lon="35.158976">
        <ele>135.0</ele>
        <time>2011-05-25T17:03:25Z</time>
      </trkpt>
      <trkpt lat="32.788029" lon="35.159008">
        <ele>136.0</ele>
        <time>2011-05-25T17:03:29Z</time>
      </trkpt>
      <trkpt lat="32.788097" lon="35.159016">
        <ele>136.0</ele>
        <time>2011-05-25T17:03:31Z</time>
      </trkpt>
      <trkpt lat="32.788294" lon="35.159078">
        <ele>136.0</ele>
        <time>2011-05-25T17:03:37Z</time>
      </trkpt>
      <trkpt lat="32.788374" lon="35.159202">
        <ele>137.0</ele>
        <time>2011-05-25T17:03:41Z</time>
      </trkpt>
      <trkpt lat="32.788396" lon="35.159419">
        <ele>137.0</ele>
        <time>2011-05-25T17:03:45Z</time>
      </trkpt>
      <trkpt lat="32.788431" lon="35.159586">
        <ele>137.0</ele>
        <time>2011-05-25T17:03:49Z</time>
      </trkpt>
      <trkpt lat="32.788491" lon="35.159758">
        <ele>138.0</ele>
        <time>2011-05-25T17:03:54Z</time>
      </trkpt>
      <trkpt lat="32.788535" lon="35.159848">
        <ele>138.0</ele>
        <time>2011-05-25T17:03:57Z</time>
      </trkpt>
      <trkpt lat="32.788579" lon="35.159937">
        <ele>138.0</ele>
        <time>2011-05-25T17:04:00Z</time>
      </trkpt>
      <trkpt lat="32.78868" lon="35.160103">
        <ele>139.0</ele>
        <time>2011-05-25T17:04:06Z</time>
      </trkpt>
      <trkpt lat="32.788724" lon="35.160198">
        <ele>139.0</ele>
        <time>2011-05-25T17:04:09Z</time>
      </trkpt>
      <trkpt lat="32.788765" lon="35.160296">
        <ele>139.0</ele>
        <time>2011-05-25T17:04:12Z</time>
      </trkpt>
      <trkpt lat="32.78885" lon="35.160491">
        <ele>139.0</ele>
        <time>2011-05-25T17:04:18Z</time>
      </trkpt>
      <trkpt lat="32.788887" lon="35.160592">
        <ele>139.0</ele>
        <time>2011-05-25T17:04:21Z</time>
      </trkpt>
      <trkpt lat="32.788919" lon="35.160695">
        <ele>140.0</ele>
        <time>2011-05-25T17:04:24Z</time>
      </trkpt>
      <trkpt lat="32.788984" lon="35.160893">
        <ele>140.0</ele>
        <time>2011-05-25T17:04:30Z</time>
      </trkpt>
      <trkpt lat="32.78902" lon="35.160987">
        <ele>140.0</ele>
        <time>2011-05-25T17:04:33Z</time>
      </trkpt>
      <trkpt lat="32.789056" lon="35.161079">
        <ele>140.0</ele>
        <time>2011-05-25T17:04:36Z</time>
      </trkpt>
      <trkpt lat="32.789086" lon="35.161164">
        <ele>140.0</ele>
        <time>2011-05-25T17:04:39Z</time>
      </trkpt>
      <trkpt lat="32.789139" lon="35.161332">
        <ele>141.0</ele>
        <time>2011-05-25T17:04:46Z</time>
      </trkpt>
      <trkpt lat="32.789162" lon="35.161418">
        <ele>141.0</ele>
        <time>2011-05-25T17:04:50Z</time>
      </trkpt>
      <trkpt lat="32.789171" lon="35.161497">
        <ele>141.0</ele>
        <time>2011-05-25T17:04:54Z</time>
      </trkpt>
      <trkpt lat="32.789158" lon="35.161572">
        <ele>141.0</ele>
        <time>2011-05-25T17:04:59Z</time>
      </trkpt>
      <trkpt lat="32.78911" lon="35.161628">
        <ele>141.0</ele>
        <time>2011-05-25T17:05:04Z</time>
      </trkpt>
      <trkpt lat="32.78904" lon="35.161629">
        <ele>141.0</ele>
        <time>2011-05-25T17:05:09Z</time>
      </trkpt>
      <trkpt lat="32.788988" lon="35.161585">
        <ele>141.0</ele>
        <time>2011-05-25T17:05:22Z</time>
      </trkpt>
      <trkpt lat="32.789" lon="35.161511">
        <ele>141.0</ele>
        <time>2011-05-25T17:05:33Z</time>
      </trkpt>
      <trkpt lat="32.789141" lon="35.161438">
        <ele>141.0</ele>
        <time>2011-05-25T17:05:38Z</time>
      </trkpt>
      <trkpt lat="32.789386" lon="35.161158">
        <ele>142.0</ele>
        <time>2011-05-25T17:05:42Z</time>
      </trkpt>
      <trkpt lat="32.789537" lon="35.160944">
        <ele>142.0</ele>
        <time>2011-05-25T17:05:45Z</time>
      </trkpt>
      <trkpt lat="32.789678" lon="35.160787">
        <ele>142.0</ele>
        <time>2011-05-25T17:05:49Z</time>
      </trkpt>
      <trkpt lat="32.789787" lon="35.160664">
        <ele>142.0</ele>
        <time>2011-05-25T17:05:53Z</time>
      </trkpt>
      <trkpt lat="32.789838" lon="35.160485">
        <ele>142.0</ele>
        <time>2011-05-25T17:05:57Z</time>
      </trkpt>
      <trkpt lat="32.789823" lon="35.160247">
        <ele>142.0</ele>
        <time>2011-05-25T17:06:01Z</time>
      </trkpt>
      <trkpt lat="32.789824" lon="35.160087">
        <ele>142.0</ele>
        <time>2011-05-25T17:06:06Z</time>
      </trkpt>
      <trkpt lat="32.789869" lon="35.160032">
        <ele>143.0</ele>
        <time>2011-05-25T17:06:12Z</time>
      </trkpt>
      <trkpt lat="32.789939" lon="35.160047">
        <ele>143.0</ele>
        <time>2011-05-25T17:06:19Z</time>
      </trkpt>
      <trkpt lat="32.78998" lon="35.160113">
        <ele>143.0</ele>
        <time>2011-05-25T17:06:24Z</time>
      </trkpt>
      <trkpt lat="32.790018" lon="35.160183">
        <ele>143.0</ele>
        <time>2011-05-25T17:06:28Z</time>
      </trkpt>
      <trkpt lat="32.790062" lon="35.160254">
        <ele>144.0</ele>
        <time>2011-05-25T17:06:33Z</time>
      </trkpt>
      <trkpt lat="32.790101" lon="35.160324">
        <ele>144.0</ele>
        <time>2011-05-25T17:06:54Z</time>
      </trkpt>
      <trkpt lat="32.790166" lon="35.160346">
        <ele>144.0</ele>
        <time>2011-05-25T17:06:58Z</time>
      </trkpt>
      <trkpt lat="32.790234" lon="35.160331">
        <ele>144.0</ele>
        <time>2011-05-25T17:07:03Z</time>
      </trkpt>
      <trkpt lat="32.790219" lon="35.160643">
        <ele>143.0</ele>
        <time>2011-05-25T17:07:57Z</time>
      </trkpt>
      <trkpt lat="32.790181" lon="35.160942">
        <ele>143.0</ele>
        <time>2011-05-25T17:08:01Z</time>
      </trkpt>
      <trkpt lat="32.790095" lon="35.161198">
        <ele>143.0</ele>
        <time>2011-05-25T17:08:05Z</time>
      </trkpt>
      <trkpt lat="32.790023" lon="35.161373">
        <ele>143.0</ele>
        <time>2011-05-25T17:08:09Z</time>
      </trkpt>
      <trkpt lat="32.789995" lon="35.161449">
        <ele>143.0</ele>
        <time>2011-05-25T17:08:11Z</time>
      </trkpt>
      <trkpt lat="32.789934" lon="35.161634">
        <ele>143.0</ele>
        <time>2011-05-25T17:08:17Z</time>
      </trkpt>
      <trkpt lat="32.789909" lon="35.161726">
        <ele>143.0</ele>
        <time>2011-05-25T17:08:21Z</time>
      </trkpt>
      <trkpt lat="32.789888" lon="35.1618">
        <ele>143.0</ele>
        <time>2011-05-25T17:09:17Z</time>
      </trkpt>
      <trkpt lat="32.78994" lon="35.161863">
        <ele>143.0</ele>
        <time>2011-05-25T17:09:22Z</time>
      </trkpt>
      <trkpt lat="32.790036" lon="35.16199">
        <ele>143.0</ele>
        <time>2011-05-25T17:09:26Z</time>
      </trkpt>
      <trkpt lat="32.790073" lon="35.162069">
        <ele>143.0</ele>
        <time>2011-05-25T17:09:28Z</time>
      </trkpt>
      <trkpt lat="32.790093" lon="35.162323">
        <ele>144.0</ele>
        <time>2011-05-25T17:09:34Z</time>
      </trkpt>
      <trkpt lat="32.790069" lon="35.162492">
        <ele>144.0</ele>
        <time>2011-05-25T17:09:38Z</time>
      </trkpt>
      <trkpt lat="32.790052" lon="35.162567">
        <ele>144.0</ele>
        <time>2011-05-25T17:09:47Z</time>
      </trkpt>
      <trkpt lat="32.789991" lon="35.162637">
        <ele>145.0</ele>
        <time>2011-05-25T17:10:01Z</time>
      </trkpt>
      <trkpt lat="32.789934" lon="35.162698">
        <ele>145.0</ele>
        <time>2011-05-25T17:10:05Z</time>
      </trkpt>
      <trkpt lat="32.789815" lon="35.162801">
        <ele>145.0</ele>
        <time>2011-05-25T17:10:09Z</time>
      </trkpt>
      <trkpt lat="32.789673" lon="35.162936">
        <ele>145.0</ele>
        <time>2011-05-25T17:10:13Z</time>
      </trkpt>
      <trkpt lat="32.78955" lon="35.16309">
        <ele>146.0</ele>
        <time>2011-05-25T17:10:17Z</time>
      </trkpt>
      <trkpt lat="32.789491" lon="35.163275">
        <ele>146.0</ele>
        <time>2011-05-25T17:10:21Z</time>
      </trkpt>
      <trkpt lat="32.789481" lon="35.163466">
        <ele>146.0</ele>
        <time>2011-05-25T17:10:25Z</time>
      </trkpt>
      <trkpt lat="32.789723" lon="35.163688">
        <ele>147.0</ele>
        <time>2011-05-25T17:10:30Z</time>
      </trkpt>
      <trkpt lat="32.789914" lon="35.163824">
        <ele>147.0</ele>
        <time>2011-05-25T17:10:33Z</time>
      </trkpt>
      <trkpt lat="32.790009" lon="35.164544">
        <ele>137.0</ele>
        <time>2011-05-25T17:10:50Z</time>
      </trkpt>
      <trkpt lat="32.789963" lon="35.164282">
        <ele>136.0</ele>
        <time>2011-05-25T17:10:58Z</time>
      </trkpt>
      <trkpt lat="32.789963" lon="35.16416">
        <ele>136.0</ele>
        <time>2011-05-25T17:11:01Z</time>
      </trkpt>
      <trkpt lat="32.789969" lon="35.16405">
        <ele>136.0</ele>
        <time>2011-05-25T17:11:04Z</time>
      </trkpt>
      <trkpt lat="32.790039" lon="35.16406">
        <ele>136.0</ele>
        <time>2011-05-25T17:12:12Z</time>
      </trkpt>
      <trkpt lat="32.789939" lon="35.16418">
        <ele>136.0</ele>
        <time>2011-05-25T17:12:26Z</time>
      </trkpt>
      <trkpt lat="32.789827" lon="35.164274">
        <ele>136.0</ele>
        <time>2011-05-25T17:12:30Z</time>
      </trkpt>
      <trkpt lat="32.7896" lon="35.1645">
        <ele>136.0</ele>
        <time>2011-05-25T17:12:42Z</time>
      </trkpt>
      <trkpt lat="32.789389" lon="35.164653">
        <ele>136.0</ele>
        <time>2011-05-25T17:12:50Z</time>
      </trkpt>
      <trkpt lat="32.789312" lon="35.164704">
        <ele>136.0</ele>
        <time>2011-05-25T17:12:53Z</time>
      </trkpt>
      <trkpt lat="32.789237" lon="35.164752">
        <ele>136.0</ele>
        <time>2011-05-25T17:12:56Z</time>
      </trkpt>
      <trkpt lat="32.789099" lon="35.16486">
        <ele>136.0</ele>
        <time>2011-05-25T17:13:02Z</time>
      </trkpt>
      <trkpt lat="32.789034" lon="35.164922">
        <ele>136.0</ele>
        <time>2011-05-25T17:13:05Z</time>
      </trkpt>
      <trkpt lat="32.788975" lon="35.164998">
        <ele>136.0</ele>
        <time>2011-05-25T17:13:08Z</time>
      </trkpt>
      <trkpt lat="32.788857" lon="35.165157">
        <ele>136.0</ele>
        <time>2011-05-25T17:13:14Z</time>
      </trkpt>
      <trkpt lat="32.788796" lon="35.16523">
        <ele>136.0</ele>
        <time>2011-05-25T17:13:17Z</time>
      </trkpt>
      <trkpt lat="32.788736" lon="35.165303">
        <ele>136.0</ele>
        <time>2011-05-25T17:13:20Z</time>
      </trkpt>
      <trkpt lat="32.78869" lon="35.165497">
        <ele>136.0</ele>
        <time>2011-05-25T17:13:26Z</time>
      </trkpt>
      <trkpt lat="32.788644" lon="35.165681">
        <ele>136.0</ele>
        <time>2011-05-25T17:13:32Z</time>
      </trkpt>
      <trkpt lat="32.788594" lon="35.165851">
        <ele>136.0</ele>
        <time>2011-05-25T17:13:38Z</time>
      </trkpt>
      <trkpt lat="32.788572" lon="35.165929">
        <ele>136.0</ele>
        <time>2011-05-25T17:13:41Z</time>
      </trkpt>
      <trkpt lat="32.788552" lon="35.166009">
        <ele>136.0</ele>
        <time>2011-05-25T17:13:44Z</time>
      </trkpt>
      <trkpt lat="32.788546" lon="35.166177">
        <ele>136.0</ele>
        <time>2011-05-25T17:13:50Z</time>
      </trkpt>
      <trkpt lat="32.788536" lon="35.166255">
        <ele>136.0</ele>
        <time>2011-05-25T17:13:53Z</time>
      </trkpt>
      <trkpt lat="32.788508" lon="35.166325">
        <ele>136.0</ele>
        <time>2011-05-25T17:13:59Z</time>
      </trkpt>
      <trkpt lat="32.788467" lon="35.166265">
        <ele>135.0</ele>
        <time>2011-05-25T17:14:18Z</time>
      </trkpt>
      <trkpt lat="32.788333" lon="35.166207">
        <ele>135.0</ele>
        <time>2011-05-25T17:14:22Z</time>
      </trkpt>
      <trkpt lat="32.788195" lon="35.166184">
        <ele>135.0</ele>
        <time>2011-05-25T17:14:26Z</time>
      </trkpt>
      <trkpt lat="32.787965" lon="35.166199">
        <ele>135.0</ele>
        <time>2011-05-25T17:14:33Z</time>
      </trkpt>
      <trkpt lat="32.787795" lon="35.166231">
        <ele>135.0</ele>
        <time>2011-05-25T17:14:37Z</time>
      </trkpt>
      <trkpt lat="32.78764" lon="35.166286">
        <ele>135.0</ele>
        <time>2011-05-25T17:14:41Z</time>
      </trkpt>
      <trkpt lat="32.787491" lon="35.166348">
        <ele>135.0</ele>
        <time>2011-05-25T17:14:45Z</time>
      </trkpt>
      <trkpt lat="32.787355" lon="35.166404">
        <ele>134.0</ele>
        <time>2011-05-25T17:14:49Z</time>
      </trkpt>
      <trkpt lat="32.78727" lon="35.166435">
        <ele>134.0</ele>
        <time>2011-05-25T17:14:52Z</time>
      </trkpt>
      <trkpt lat="32.787093" lon="35.166507">
        <ele>134.0</ele>
        <time>2011-05-25T17:14:57Z</time>
      </trkpt>
      <trkpt lat="32.786911" lon="35.166584">
        <ele>134.0</ele>
        <time>2011-05-25T17:15:01Z</time>
      </trkpt>
      <trkpt lat="32.786777" lon="35.166656">
        <ele>133.0</ele>
        <time>2011-05-25T17:15:05Z</time>
      </trkpt>
      <trkpt lat="32.786647" lon="35.166721">
        <ele>133.0</ele>
        <time>2011-05-25T17:15:09Z</time>
      </trkpt>
      <trkpt lat="32.786513" lon="35.166791">
        <ele>133.0</ele>
        <time>2011-05-25T17:15:13Z</time>
      </trkpt>
      <trkpt lat="32.786437" lon="35.16682">
        <ele>133.0</ele>
        <time>2011-05-25T17:15:16Z</time>
      </trkpt>
      <trkpt lat="32.786288" lon="35.16686">
        <ele>133.0</ele>
        <time>2011-05-25T17:15:22Z</time>
      </trkpt>
      <trkpt lat="32.786216" lon="35.166892">
        <ele>133.0</ele>
        <time>2011-05-25T17:15:25Z</time>
      </trkpt>
      <trkpt lat="32.786145" lon="35.166926">
        <ele>133.0</ele>
        <time>2011-05-25T17:15:28Z</time>
      </trkpt>
      <trkpt lat="32.786004" lon="35.16699">
        <ele>133.0</ele>
        <time>2011-05-25T17:15:34Z</time>
      </trkpt>
      <trkpt lat="32.785916" lon="35.167026">
        <ele>133.0</ele>
        <time>2011-05-25T17:15:37Z</time>
      </trkpt>
      <trkpt lat="32.78578" lon="35.167086">
        <ele>133.0</ele>
        <time>2011-05-25T17:15:41Z</time>
      </trkpt>
      <trkpt lat="32.785701" lon="35.167132">
        <ele>133.0</ele>
        <time>2011-05-25T17:15:44Z</time>
      </trkpt>
      <trkpt lat="32.785621" lon="35.167175">
        <ele>133.0</ele>
        <time>2011-05-25T17:15:47Z</time>
      </trkpt>
      <trkpt lat="32.785467" lon="35.167252">
        <ele>133.0</ele>
        <time>2011-05-25T17:15:53Z</time>
      </trkpt>
      <trkpt lat="32.785231" lon="35.167269">
        <ele>133.0</ele>
        <time>2011-05-25T17:16:02Z</time>
      </trkpt>
      <trkpt lat="32.784909" lon="35.167257">
        <ele>133.0</ele>
        <time>2011-05-25T17:16:14Z</time>
      </trkpt>
      <trkpt lat="32.784824" lon="35.167262">
        <ele>133.0</ele>
        <time>2011-05-25T17:16:17Z</time>
      </trkpt>
      <trkpt lat="32.784737" lon="35.167271">
        <ele>133.0</ele>
        <time>2011-05-25T17:16:20Z</time>
      </trkpt>
      <trkpt lat="32.784559" lon="35.167309">
        <ele>133.0</ele>
        <time>2011-05-25T17:16:26Z</time>
      </trkpt>
      <trkpt lat="32.784469" lon="35.167338">
        <ele>133.0</ele>
        <time>2011-05-25T17:16:29Z</time>
      </trkpt>
      <trkpt lat="32.784381" lon="35.167373">
        <ele>133.0</ele>
        <time>2011-05-25T17:16:32Z</time>
      </trkpt>
      <trkpt lat="32.784205" lon="35.167403">
        <ele>133.0</ele>
        <time>2011-05-25T17:16:38Z</time>
      </trkpt>
      <trkpt lat="32.784124" lon="35.167424">
        <ele>133.0</ele>
        <time>2011-05-25T17:16:41Z</time>
      </trkpt>
      <trkpt lat="32.784044" lon="35.167446">
        <ele>133.0</ele>
        <time>2011-05-25T17:16:44Z</time>
      </trkpt>
      <trkpt lat="32.783872" lon="35.167466">
        <ele>133.0</ele>
        <time>2011-05-25T17:16:50Z</time>
      </trkpt>
      <trkpt lat="32.783785" lon="35.167474">
        <ele>133.0</ele>
        <time>2011-05-25T17:16:53Z</time>
      </trkpt>
      <trkpt lat="32.783697" lon="35.167482">
        <ele>133.0</ele>
        <time>2011-05-25T17:16:56Z</time>
      </trkpt>
      <trkpt lat="32.783532" lon="35.167481">
        <ele>133.0</ele>
        <time>2011-05-25T17:17:02Z</time>
      </trkpt>
      <trkpt lat="32.783453" lon="35.167477">
        <ele>133.0</ele>
        <time>2011-05-25T17:17:05Z</time>
      </trkpt>
      <trkpt lat="32.783377" lon="35.167476">
        <ele>133.0</ele>
        <time>2011-05-25T17:17:08Z</time>
      </trkpt>
      <trkpt lat="32.783231" lon="35.167479">
        <ele>133.0</ele>
        <time>2011-05-25T17:17:14Z</time>
      </trkpt>
      <trkpt lat="32.783159" lon="35.167486">
        <ele>133.0</ele>
        <time>2011-05-25T17:17:17Z</time>
      </trkpt>
      <trkpt lat="32.783088" lon="35.167493">
        <ele>133.0</ele>
        <time>2011-05-25T17:17:20Z</time>
      </trkpt>
      <trkpt lat="32.782941" lon="35.167514">
        <ele>133.0</ele>
        <time>2011-05-25T17:17:26Z</time>
      </trkpt>
      <trkpt lat="32.782863" lon="35.16753">
        <ele>133.0</ele>
        <time>2011-05-25T17:17:29Z</time>
      </trkpt>
      <trkpt lat="32.782784" lon="35.167552">
        <ele>133.0</ele>
        <time>2011-05-25T17:17:32Z</time>
      </trkpt>
      <trkpt lat="32.782636" lon="35.167582">
        <ele>133.0</ele>
        <time>2011-05-25T17:17:38Z</time>
      </trkpt>
      <trkpt lat="32.78257" lon="35.167598">
        <ele>133.0</ele>
        <time>2011-05-25T17:17:41Z</time>
      </trkpt>
      <trkpt lat="32.782507" lon="35.167606">
        <ele>133.0</ele>
        <time>2011-05-25T17:17:44Z</time>
      </trkpt>
      <trkpt lat="32.782375" lon="35.167624">
        <ele>133.0</ele>
        <time>2011-05-25T17:17:50Z</time>
      </trkpt>
      <trkpt lat="32.782301" lon="35.16763">
        <ele>133.0</ele>
        <time>2011-05-25T17:17:53Z</time>
      </trkpt>
      <trkpt lat="32.782217" lon="35.167636">
        <ele>134.0</ele>
        <time>2011-05-25T17:17:56Z</time>
      </trkpt>
      <trkpt lat="32.78204" lon="35.16765">
        <ele>134.0</ele>
        <time>2011-05-25T17:18:02Z</time>
      </trkpt>
      <trkpt lat="32.781951" lon="35.167651">
        <ele>134.0</ele>
        <time>2011-05-25T17:18:05Z</time>
      </trkpt>
      <trkpt lat="32.781859" lon="35.16766">
        <ele>134.0</ele>
        <time>2011-05-25T17:18:08Z</time>
      </trkpt>
      <trkpt lat="32.781703" lon="35.167673">
        <ele>134.0</ele>
        <time>2011-05-25T17:18:13Z</time>
      </trkpt>
      <trkpt lat="32.781572" lon="35.167669">
        <ele>135.0</ele>
        <time>2011-05-25T17:18:17Z</time>
      </trkpt>
      <trkpt lat="32.781441" lon="35.167645">
        <ele>135.0</ele>
        <time>2011-05-25T17:18:21Z</time>
      </trkpt>
      <trkpt lat="32.781308" lon="35.167619">
        <ele>135.0</ele>
        <time>2011-05-25T17:18:25Z</time>
      </trkpt>
      <trkpt lat="32.781175" lon="35.16758">
        <ele>135.0</ele>
        <time>2011-05-25T17:18:29Z</time>
      </trkpt>
      <trkpt lat="32.781049" lon="35.167534">
        <ele>135.0</ele>
        <time>2011-05-25T17:18:33Z</time>
      </trkpt>
      <trkpt lat="32.780924" lon="35.167494">
        <ele>135.0</ele>
        <time>2011-05-25T17:18:37Z</time>
      </trkpt>
      <trkpt lat="32.7808" lon="35.167458">
        <ele>135.0</ele>
        <time>2011-05-25T17:18:41Z</time>
      </trkpt>
      <trkpt lat="32.780645" lon="35.167422">
        <ele>135.0</ele>
        <time>2011-05-25T17:18:46Z</time>
      </trkpt>
      <trkpt lat="32.780521" lon="35.167393">
        <ele>136.0</ele>
        <time>2011-05-25T17:18:50Z</time>
      </trkpt>
      <trkpt lat="32.780397" lon="35.167361">
        <ele>136.0</ele>
        <time>2011-05-25T17:18:54Z</time>
      </trkpt>
      <trkpt lat="32.780336" lon="35.167344">
        <ele>136.0</ele>
        <time>2011-05-25T17:18:56Z</time>
      </trkpt>
      <trkpt lat="32.780151" lon="35.167302">
        <ele>136.0</ele>
        <time>2011-05-25T17:19:02Z</time>
      </trkpt>
      <trkpt lat="32.780059" lon="35.167287">
        <ele>136.0</ele>
        <time>2011-05-25T17:19:05Z</time>
      </trkpt>
      <trkpt lat="32.779966" lon="35.16728">
        <ele>136.0</ele>
        <time>2011-05-25T17:19:08Z</time>
      </trkpt>
      <trkpt lat="32.779778" lon="35.167257">
        <ele>136.0</ele>
        <time>2011-05-25T17:19:14Z</time>
      </trkpt>
      <trkpt lat="32.779685" lon="35.16724">
        <ele>136.0</ele>
        <time>2011-05-25T17:19:17Z</time>
      </trkpt>
      <trkpt lat="32.779528" lon="35.167214">
        <ele>136.0</ele>
        <time>2011-05-25T17:19:22Z</time>
      </trkpt>
      <trkpt lat="32.779434" lon="35.167204">
        <ele>136.0</ele>
        <time>2011-05-25T17:19:25Z</time>
      </trkpt>
      <trkpt lat="32.779307" lon="35.16719">
        <ele>136.0</ele>
        <time>2011-05-25T17:19:29Z</time>
      </trkpt>
      <trkpt lat="32.779243" lon="35.167185">
        <ele>136.0</ele>
        <time>2011-05-25T17:19:31Z</time>
      </trkpt>
      <trkpt lat="32.778906" lon="35.167126">
        <ele>137.0</ele>
        <time>2011-05-25T17:19:42Z</time>
      </trkpt>
      <trkpt lat="32.77882" lon="35.167092">
        <ele>137.0</ele>
        <time>2011-05-25T17:19:45Z</time>
      </trkpt>
      <trkpt lat="32.778585" lon="35.166986">
        <ele>137.0</ele>
        <time>2011-05-25T17:19:54Z</time>
      </trkpt>
      <trkpt lat="32.778514" lon="35.166947">
        <ele>137.0</ele>
        <time>2011-05-25T17:19:57Z</time>
      </trkpt>
      <trkpt lat="32.778443" lon="35.166909">
        <ele>137.0</ele>
        <time>2011-05-25T17:20:00Z</time>
      </trkpt>
      <trkpt lat="32.778328" lon="35.166822">
        <ele>137.0</ele>
        <time>2011-05-25T17:20:06Z</time>
      </trkpt>
      <trkpt lat="32.778395" lon="35.166825">
        <ele>137.0</ele>
        <time>2011-05-25T17:20:18Z</time>
      </trkpt>
      <trkpt lat="32.778459" lon="35.166873">
        <ele>138.0</ele>
        <time>2011-05-25T17:20:48Z</time>
      </trkpt>
      <trkpt lat="32.778491" lon="35.166716">
        <ele>138.0</ele>
        <time>2011-05-25T17:20:54Z</time>
      </trkpt>
      <trkpt lat="32.778504" lon="35.16664">
        <ele>138.0</ele>
        <time>2011-05-25T17:20:57Z</time>
      </trkpt>
      <trkpt lat="32.778453" lon="35.166716">
        <ele>139.0</ele>
        <time>2011-05-25T17:21:29Z</time>
      </trkpt>
      <trkpt lat="32.778498" lon="35.166769">
        <ele>140.0</ele>
        <time>2011-05-25T17:21:33Z</time>
      </trkpt>
      <trkpt lat="32.778601" lon="35.166767">
        <ele>140.0</ele>
        <time>2011-05-25T17:21:48Z</time>
      </trkpt>
      <trkpt lat="32.778534" lon="35.166964">
        <ele>141.0</ele>
        <time>2011-05-25T17:22:27Z</time>
      </trkpt>
      <trkpt lat="32.778494" lon="35.166712">
        <ele>141.0</ele>
        <time>2011-05-25T17:22:37Z</time>
      </trkpt>
      <trkpt lat="32.7785" lon="35.166619">
        <ele>141.0</ele>
        <time>2011-05-25T17:22:40Z</time>
      </trkpt>
      <trkpt lat="32.778515" lon="35.166544">
        <ele>141.0</ele>
        <time>2011-05-25T17:22:45Z</time>
      </trkpt>
      <trkpt lat="32.778339" lon="35.166459">
        <ele>143.0</ele>
        <time>2011-05-25T17:24:02Z</time>
      </trkpt>
      <trkpt lat="32.778424" lon="35.165963">
        <ele>145.0</ele>
        <time>2011-05-25T17:24:05Z</time>
      </trkpt>
      <trkpt lat="32.77838" lon="35.165748">
        <ele>146.0</ele>
        <time>2011-05-25T17:24:09Z</time>
      </trkpt>
      <trkpt lat="32.778294" lon="35.165536">
        <ele>145.0</ele>
        <time>2011-05-25T17:24:13Z</time>
      </trkpt>
      <trkpt lat="32.778216" lon="35.16531">
        <ele>145.0</ele>
        <time>2011-05-25T17:24:17Z</time>
      </trkpt>
      <trkpt lat="32.778148" lon="35.165082">
        <ele>146.0</ele>
        <time>2011-05-25T17:24:21Z</time>
      </trkpt>
      <trkpt lat="32.778069" lon="35.164881">
        <ele>146.0</ele>
        <time>2011-05-25T17:24:25Z</time>
      </trkpt>
      <trkpt lat="32.778002" lon="35.1647">
        <ele>146.0</ele>
        <time>2011-05-25T17:24:29Z</time>
      </trkpt>
      <trkpt lat="32.777969" lon="35.16463">
        <ele>146.0</ele>
        <time>2011-05-25T17:24:33Z</time>
      </trkpt>
      <trkpt lat="32.777943" lon="35.164555">
        <ele>146.0</ele>
        <time>2011-05-25T17:24:37Z</time>
      </trkpt>
      <trkpt lat="32.777914" lon="35.164467">
        <ele>146.0</ele>
        <time>2011-05-25T17:24:40Z</time>
      </trkpt>
      <trkpt lat="32.777846" lon="35.164284">
        <ele>146.0</ele>
        <time>2011-05-25T17:24:46Z</time>
      </trkpt>
      <trkpt lat="32.777806" lon="35.164206">
        <ele>146.0</ele>
        <time>2011-05-25T17:24:49Z</time>
      </trkpt>
      <trkpt lat="32.777768" lon="35.164132">
        <ele>146.0</ele>
        <time>2011-05-25T17:24:52Z</time>
      </trkpt>
      <trkpt lat="32.777693" lon="35.16398">
        <ele>147.0</ele>
        <time>2011-05-25T17:24:58Z</time>
      </trkpt>
      <trkpt lat="32.777653" lon="35.163902">
        <ele>147.0</ele>
        <time>2011-05-25T17:25:01Z</time>
      </trkpt>
      <trkpt lat="32.777612" lon="35.163824">
        <ele>147.0</ele>
        <time>2011-05-25T17:25:04Z</time>
      </trkpt>
      <trkpt lat="32.777531" lon="35.163667">
        <ele>147.0</ele>
        <time>2011-05-25T17:25:10Z</time>
      </trkpt>
      <trkpt lat="32.77749" lon="35.163586">
        <ele>147.0</ele>
        <time>2011-05-25T17:25:13Z</time>
      </trkpt>
      <trkpt lat="32.77745" lon="35.163508">
        <ele>147.0</ele>
        <time>2011-05-25T17:25:16Z</time>
      </trkpt>
      <trkpt lat="32.777358" lon="35.163373">
        <ele>148.0</ele>
        <time>2011-05-25T17:25:22Z</time>
      </trkpt>
      <trkpt lat="32.777296" lon="35.163284">
        <ele>148.0</ele>
        <time>2011-05-25T17:25:26Z</time>
      </trkpt>
      <trkpt lat="32.777252" lon="35.163222">
        <ele>148.0</ele>
        <time>2011-05-25T17:25:30Z</time>
      </trkpt>
      <trkpt lat="32.777211" lon="35.163162">
        <ele>148.0</ele>
        <time>2011-05-25T17:25:34Z</time>
      </trkpt>
      <trkpt lat="32.777163" lon="35.16309">
        <ele>148.0</ele>
        <time>2011-05-25T17:25:46Z</time>
      </trkpt>
      <trkpt lat="32.777119" lon="35.163022">
        <ele>148.0</ele>
        <time>2011-05-25T17:25:49Z</time>
      </trkpt>
      <trkpt lat="32.777068" lon="35.162947">
        <ele>148.0</ele>
        <time>2011-05-25T17:25:52Z</time>
      </trkpt>
      <trkpt lat="32.776966" lon="35.162814">
        <ele>148.0</ele>
        <time>2011-05-25T17:25:58Z</time>
      </trkpt>
      <trkpt lat="32.776898" lon="35.162756">
        <ele>148.0</ele>
        <time>2011-05-25T17:26:02Z</time>
      </trkpt>
      <trkpt lat="32.776839" lon="35.16271">
        <ele>148.0</ele>
        <time>2011-05-25T17:26:05Z</time>
      </trkpt>
      <trkpt lat="32.77677" lon="35.162675">
        <ele>148.0</ele>
        <time>2011-05-25T17:26:08Z</time>
      </trkpt>
      <trkpt lat="32.776694" lon="35.162633">
        <ele>148.0</ele>
        <time>2011-05-25T17:26:11Z</time>
      </trkpt>
      <trkpt lat="32.776552" lon="35.162546">
        <ele>148.0</ele>
        <time>2011-05-25T17:26:18Z</time>
      </trkpt>
      <trkpt lat="32.77649" lon="35.162507">
        <ele>148.0</ele>
        <time>2011-05-25T17:26:21Z</time>
      </trkpt>
      <trkpt lat="32.776415" lon="35.162466">
        <ele>148.0</ele>
        <time>2011-05-25T17:26:26Z</time>
      </trkpt>
      <trkpt lat="32.776344" lon="35.162429">
        <ele>148.0</ele>
        <time>2011-05-25T17:26:29Z</time>
      </trkpt>
      <trkpt lat="32.776164" lon="35.162398">
        <ele>148.0</ele>
        <time>2011-05-25T17:26:34Z</time>
      </trkpt>
      <trkpt lat="32.776016" lon="35.162399">
        <ele>149.0</ele>
        <time>2011-05-25T17:26:38Z</time>
      </trkpt>
      <trkpt lat="32.775947" lon="35.162404">
        <ele>149.0</ele>
        <time>2011-05-25T17:26:40Z</time>
      </trkpt>
      <trkpt lat="32.775874" lon="35.162415">
        <ele>149.0</ele>
        <time>2011-05-25T17:26:43Z</time>
      </trkpt>
      <trkpt lat="32.775668" lon="35.162475">
        <ele>149.0</ele>
        <time>2011-05-25T17:26:54Z</time>
      </trkpt>
      <trkpt lat="32.775594" lon="35.162545">
        <ele>149.0</ele>
        <time>2011-05-25T17:26:58Z</time>
      </trkpt>
      <trkpt lat="32.775478" lon="35.162685">
        <ele>149.0</ele>
        <time>2011-05-25T17:27:02Z</time>
      </trkpt>
      <trkpt lat="32.775376" lon="35.162797">
        <ele>149.0</ele>
        <time>2011-05-25T17:27:06Z</time>
      </trkpt>
      <trkpt lat="32.775276" lon="35.162904">
        <ele>149.0</ele>
        <time>2011-05-25T17:27:10Z</time>
      </trkpt>
      <trkpt lat="32.775182" lon="35.163023">
        <ele>150.0</ele>
        <time>2011-05-25T17:27:14Z</time>
      </trkpt>
      <trkpt lat="32.775078" lon="35.16315">
        <ele>150.0</ele>
        <time>2011-05-25T17:27:18Z</time>
      </trkpt>
      <trkpt lat="32.774978" lon="35.163271">
        <ele>150.0</ele>
        <time>2011-05-25T17:27:22Z</time>
      </trkpt>
      <trkpt lat="32.774882" lon="35.163395">
        <ele>150.0</ele>
        <time>2011-05-25T17:27:26Z</time>
      </trkpt>
      <trkpt lat="32.774779" lon="35.163526">
        <ele>150.0</ele>
        <time>2011-05-25T17:27:30Z</time>
      </trkpt>
      <trkpt lat="32.77467" lon="35.163668">
        <ele>150.0</ele>
        <time>2011-05-25T17:27:34Z</time>
      </trkpt>
      <trkpt lat="32.774551" lon="35.163818">
        <ele>150.0</ele>
        <time>2011-05-25T17:27:38Z</time>
      </trkpt>
      <trkpt lat="32.774384" lon="35.163959">
        <ele>150.0</ele>
        <time>2011-05-25T17:27:42Z</time>
      </trkpt>
      <trkpt lat="32.774083" lon="35.164129">
        <ele>150.0</ele>
        <time>2011-05-25T17:27:50Z</time>
      </trkpt>
      <trkpt lat="32.773917" lon="35.164176">
        <ele>150.0</ele>
        <time>2011-05-25T17:27:54Z</time>
      </trkpt>
      <trkpt lat="32.773776" lon="35.164208">
        <ele>150.0</ele>
        <time>2011-05-25T17:27:58Z</time>
      </trkpt>
      <trkpt lat="32.773638" lon="35.164239">
        <ele>150.0</ele>
        <time>2011-05-25T17:28:02Z</time>
      </trkpt>
      <trkpt lat="32.773502" lon="35.164264">
        <ele>150.0</ele>
        <time>2011-05-25T17:28:06Z</time>
      </trkpt>
      <trkpt lat="32.773373" lon="35.164297">
        <ele>150.0</ele>
        <time>2011-05-25T17:28:10Z</time>
      </trkpt>
      <trkpt lat="32.773297" lon="35.164326">
        <ele>151.0</ele>
        <time>2011-05-25T17:28:13Z</time>
      </trkpt>
      <trkpt lat="32.773226" lon="35.164344">
        <ele>151.0</ele>
        <time>2011-05-25T17:28:17Z</time>
      </trkpt>
      <trkpt lat="32.773157" lon="35.164362">
        <ele>151.0</ele>
        <time>2011-05-25T17:28:21Z</time>
      </trkpt>
      <trkpt lat="32.773076" lon="35.164386">
        <ele>151.0</ele>
        <time>2011-05-25T17:28:26Z</time>
      </trkpt>
      <trkpt lat="32.772869" lon="35.164495">
        <ele>151.0</ele>
        <time>2011-05-25T17:28:34Z</time>
      </trkpt>
      <trkpt lat="32.772762" lon="35.1646">
        <ele>151.0</ele>
        <time>2011-05-25T17:28:38Z</time>
      </trkpt>
      <trkpt lat="32.772669" lon="35.164727">
        <ele>152.0</ele>
        <time>2011-05-25T17:28:42Z</time>
      </trkpt>
      <trkpt lat="32.772506" lon="35.165119">
        <ele>153.0</ele>
        <time>2011-05-25T17:28:50Z</time>
      </trkpt>
      <trkpt lat="32.772483" lon="35.165355">
        <ele>154.0</ele>
        <time>2011-05-25T17:28:54Z</time>
      </trkpt>
      <trkpt lat="32.772471" lon="35.165635">
        <ele>154.0</ele>
        <time>2011-05-25T17:28:58Z</time>
      </trkpt>
      <trkpt lat="32.772476" lon="35.166068">
        <ele>155.0</ele>
        <time>2011-05-25T17:29:04Z</time>
      </trkpt>
      <trkpt lat="32.772525" lon="35.166554">
        <ele>156.0</ele>
        <time>2011-05-25T17:29:10Z</time>
      </trkpt>
      <trkpt lat="32.772648" lon="35.166873">
        <ele>155.0</ele>
        <time>2011-05-25T17:29:14Z</time>
      </trkpt>
      <trkpt lat="32.772739" lon="35.167079">
        <ele>155.0</ele>
        <time>2011-05-25T17:29:17Z</time>
      </trkpt>
      <trkpt lat="32.772807" lon="35.167317">
        <ele>155.0</ele>
        <time>2011-05-25T17:29:21Z</time>
      </trkpt>
      <trkpt lat="32.772826" lon="35.167422">
        <ele>155.0</ele>
        <time>2011-05-25T17:29:23Z</time>
      </trkpt>
      <trkpt lat="32.77285" lon="35.167689">
        <ele>156.0</ele>
        <time>2011-05-25T17:29:29Z</time>
      </trkpt>
      <trkpt lat="32.77286" lon="35.167786">
        <ele>156.0</ele>
        <time>2011-05-25T17:29:32Z</time>
      </trkpt>
      <trkpt lat="32.77286" lon="35.167887">
        <ele>156.0</ele>
        <time>2011-05-25T17:29:36Z</time>
      </trkpt>
      <trkpt lat="32.772853" lon="35.167984">
        <ele>156.0</ele>
        <time>2011-05-25T17:29:42Z</time>
      </trkpt>
      <trkpt lat="32.77284" lon="35.168235">
        <ele>156.0</ele>
        <time>2011-05-25T17:29:57Z</time>
      </trkpt>
      <trkpt lat="32.772834" lon="35.168312">
        <ele>156.0</ele>
        <time>2011-05-25T17:30:00Z</time>
      </trkpt>
      <trkpt lat="32.772821" lon="35.168514">
        <ele>156.0</ele>
        <time>2011-05-25T17:30:05Z</time>
      </trkpt>
      <trkpt lat="32.772818" lon="35.168693">
        <ele>156.0</ele>
        <time>2011-05-25T17:30:10Z</time>
      </trkpt>
      <trkpt lat="32.772823" lon="35.168779">
        <ele>156.0</ele>
        <time>2011-05-25T17:30:14Z</time>
      </trkpt>
      <trkpt lat="32.772843" lon="35.168895">
        <ele>156.0</ele>
        <time>2011-05-25T17:30:24Z</time>
      </trkpt>
      <trkpt lat="32.772937" lon="35.169321">
        <ele>156.0</ele>
        <time>2011-05-25T17:30:30Z</time>
      </trkpt>
      <trkpt lat="32.772946" lon="35.169414">
        <ele>156.0</ele>
        <time>2011-05-25T17:30:33Z</time>
      </trkpt>
      <trkpt lat="32.772952" lon="35.169495">
        <ele>156.0</ele>
        <time>2011-05-25T17:30:41Z</time>
      </trkpt>
      <trkpt lat="32.773064" lon="35.169718">
        <ele>157.0</ele>
        <time>2011-05-25T17:30:46Z</time>
      </trkpt>
      <trkpt lat="32.773161" lon="35.169912">
        <ele>157.0</ele>
        <time>2011-05-25T17:30:49Z</time>
      </trkpt>
      <trkpt lat="32.773335" lon="35.170246">
        <ele>158.0</ele>
        <time>2011-05-25T17:30:54Z</time>
      </trkpt>
      <trkpt lat="32.773387" lon="35.170336">
        <ele>158.0</ele>
        <time>2011-05-25T17:30:55Z</time>
      </trkpt>
      <trkpt lat="32.773683" lon="35.170876">
        <ele>158.0</ele>
        <time>2011-05-25T17:31:02Z</time>
      </trkpt>
      <trkpt lat="32.773818" lon="35.171261">
        <ele>157.0</ele>
        <time>2011-05-25T17:31:06Z</time>
      </trkpt>
      <trkpt lat="32.773873" lon="35.171675">
        <ele>157.0</ele>
        <time>2011-05-25T17:31:10Z</time>
      </trkpt>
      <trkpt lat="32.773834" lon="35.172061">
        <ele>156.0</ele>
        <time>2011-05-25T17:31:14Z</time>
      </trkpt>
      <trkpt lat="32.77376" lon="35.172398">
        <ele>156.0</ele>
        <time>2011-05-25T17:31:18Z</time>
      </trkpt>
      <trkpt lat="32.7737" lon="35.172587">
        <ele>155.0</ele>
        <time>2011-05-25T17:31:21Z</time>
      </trkpt>
      <trkpt lat="32.773683" lon="35.172668">
        <ele>155.0</ele>
        <time>2011-05-25T17:31:24Z</time>
      </trkpt>
      <trkpt lat="32.773742" lon="35.1727">
        <ele>155.0</ele>
        <time>2011-05-25T17:31:31Z</time>
      </trkpt>
      <trkpt lat="32.773818" lon="35.172673">
        <ele>155.0</ele>
        <time>2011-05-25T17:31:39Z</time>
      </trkpt>
      <trkpt lat="32.77362" lon="35.172686">
        <ele>158.0</ele>
        <time>2011-05-25T17:32:13Z</time>
      </trkpt>
      <trkpt lat="32.773544" lon="35.172708">
        <ele>159.0</ele>
        <time>2011-05-25T17:32:15Z</time>
      </trkpt>
      <trkpt lat="32.773395" lon="35.172729">
        <ele>159.0</ele>
        <time>2011-05-25T17:32:21Z</time>
      </trkpt>
      <trkpt lat="32.773269" lon="35.17268">
        <ele>159.0</ele>
        <time>2011-05-25T17:32:29Z</time>
      </trkpt>
      <trkpt lat="32.773191" lon="35.172651">
        <ele>159.0</ele>
        <time>2011-05-25T17:32:33Z</time>
      </trkpt>
      <trkpt lat="32.773" lon="35.172598">
        <ele>159.0</ele>
        <time>2011-05-25T17:32:45Z</time>
      </trkpt>
      <trkpt lat="32.772931" lon="35.172575">
        <ele>159.0</ele>
        <time>2011-05-25T17:32:48Z</time>
      </trkpt>
      <trkpt lat="32.772721" lon="35.172509">
        <ele>159.0</ele>
        <time>2011-05-25T17:33:00Z</time>
      </trkpt>
      <trkpt lat="32.772641" lon="35.172481">
        <ele>160.0</ele>
        <time>2011-05-25T17:33:04Z</time>
      </trkpt>
      <trkpt lat="32.772578" lon="35.172461">
        <ele>160.0</ele>
        <time>2011-05-25T17:33:08Z</time>
      </trkpt>
      <trkpt lat="32.7725" lon="35.172445">
        <ele>159.0</ele>
        <time>2011-05-25T17:33:12Z</time>
      </trkpt>
      <trkpt lat="32.772434" lon="35.172436">
        <ele>160.0</ele>
        <time>2011-05-25T17:33:17Z</time>
      </trkpt>
      <trkpt lat="32.77237" lon="35.172429">
        <ele>160.0</ele>
        <time>2011-05-25T17:33:20Z</time>
      </trkpt>
      <trkpt lat="32.772328" lon="35.1725">
        <ele>160.0</ele>
        <time>2011-05-25T17:33:24Z</time>
      </trkpt>
      <trkpt lat="32.772276" lon="35.172557">
        <ele>160.0</ele>
        <time>2011-05-25T17:33:30Z</time>
      </trkpt>
      <trkpt lat="32.772" lon="35.172417">
        <ele>162.0</ele>
        <time>2011-05-25T17:33:45Z</time>
      </trkpt>
      <trkpt lat="32.771786" lon="35.172315">
        <ele>162.0</ele>
        <time>2011-05-25T17:33:49Z</time>
      </trkpt>
      <trkpt lat="32.771605" lon="35.172337">
        <ele>162.0</ele>
        <time>2011-05-25T17:33:53Z</time>
      </trkpt>
      <trkpt lat="32.771474" lon="35.172412">
        <ele>162.0</ele>
        <time>2011-05-25T17:33:57Z</time>
      </trkpt>
      <trkpt lat="32.771388" lon="35.172526">
        <ele>162.0</ele>
        <time>2011-05-25T17:34:01Z</time>
      </trkpt>
      <trkpt lat="32.771328" lon="35.172591">
        <ele>162.0</ele>
        <time>2011-05-25T17:34:04Z</time>
      </trkpt>
      <trkpt lat="32.771266" lon="35.172646">
        <ele>162.0</ele>
        <time>2011-05-25T17:34:07Z</time>
      </trkpt>
      <trkpt lat="32.771078" lon="35.172808">
        <ele>162.0</ele>
        <time>2011-05-25T17:34:14Z</time>
      </trkpt>
      <trkpt lat="32.770979" lon="35.172936">
        <ele>162.0</ele>
        <time>2011-05-25T17:34:18Z</time>
      </trkpt>
      <trkpt lat="32.770943" lon="35.173003">
        <ele>162.0</ele>
        <time>2011-05-25T17:34:20Z</time>
      </trkpt>
      <trkpt lat="32.770899" lon="35.173096">
        <ele>162.0</ele>
        <time>2011-05-25T17:34:23Z</time>
      </trkpt>
      <trkpt lat="32.770859" lon="35.173272">
        <ele>163.0</ele>
        <time>2011-05-25T17:34:29Z</time>
      </trkpt>
      <trkpt lat="32.770839" lon="35.173358">
        <ele>163.0</ele>
        <time>2011-05-25T17:34:32Z</time>
      </trkpt>
      <trkpt lat="32.770768" lon="35.173507">
        <ele>163.0</ele>
        <time>2011-05-25T17:34:38Z</time>
      </trkpt>
      <trkpt lat="32.770731" lon="35.173574">
        <ele>163.0</ele>
        <time>2011-05-25T17:34:41Z</time>
      </trkpt>
      <trkpt lat="32.770695" lon="35.173639">
        <ele>163.0</ele>
        <time>2011-05-25T17:34:44Z</time>
      </trkpt>
      <trkpt lat="32.770652" lon="35.17371">
        <ele>164.0</ele>
        <time>2011-05-25T17:34:49Z</time>
      </trkpt>
      <trkpt lat="32.7706" lon="35.173792">
        <ele>164.0</ele>
        <time>2011-05-25T17:34:53Z</time>
      </trkpt>
      <trkpt lat="32.770556" lon="35.173863">
        <ele>164.0</ele>
        <time>2011-05-25T17:34:57Z</time>
      </trkpt>
      <trkpt lat="32.770517" lon="35.173927">
        <ele>164.0</ele>
        <time>2011-05-25T17:35:01Z</time>
      </trkpt>
      <trkpt lat="32.770465" lon="35.173997">
        <ele>164.0</ele>
        <time>2011-05-25T17:35:05Z</time>
      </trkpt>
      <trkpt lat="32.770416" lon="35.174049">
        <ele>164.0</ele>
        <time>2011-05-25T17:35:09Z</time>
      </trkpt>
      <trkpt lat="32.770179" lon="35.174272">
        <ele>163.999</ele>
        <time>2011-05-25T17:35:22Z</time>
      </trkpt>
      <trkpt lat="32.769917" lon="35.174538">
        <ele>163.999</ele>
        <time>2011-05-25T17:35:30Z</time>
      </trkpt>
      <trkpt lat="32.769825" lon="35.174684">
        <ele>164.0</ele>
        <time>2011-05-25T17:35:34Z</time>
      </trkpt>
      <trkpt lat="32.769728" lon="35.174808">
        <ele>164.0</ele>
        <time>2011-05-25T17:35:38Z</time>
      </trkpt>
      <trkpt lat="32.769574" lon="35.174948">
        <ele>165.0</ele>
        <time>2011-05-25T17:35:42Z</time>
      </trkpt>
      <trkpt lat="32.769425" lon="35.175147">
        <ele>165.0</ele>
        <time>2011-05-25T17:35:46Z</time>
      </trkpt>
      <trkpt lat="32.769283" lon="35.175334">
        <ele>165.0</ele>
        <time>2011-05-25T17:35:50Z</time>
      </trkpt>
      <trkpt lat="32.769192" lon="35.175527">
        <ele>166.0</ele>
        <time>2011-05-25T17:35:54Z</time>
      </trkpt>
      <trkpt lat="32.769123" lon="35.175672">
        <ele>166.0</ele>
        <time>2011-05-25T17:35:58Z</time>
      </trkpt>
      <trkpt lat="32.769037" lon="35.175791">
        <ele>166.0</ele>
        <time>2011-05-25T17:36:02Z</time>
      </trkpt>
      <trkpt lat="32.768968" lon="35.17585">
        <ele>166.0</ele>
        <time>2011-05-25T17:36:04Z</time>
      </trkpt>
      <trkpt lat="32.768782" lon="35.176038">
        <ele>167.0</ele>
        <time>2011-05-25T17:36:10Z</time>
      </trkpt>
      <trkpt lat="32.768737" lon="35.176107">
        <ele>167.0</ele>
        <time>2011-05-25T17:36:12Z</time>
      </trkpt>
      <trkpt lat="32.768707" lon="35.176187">
        <ele>167.0</ele>
        <time>2011-05-25T17:36:15Z</time>
      </trkpt>
      <trkpt lat="32.768623" lon="35.17611">
        <ele>167.0</ele>
        <time>2011-05-25T17:36:37Z</time>
      </trkpt>
      <trkpt lat="32.768626" lon="35.175904">
        <ele>167.0</ele>
        <time>2011-05-25T17:36:41Z</time>
      </trkpt>
      <trkpt lat="32.768639" lon="35.175546">
        <ele>167.001</ele>
        <time>2011-05-25T17:36:49Z</time>
      </trkpt>
      <trkpt lat="32.768677" lon="35.175328">
        <ele>168.001</ele>
        <time>2011-05-25T17:36:53Z</time>
      </trkpt>
      <trkpt lat="32.768735" lon="35.175123">
        <ele>169.001</ele>
        <time>2011-05-25T17:36:57Z</time>
      </trkpt>
      <trkpt lat="32.768805" lon="35.174927">
        <ele>169.001</ele>
        <time>2011-05-25T17:37:01Z</time>
      </trkpt>
      <trkpt lat="32.768881" lon="35.174744">
        <ele>171.0</ele>
        <time>2011-05-25T17:37:05Z</time>
      </trkpt>
      <trkpt lat="32.768966" lon="35.174578">
        <ele>171.0</ele>
        <time>2011-05-25T17:37:10Z</time>
      </trkpt>
      <trkpt lat="32.768995" lon="35.17451">
        <ele>171.0</ele>
        <time>2011-05-25T17:37:13Z</time>
      </trkpt>
      <trkpt lat="32.769034" lon="35.17442">
        <ele>171.0</ele>
        <time>2011-05-25T17:37:17Z</time>
      </trkpt>
      <trkpt lat="32.769096" lon="35.174243">
        <ele>170.0</ele>
        <time>2011-05-25T17:37:21Z</time>
      </trkpt>
      <trkpt lat="32.769128" lon="35.17403">
        <ele>170.0</ele>
        <time>2011-05-25T17:37:25Z</time>
      </trkpt>
      <trkpt lat="32.769151" lon="35.173811">
        <ele>170.0</ele>
        <time>2011-05-25T17:37:29Z</time>
      </trkpt>
      <trkpt lat="32.76916" lon="35.173716">
        <ele>170.0</ele>
        <time>2011-05-25T17:37:31Z</time>
      </trkpt>
      <trkpt lat="32.769054" lon="35.173479">
        <ele>167.0</ele>
        <time>2011-05-25T17:38:25Z</time>
      </trkpt>
      <trkpt lat="32.768981" lon="35.173454">
        <ele>167.0</ele>
        <time>2011-05-25T17:38:27Z</time>
      </trkpt>
      <trkpt lat="32.768835" lon="35.173431">
        <ele>167.0</ele>
        <time>2011-05-25T17:38:31Z</time>
      </trkpt>
      <trkpt lat="32.768629" lon="35.173457">
        <ele>166.0</ele>
        <time>2011-05-25T17:38:37Z</time>
      </trkpt>
      <trkpt lat="32.768543" lon="35.1735">
        <ele>166.0</ele>
        <time>2011-05-25T17:38:40Z</time>
      </trkpt>
      <trkpt lat="32.768432" lon="35.173585">
        <ele>166.0</ele>
        <time>2011-05-25T17:38:44Z</time>
      </trkpt>
      <trkpt lat="32.768084" lon="35.173775">
        <ele>165.0</ele>
        <time>2011-05-25T17:38:54Z</time>
      </trkpt>
      <trkpt lat="32.767856" lon="35.173836">
        <ele>165.0</ele>
        <time>2011-05-25T17:38:57Z</time>
      </trkpt>
      <trkpt lat="32.767688" lon="35.173892">
        <ele>165.0</ele>
        <time>2011-05-25T17:39:01Z</time>
      </trkpt>
      <trkpt lat="32.767627" lon="35.173924">
        <ele>165.0</ele>
        <time>2011-05-25T17:39:14Z</time>
      </trkpt>
      <trkpt lat="32.767669" lon="35.173988">
        <ele>165.0</ele>
        <time>2011-05-25T17:39:24Z</time>
      </trkpt>
      <trkpt lat="32.767733" lon="35.174">
        <ele>165.0</ele>
        <time>2011-05-25T17:39:28Z</time>
      </trkpt>
      <trkpt lat="32.767807" lon="35.173996">
        <ele>166.0</ele>
        <time>2011-05-25T17:39:33Z</time>
      </trkpt>
      <trkpt lat="32.767875" lon="35.173976">
        <ele>166.0</ele>
        <time>2011-05-25T17:39:37Z</time>
      </trkpt>
      <trkpt lat="32.767939" lon="35.173943">
        <ele>166.0</ele>
        <time>2011-05-25T17:39:40Z</time>
      </trkpt>
      <trkpt lat="32.76801" lon="35.173887">
        <ele>166.0</ele>
        <time>2011-05-25T17:39:51Z</time>
      </trkpt>
      <trkpt lat="32.768131" lon="35.173762">
        <ele>166.0</ele>
        <time>2011-05-25T17:39:58Z</time>
      </trkpt>
      <trkpt lat="32.768319" lon="35.173467">
        <ele>165.0</ele>
        <time>2011-05-25T17:40:02Z</time>
      </trkpt>
      <trkpt lat="32.768385" lon="35.173271">
        <ele>164.0</ele>
        <time>2011-05-25T17:40:06Z</time>
      </trkpt>
      <trkpt lat="32.768414" lon="35.173187">
        <ele>164.0</ele>
        <time>2011-05-25T17:40:09Z</time>
      </trkpt>
      <trkpt lat="32.768454" lon="35.17312">
        <ele>164.0</ele>
        <time>2011-05-25T17:40:12Z</time>
      </trkpt>
      <trkpt lat="32.768536" lon="35.172985">
        <ele>164.0</ele>
        <time>2011-05-25T17:40:18Z</time>
      </trkpt>
      <trkpt lat="32.76859" lon="35.172904">
        <ele>164.0</ele>
        <time>2011-05-25T17:40:21Z</time>
      </trkpt>
      <trkpt lat="32.768677" lon="35.172774">
        <ele>164.0</ele>
        <time>2011-05-25T17:40:25Z</time>
      </trkpt>
      <trkpt lat="32.768783" lon="35.17263">
        <ele>163.0</ele>
        <time>2011-05-25T17:40:29Z</time>
      </trkpt>
      <trkpt lat="32.768938" lon="35.172445">
        <ele>163.0</ele>
        <time>2011-05-25T17:40:33Z</time>
      </trkpt>
      <trkpt lat="32.769086" lon="35.172258">
        <ele>163.0</ele>
        <time>2011-05-25T17:40:37Z</time>
      </trkpt>
      <trkpt lat="32.76934" lon="35.172063">
        <ele>162.0</ele>
        <time>2011-05-25T17:40:42Z</time>
      </trkpt>
      <trkpt lat="32.769392" lon="35.172019">
        <ele>162.0</ele>
        <time>2011-05-25T17:40:43Z</time>
      </trkpt>
      <trkpt lat="32.769701" lon="35.171699">
        <ele>162.0</ele>
        <time>2011-05-25T17:40:50Z</time>
      </trkpt>
      <trkpt lat="32.769859" lon="35.17157">
        <ele>162.0</ele>
        <time>2011-05-25T17:40:53Z</time>
      </trkpt>
      <trkpt lat="32.77006" lon="35.171408">
        <ele>161.0</ele>
        <time>2011-05-25T17:40:57Z</time>
      </trkpt>
      <trkpt lat="32.77023" lon="35.171278">
        <ele>161.0</ele>
        <time>2011-05-25T17:41:01Z</time>
      </trkpt>
      <trkpt lat="32.770361" lon="35.171162">
        <ele>160.0</ele>
        <time>2011-05-25T17:41:05Z</time>
      </trkpt>
      <trkpt lat="32.770486" lon="35.171062">
        <ele>160.0</ele>
        <time>2011-05-25T17:41:10Z</time>
      </trkpt>
      <trkpt lat="32.770658" lon="35.170887">
        <ele>160.0</ele>
        <time>2011-05-25T17:41:14Z</time>
      </trkpt>
      <trkpt lat="32.770806" lon="35.1707">
        <ele>159.0</ele>
        <time>2011-05-25T17:41:18Z</time>
      </trkpt>
      <trkpt lat="32.770914" lon="35.170546">
        <ele>158.0</ele>
        <time>2011-05-25T17:41:22Z</time>
      </trkpt>
      <trkpt lat="32.771041" lon="35.170442">
        <ele>158.0</ele>
        <time>2011-05-25T17:41:26Z</time>
      </trkpt>
      <trkpt lat="32.771189" lon="35.170378">
        <ele>158.0</ele>
        <time>2011-05-25T17:41:30Z</time>
      </trkpt>
      <trkpt lat="32.771254" lon="35.170353">
        <ele>158.0</ele>
        <time>2011-05-25T17:41:32Z</time>
      </trkpt>
      <trkpt lat="32.771331" lon="35.170323">
        <ele>158.0</ele>
        <time>2011-05-25T17:41:35Z</time>
      </trkpt>
      <trkpt lat="32.771396" lon="35.170287">
        <ele>158.0</ele>
        <time>2011-05-25T17:41:40Z</time>
      </trkpt>
      <trkpt lat="32.771424" lon="35.170218">
        <ele>158.0</ele>
        <time>2011-05-25T17:41:43Z</time>
      </trkpt>
      <trkpt lat="32.771448" lon="35.169947">
        <ele>158.0</ele>
        <time>2011-05-25T17:41:52Z</time>
      </trkpt>
      <trkpt lat="32.771435" lon="35.169737">
        <ele>157.0</ele>
        <time>2011-05-25T17:41:58Z</time>
      </trkpt>
      <trkpt lat="32.771421" lon="35.169553">
        <ele>157.0</ele>
        <time>2011-05-25T17:42:02Z</time>
      </trkpt>
      <trkpt lat="32.771396" lon="35.169337">
        <ele>157.0</ele>
        <time>2011-05-25T17:42:06Z</time>
      </trkpt>
      <trkpt lat="32.771358" lon="35.169106">
        <ele>156.0</ele>
        <time>2011-05-25T17:42:10Z</time>
      </trkpt>
      <trkpt lat="32.77134" lon="35.168876">
        <ele>157.0</ele>
        <time>2011-05-25T17:42:14Z</time>
      </trkpt>
      <trkpt lat="32.77135" lon="35.168667">
        <ele>157.0</ele>
        <time>2011-05-25T17:42:18Z</time>
      </trkpt>
      <trkpt lat="32.77136" lon="35.168454">
        <ele>157.0</ele>
        <time>2011-05-25T17:42:22Z</time>
      </trkpt>
      <trkpt lat="32.771375" lon="35.168195">
        <ele>157.0</ele>
        <time>2011-05-25T17:42:26Z</time>
      </trkpt>
      <trkpt lat="32.771376" lon="35.167907">
        <ele>157.0</ele>
        <time>2011-05-25T17:42:30Z</time>
      </trkpt>
      <trkpt lat="32.771346" lon="35.167563">
        <ele>158.0</ele>
        <time>2011-05-25T17:42:34Z</time>
      </trkpt>
      <trkpt lat="32.771236" lon="35.167194">
        <ele>157.0</ele>
        <time>2011-05-25T17:42:38Z</time>
      </trkpt>
      <trkpt lat="32.771057" lon="35.166835">
        <ele>155.0</ele>
        <time>2011-05-25T17:42:42Z</time>
      </trkpt>
      <trkpt lat="32.770969" lon="35.16642">
        <ele>155.0</ele>
        <time>2011-05-25T17:42:46Z</time>
      </trkpt>
      <trkpt lat="32.770915" lon="35.166027">
        <ele>155.0</ele>
        <time>2011-05-25T17:42:50Z</time>
      </trkpt>
      <trkpt lat="32.770852" lon="35.165656">
        <ele>156.0</ele>
        <time>2011-05-25T17:42:54Z</time>
      </trkpt>
      <trkpt lat="32.770765" lon="35.165314">
        <ele>156.0</ele>
        <time>2011-05-25T17:42:58Z</time>
      </trkpt>
      <trkpt lat="32.770682" lon="35.164982">
        <ele>156.0</ele>
        <time>2011-05-25T17:43:02Z</time>
      </trkpt>
      <trkpt lat="32.770618" lon="35.164636">
        <ele>156.0</ele>
        <time>2011-05-25T17:43:06Z</time>
      </trkpt>
      <trkpt lat="32.770568" lon="35.164309">
        <ele>157.0</ele>
        <time>2011-05-25T17:43:10Z</time>
      </trkpt>
      <trkpt lat="32.770535" lon="35.164089">
        <ele>159.0</ele>
        <time>2011-05-25T17:43:14Z</time>
      </trkpt>
      <trkpt lat="32.770502" lon="35.163897">
        <ele>158.0</ele>
        <time>2011-05-25T17:43:18Z</time>
      </trkpt>
      <trkpt lat="32.770472" lon="35.163654">
        <ele>158.0</ele>
        <time>2011-05-25T17:43:22Z</time>
      </trkpt>
      <trkpt lat="32.770454" lon="35.163361">
        <ele>158.0</ele>
        <time>2011-05-25T17:43:26Z</time>
      </trkpt>
      <trkpt lat="32.770424" lon="35.163032">
        <ele>159.0</ele>
        <time>2011-05-25T17:43:30Z</time>
      </trkpt>
      <trkpt lat="32.770412" lon="35.162722">
        <ele>159.0</ele>
        <time>2011-05-25T17:43:34Z</time>
      </trkpt>
      <trkpt lat="32.770426" lon="35.162406">
        <ele>158.0</ele>
        <time>2011-05-25T17:43:38Z</time>
      </trkpt>
      <trkpt lat="32.770437" lon="35.162058">
        <ele>157.0</ele>
        <time>2011-05-25T17:43:42Z</time>
      </trkpt>
      <trkpt lat="32.770414" lon="35.161824">
        <ele>155.0</ele>
        <time>2011-05-25T17:43:46Z</time>
      </trkpt>
      <trkpt lat="32.770232" lon="35.161697">
        <ele>152.0</ele>
        <time>2011-05-25T17:43:50Z</time>
      </trkpt>
      <trkpt lat="32.770145" lon="35.161654">
        <ele>151.0</ele>
        <time>2011-05-25T17:43:52Z</time>
      </trkpt>
      <trkpt lat="32.769932" lon="35.161538">
        <ele>150.0</ele>
        <time>2011-05-25T17:44:00Z</time>
      </trkpt>
      <trkpt lat="32.769887" lon="35.161482">
        <ele>150.0</ele>
        <time>2011-05-25T17:44:03Z</time>
      </trkpt>
      <trkpt lat="32.769809" lon="35.161332">
        <ele>148.0</ele>
        <time>2011-05-25T17:44:20Z</time>
      </trkpt>
      <trkpt lat="32.769722" lon="35.161188">
        <ele>147.0</ele>
        <time>2011-05-25T17:44:26Z</time>
      </trkpt>
      <trkpt lat="32.769659" lon="35.161135">
        <ele>146.0</ele>
        <time>2011-05-25T17:44:29Z</time>
      </trkpt>
      <trkpt lat="32.769601" lon="35.161102">
        <ele>146.0</ele>
        <time>2011-05-25T17:44:32Z</time>
      </trkpt>
      <trkpt lat="32.769524" lon="35.161069">
        <ele>145.0</ele>
        <time>2011-05-25T17:44:38Z</time>
      </trkpt>
      <trkpt lat="32.769447" lon="35.161039">
        <ele>145.0</ele>
        <time>2011-05-25T17:44:42Z</time>
      </trkpt>
      <trkpt lat="32.769388" lon="35.160986">
        <ele>145.0</ele>
        <time>2011-05-25T17:44:45Z</time>
      </trkpt>
      <trkpt lat="32.769332" lon="35.160916">
        <ele>144.0</ele>
        <time>2011-05-25T17:44:48Z</time>
      </trkpt>
      <trkpt lat="32.76924" lon="35.160766">
        <ele>144.0</ele>
        <time>2011-05-25T17:44:54Z</time>
      </trkpt>
      <trkpt lat="32.769214" lon="35.160679">
        <ele>144.0</ele>
        <time>2011-05-25T17:44:57Z</time>
      </trkpt>
      <trkpt lat="32.769216" lon="35.160445">
        <ele>141.0</ele>
        <time>2011-05-25T17:45:02Z</time>
      </trkpt>
      <trkpt lat="32.769233" lon="35.160183">
        <ele>139.0</ele>
        <time>2011-05-25T17:45:06Z</time>
      </trkpt>
      <trkpt lat="32.769256" lon="35.159894">
        <ele>138.0</ele>
        <time>2011-05-25T17:45:10Z</time>
      </trkpt>
      <trkpt lat="32.769254" lon="35.159677">
        <ele>137.0</ele>
        <time>2011-05-25T17:45:13Z</time>
      </trkpt>
      <trkpt lat="32.769229" lon="35.159412">
        <ele>136.0</ele>
        <time>2011-05-25T17:45:17Z</time>
      </trkpt>
      <trkpt lat="32.769207" lon="35.159198">
        <ele>134.0</ele>
        <time>2011-05-25T17:45:21Z</time>
      </trkpt>
      <trkpt lat="32.769179" lon="35.158981">
        <ele>132.0</ele>
        <time>2011-05-25T17:45:25Z</time>
      </trkpt>
      <trkpt lat="32.769148" lon="35.158797">
        <ele>128.0</ele>
        <time>2011-05-25T17:45:29Z</time>
      </trkpt>
      <trkpt lat="32.769127" lon="35.158646">
        <ele>124.0</ele>
        <time>2011-05-25T17:45:33Z</time>
      </trkpt>
      <trkpt lat="32.769126" lon="35.158493">
        <ele>123.0</ele>
        <time>2011-05-25T17:45:37Z</time>
      </trkpt>
      <trkpt lat="32.769115" lon="35.158306">
        <ele>121.0</ele>
        <time>2011-05-25T17:45:42Z</time>
      </trkpt>
      <trkpt lat="32.769094" lon="35.158152">
        <ele>119.0</ele>
        <time>2011-05-25T17:45:46Z</time>
      </trkpt>
      <trkpt lat="32.769068" lon="35.157995">
        <ele>119.0</ele>
        <time>2011-05-25T17:45:50Z</time>
      </trkpt>
      <trkpt lat="32.769034" lon="35.157844">
        <ele>119.0</ele>
        <time>2011-05-25T17:45:54Z</time>
      </trkpt>
      <trkpt lat="32.769015" lon="35.157771">
        <ele>118.0</ele>
        <time>2011-05-25T17:45:56Z</time>
      </trkpt>
      <trkpt lat="32.768955" lon="35.157574">
        <ele>118.0</ele>
        <time>2011-05-25T17:46:02Z</time>
      </trkpt>
      <trkpt lat="32.768921" lon="35.157477">
        <ele>118.0</ele>
        <time>2011-05-25T17:46:05Z</time>
      </trkpt>
      <trkpt lat="32.768894" lon="35.157382">
        <ele>118.0</ele>
        <time>2011-05-25T17:46:08Z</time>
      </trkpt>
      <trkpt lat="32.768833" lon="35.157182">
        <ele>117.0</ele>
        <time>2011-05-25T17:46:14Z</time>
      </trkpt>
      <trkpt lat="32.768807" lon="35.157091">
        <ele>117.0</ele>
        <time>2011-05-25T17:46:17Z</time>
      </trkpt>
      <trkpt lat="32.768787" lon="35.157002">
        <ele>117.0</ele>
        <time>2011-05-25T17:46:20Z</time>
      </trkpt>
      <trkpt lat="32.768814" lon="35.156843">
        <ele>116.0</ele>
        <time>2011-05-25T17:46:30Z</time>
      </trkpt>
      <trkpt lat="32.768885" lon="35.156638">
        <ele>115.0</ele>
        <time>2011-05-25T17:46:34Z</time>
      </trkpt>
      <trkpt lat="32.768963" lon="35.156336">
        <ele>114.0</ele>
        <time>2011-05-25T17:46:38Z</time>
      </trkpt>
      <trkpt lat="32.768938" lon="35.156087">
        <ele>112.0</ele>
        <time>2011-05-25T17:46:41Z</time>
      </trkpt>
      <trkpt lat="32.768813" lon="35.155716">
        <ele>111.0</ele>
        <time>2011-05-25T17:46:46Z</time>
      </trkpt>
      <trkpt lat="32.768699" lon="35.155509">
        <ele>110.0</ele>
        <time>2011-05-25T17:46:50Z</time>
      </trkpt>
      <trkpt lat="32.768655" lon="35.155455">
        <ele>110.0</ele>
        <time>2011-05-25T17:46:58Z</time>
      </trkpt>
      <trkpt lat="32.768581" lon="35.155438">
        <ele>110.0</ele>
        <time>2011-05-25T17:47:20Z</time>
      </trkpt>
      <trkpt lat="32.768508" lon="35.155418">
        <ele>109.0</ele>
        <time>2011-05-25T17:47:26Z</time>
      </trkpt>
      <trkpt lat="32.768444" lon="35.155391">
        <ele>109.0</ele>
        <time>2011-05-25T17:47:30Z</time>
      </trkpt>
      <trkpt lat="32.768385" lon="35.155347">
        <ele>108.0</ele>
        <time>2011-05-25T17:47:33Z</time>
      </trkpt>
      <trkpt lat="32.76833" lon="35.155308">
        <ele>107.0</ele>
        <time>2011-05-25T17:47:36Z</time>
      </trkpt>
      <trkpt lat="32.768262" lon="35.155259">
        <ele>107.0</ele>
        <time>2011-05-25T17:47:40Z</time>
      </trkpt>
      <trkpt lat="32.768137" lon="35.15518">
        <ele>107.0</ele>
        <time>2011-05-25T17:47:46Z</time>
      </trkpt>
      <trkpt lat="32.768071" lon="35.155135">
        <ele>106.0</ele>
        <time>2011-05-25T17:47:49Z</time>
      </trkpt>
      <trkpt lat="32.767909" lon="35.155036">
        <ele>106.0</ele>
        <time>2011-05-25T17:47:53Z</time>
      </trkpt>
      <trkpt lat="32.767757" lon="35.154943">
        <ele>105.0</ele>
        <time>2011-05-25T17:47:57Z</time>
      </trkpt>
      <trkpt lat="32.767617" lon="35.154861">
        <ele>105.0</ele>
        <time>2011-05-25T17:48:01Z</time>
      </trkpt>
      <trkpt lat="32.767477" lon="35.154802">
        <ele>105.0</ele>
        <time>2011-05-25T17:48:05Z</time>
      </trkpt>
      <trkpt lat="32.767386" lon="35.154768">
        <ele>104.0</ele>
        <time>2011-05-25T17:48:08Z</time>
      </trkpt>
      <trkpt lat="32.767158" lon="35.154697">
        <ele>104.0</ele>
        <time>2011-05-25T17:48:16Z</time>
      </trkpt>
      <trkpt lat="32.767002" lon="35.154667">
        <ele>103.0</ele>
        <time>2011-05-25T17:48:22Z</time>
      </trkpt>
      <trkpt lat="32.766931" lon="35.154657">
        <ele>103.0</ele>
        <time>2011-05-25T17:48:25Z</time>
      </trkpt>
      <trkpt lat="32.766786" lon="35.154644">
        <ele>103.0</ele>
        <time>2011-05-25T17:48:34Z</time>
      </trkpt>
      <trkpt lat="32.766724" lon="35.154631">
        <ele>102.0</ele>
        <time>2011-05-25T17:48:39Z</time>
      </trkpt>
      <trkpt lat="32.766658" lon="35.1546">
        <ele>102.0</ele>
        <time>2011-05-25T17:48:43Z</time>
      </trkpt>
      <trkpt lat="32.766597" lon="35.154574">
        <ele>102.0</ele>
        <time>2011-05-25T17:48:47Z</time>
      </trkpt>
      <trkpt lat="32.766525" lon="35.154541">
        <ele>102.0</ele>
        <time>2011-05-25T17:48:51Z</time>
      </trkpt>
      <trkpt lat="32.766357" lon="35.154436">
        <ele>102.0</ele>
        <time>2011-05-25T17:48:58Z</time>
      </trkpt>
      <trkpt lat="32.766214" lon="35.154353">
        <ele>102.0</ele>
        <time>2011-05-25T17:49:02Z</time>
      </trkpt>
      <trkpt lat="32.766062" lon="35.154277">
        <ele>102.0</ele>
        <time>2011-05-25T17:49:06Z</time>
      </trkpt>
      <trkpt lat="32.765906" lon="35.154203">
        <ele>102.0</ele>
        <time>2011-05-25T17:49:10Z</time>
      </trkpt>
      <trkpt lat="32.765744" lon="35.154141">
        <ele>101.0</ele>
        <time>2011-05-25T17:49:14Z</time>
      </trkpt>
      <trkpt lat="32.765565" lon="35.1541">
        <ele>100.0</ele>
        <time>2011-05-25T17:49:18Z</time>
      </trkpt>
      <trkpt lat="32.765384" lon="35.154072">
        <ele>100.0</ele>
        <time>2011-05-25T17:49:22Z</time>
      </trkpt>
      <trkpt lat="32.765215" lon="35.154066">
        <ele>100.0</ele>
        <time>2011-05-25T17:49:26Z</time>
      </trkpt>
      <trkpt lat="32.765143" lon="35.154074">
        <ele>100.0</ele>
        <time>2011-05-25T17:49:29Z</time>
      </trkpt>
      <trkpt lat="32.765064" lon="35.154054">
        <ele>100.0</ele>
        <time>2011-05-25T17:49:33Z</time>
      </trkpt>
      <trkpt lat="32.764902" lon="35.154014">
        <ele>99.9999</ele>
        <time>2011-05-25T17:49:38Z</time>
      </trkpt>
      <trkpt lat="32.764739" lon="35.154026">
        <ele>100.0</ele>
        <time>2011-05-25T17:49:42Z</time>
      </trkpt>
      <trkpt lat="32.764658" lon="35.154046">
        <ele>100.0</ele>
        <time>2011-05-25T17:49:45Z</time>
      </trkpt>
      <trkpt lat="32.764562" lon="35.154076">
        <ele>100.0</ele>
        <time>2011-05-25T17:49:50Z</time>
      </trkpt>
      <trkpt lat="32.764497" lon="35.154132">
        <ele>100.0</ele>
        <time>2011-05-25T17:49:54Z</time>
      </trkpt>
      <trkpt lat="32.764438" lon="35.154193">
        <ele>100.0</ele>
        <time>2011-05-25T17:49:58Z</time>
      </trkpt>
      <trkpt lat="32.764448" lon="35.154412">
        <ele>100.0</ele>
        <time>2011-05-25T17:50:26Z</time>
      </trkpt>
      <trkpt lat="32.764475" lon="35.15448">
        <ele>100.0</ele>
        <time>2011-05-25T17:51:15Z</time>
      </trkpt>
      <trkpt lat="32.764595" lon="35.15455">
        <ele>99.0</ele>
        <time>2011-05-25T17:52:50Z</time>
      </trkpt>
      <trkpt lat="32.764629" lon="35.154467">
        <ele>99.0</ele>
        <time>2011-05-25T17:52:51Z</time>
      </trkpt>
      <trkpt lat="32.764615" lon="35.154393">
        <ele>99.0</ele>
        <time>2011-05-25T17:53:06Z</time>
      </trkpt>
      <trkpt lat="32.764574" lon="35.154336">
        <ele>99.0</ele>
        <time>2011-05-25T17:53:31Z</time>
      </trkpt>
      <trkpt lat="32.76456" lon="35.15426">
        <ele>99.0</ele>
        <time>2011-05-25T17:55:36Z</time>
      </trkpt>
      <trkpt lat="32.764595" lon="35.154191">
        <ele>99.0</ele>
        <time>2011-05-25T17:55:41Z</time>
      </trkpt>
      <trkpt lat="32.764654" lon="35.154158">
        <ele>99.0</ele>
        <time>2011-05-25T17:55:45Z</time>
      </trkpt>
      <trkpt lat="32.764799" lon="35.154142">
        <ele>99.0</ele>
        <time>2011-05-25T17:55:52Z</time>
      </trkpt>
      <trkpt lat="32.764876" lon="35.154146">
        <ele>99.0</ele>
        <time>2011-05-25T17:55:55Z</time>
      </trkpt>
      <trkpt lat="32.76502" lon="35.154155">
        <ele>99.0</ele>
        <time>2011-05-25T17:56:01Z</time>
      </trkpt>
      <trkpt lat="32.765085" lon="35.154257">
        <ele>99.0</ele>
        <time>2011-05-25T17:56:08Z</time>
      </trkpt>
      <trkpt lat="32.765023" lon="35.154288">
        <ele>99.0</ele>
        <time>2011-05-25T17:56:12Z</time>
      </trkpt>
      <trkpt lat="32.764956" lon="35.154299">
        <ele>99.0</ele>
        <time>2011-05-25T17:56:15Z</time>
      </trkpt>
      <trkpt lat="32.76488" lon="35.154311">
        <ele>99.0</ele>
        <time>2011-05-25T17:56:19Z</time>
      </trkpt>
      <trkpt lat="32.764817" lon="35.154328">
        <ele>100.0</ele>
        <time>2011-05-25T17:56:24Z</time>
      </trkpt>
      <trkpt lat="32.764796" lon="35.154404">
        <ele>100.0</ele>
        <time>2011-05-25T17:56:31Z</time>
      </trkpt>
      <trkpt lat="32.76486" lon="35.154462">
        <ele>100.0</ele>
        <time>2011-05-25T17:56:36Z</time>
      </trkpt>
      <trkpt lat="32.764935" lon="35.154487">
        <ele>100.0</ele>
        <time>2011-05-25T17:56:40Z</time>
      </trkpt>
      <trkpt lat="32.765141" lon="35.154501">
        <ele>100.0</ele>
        <time>2011-05-25T17:56:53Z</time>
      </trkpt>
      <trkpt lat="32.765208" lon="35.154496">
        <ele>100.0</ele>
        <time>2011-05-25T17:56:57Z</time>
      </trkpt>
      <trkpt lat="32.765273" lon="35.154522">
        <ele>100.0</ele>
        <time>2011-05-25T17:57:02Z</time>
      </trkpt>
      <trkpt lat="32.765331" lon="35.154559">
        <ele>100.0</ele>
        <time>2011-05-25T17:57:07Z</time>
      </trkpt>
      <trkpt lat="32.765397" lon="35.154599">
        <ele>101.0</ele>
        <time>2011-05-25T17:57:13Z</time>
      </trkpt>
      <trkpt lat="32.765467" lon="35.15461">
        <ele>101.0</ele>
        <time>2011-05-25T17:57:20Z</time>
      </trkpt>
      <trkpt lat="32.765655" lon="35.154707">
        <ele>101.0</ele>
        <time>2011-05-25T17:57:39Z</time>
      </trkpt>
      <trkpt lat="32.765787" lon="35.154759">
        <ele>101.0</ele>
        <time>2011-05-25T17:57:51Z</time>
      </trkpt>
      <trkpt lat="32.765858" lon="35.154786">
        <ele>101.0</ele>
        <time>2011-05-25T17:57:57Z</time>
      </trkpt>
      <trkpt lat="32.765924" lon="35.154817">
        <ele>101.0</ele>
        <time>2011-05-25T17:58:03Z</time>
      </trkpt>
      <trkpt lat="32.766081" lon="35.154956">
        <ele>101.0</ele>
        <time>2011-05-25T17:58:18Z</time>
      </trkpt>
      <trkpt lat="32.766147" lon="35.154985">
        <ele>101.0</ele>
        <time>2011-05-25T17:58:23Z</time>
      </trkpt>
      <trkpt lat="32.766211" lon="35.155023">
        <ele>101.0</ele>
        <time>2011-05-25T17:58:28Z</time>
      </trkpt>
      <trkpt lat="32.766267" lon="35.155068">
        <ele>101.0</ele>
        <time>2011-05-25T17:58:33Z</time>
      </trkpt>
      <trkpt lat="32.766323" lon="35.155122">
        <ele>101.0</ele>
        <time>2011-05-25T17:58:39Z</time>
      </trkpt>
      <trkpt lat="32.766377" lon="35.155183">
        <ele>101.0</ele>
        <time>2011-05-25T17:58:44Z</time>
      </trkpt>
      <trkpt lat="32.766409" lon="35.155258">
        <ele>101.0</ele>
        <time>2011-05-25T17:58:49Z</time>
      </trkpt>
      <trkpt lat="32.76643" lon="35.155342">
        <ele>101.0</ele>
        <time>2011-05-25T17:58:54Z</time>
      </trkpt>
      <trkpt lat="32.766455" lon="35.15543">
        <ele>101.0</ele>
        <time>2011-05-25T17:58:59Z</time>
      </trkpt>
      <trkpt lat="32.76648" lon="35.155507">
        <ele>101.0</ele>
        <time>2011-05-25T17:59:03Z</time>
      </trkpt>
      <trkpt lat="32.766505" lon="35.155583">
        <ele>102.0</ele>
        <time>2011-05-25T17:59:07Z</time>
      </trkpt>
      <trkpt lat="32.766539" lon="35.155663">
        <ele>102.0</ele>
        <time>2011-05-25T17:59:12Z</time>
      </trkpt>
      <trkpt lat="32.766577" lon="35.155739">
        <ele>102.0</ele>
        <time>2011-05-25T17:59:17Z</time>
      </trkpt>
      <trkpt lat="32.766608" lon="35.155805">
        <ele>102.0</ele>
        <time>2011-05-25T17:59:22Z</time>
      </trkpt>
      <trkpt lat="32.766637" lon="35.155877">
        <ele>102.0</ele>
        <time>2011-05-25T17:59:28Z</time>
      </trkpt>
      <trkpt lat="32.766647" lon="35.155963">
        <ele>102.0</ele>
        <time>2011-05-25T17:59:33Z</time>
      </trkpt>
      <trkpt lat="32.766578" lon="35.156003">
        <ele>102.0</ele>
        <time>2011-05-25T17:59:40Z</time>
      </trkpt>
      <trkpt lat="32.766552" lon="35.15605">
        <ele>103.0</ele>
        <time>2011-05-25T18:00:10Z</time>
      </trkpt>
      <trkpt lat="32.766664" lon="35.156111">
        <ele>103.0</ele>
        <time>2011-05-25T18:00:12Z</time>
      </trkpt>
      <trkpt lat="32.766977" lon="35.156284">
        <ele>104.0</ele>
        <time>2011-05-25T18:00:17Z</time>
      </trkpt>
      <trkpt lat="32.767236" lon="35.156702">
        <ele>104.0</ele>
        <time>2011-05-25T18:00:25Z</time>
      </trkpt>
      <trkpt lat="32.767328" lon="35.156911">
        <ele>104.0</ele>
        <time>2011-05-25T18:00:29Z</time>
      </trkpt>
      <trkpt lat="32.767421" lon="35.157094">
        <ele>105.0</ele>
        <time>2011-05-25T18:00:33Z</time>
      </trkpt>
      <trkpt lat="32.767527" lon="35.157257">
        <ele>105.0</ele>
        <time>2011-05-25T18:00:37Z</time>
      </trkpt>
      <trkpt lat="32.767631" lon="35.157418">
        <ele>106.0</ele>
        <time>2011-05-25T18:00:41Z</time>
      </trkpt>
      <trkpt lat="32.767727" lon="35.157555">
        <ele>106.0</ele>
        <time>2011-05-25T18:00:45Z</time>
      </trkpt>
      <trkpt lat="32.767776" lon="35.157632">
        <ele>106.0</ele>
        <time>2011-05-25T18:00:48Z</time>
      </trkpt>
      <trkpt lat="32.767817" lon="35.157695">
        <ele>106.0</ele>
        <time>2011-05-25T18:00:52Z</time>
      </trkpt>
      <trkpt lat="32.767855" lon="35.157757">
        <ele>106.0</ele>
        <time>2011-05-25T18:01:59Z</time>
      </trkpt>
      <trkpt lat="32.767894" lon="35.157843">
        <ele>106.0</ele>
        <time>2011-05-25T18:02:16Z</time>
      </trkpt>
      <trkpt lat="32.767923" lon="35.157919">
        <ele>106.0</ele>
        <time>2011-05-25T18:02:20Z</time>
      </trkpt>
      <trkpt lat="32.768048" lon="35.15823">
        <ele>106.0</ele>
        <time>2011-05-25T18:02:26Z</time>
      </trkpt>
      <trkpt lat="32.76829" lon="35.158743">
        <ele>106.0</ele>
        <time>2011-05-25T18:02:30Z</time>
      </trkpt>
      <trkpt lat="32.76842" lon="35.158977">
        <ele>106.0</ele>
        <time>2011-05-25T18:02:34Z</time>
      </trkpt>
      <trkpt lat="32.768553" lon="35.159251">
        <ele>106.0</ele>
        <time>2011-05-25T18:02:38Z</time>
      </trkpt>
      <trkpt lat="32.768602" lon="35.159382">
        <ele>106.0</ele>
        <time>2011-05-25T18:02:40Z</time>
      </trkpt>
      <trkpt lat="32.768737" lon="35.159972">
        <ele>104.0</ele>
        <time>2011-05-25T18:02:50Z</time>
      </trkpt>
      <trkpt lat="32.768751" lon="35.160069">
        <ele>104.0</ele>
        <time>2011-05-25T18:02:53Z</time>
      </trkpt>
      <trkpt lat="32.768759" lon="35.160153">
        <ele>104.0</ele>
        <time>2011-05-25T18:02:57Z</time>
      </trkpt>
      <trkpt lat="32.768753" lon="35.160228">
        <ele>104.0</ele>
        <time>2011-05-25T18:03:02Z</time>
      </trkpt>
      <trkpt lat="32.768743" lon="35.160315">
        <ele>104.0</ele>
        <time>2011-05-25T18:03:07Z</time>
      </trkpt>
      <trkpt lat="32.768713" lon="35.160395">
        <ele>104.0</ele>
        <time>2011-05-25T18:03:11Z</time>
      </trkpt>
      <trkpt lat="32.768696" lon="35.16048">
        <ele>104.0</ele>
        <time>2011-05-25T18:03:15Z</time>
      </trkpt>
      <trkpt lat="32.768676" lon="35.16056">
        <ele>105.0</ele>
        <time>2011-05-25T18:03:23Z</time>
      </trkpt>
      <trkpt lat="32.768653" lon="35.16064">
        <ele>105.0</ele>
        <time>2011-05-25T18:03:28Z</time>
      </trkpt>
      <trkpt lat="32.768634" lon="35.160718">
        <ele>105.0</ele>
        <time>2011-05-25T18:03:34Z</time>
      </trkpt>
      <trkpt lat="32.768617" lon="35.160803">
        <ele>105.0</ele>
        <time>2011-05-25T18:03:43Z</time>
      </trkpt>
      <trkpt lat="32.76861" lon="35.160886">
        <ele>105.0</ele>
        <time>2011-05-25T18:03:47Z</time>
      </trkpt>
      <trkpt lat="32.768606" lon="35.16098">
        <ele>105.0</ele>
        <time>2011-05-25T18:03:52Z</time>
      </trkpt>
      <trkpt lat="32.768601" lon="35.161065">
        <ele>105.0</ele>
        <time>2011-05-25T18:03:56Z</time>
      </trkpt>
      <trkpt lat="32.768591" lon="35.161148">
        <ele>105.0</ele>
        <time>2011-05-25T18:04:02Z</time>
      </trkpt>
      <trkpt lat="32.768578" lon="35.161221">
        <ele>105.0</ele>
        <time>2011-05-25T18:04:06Z</time>
      </trkpt>
      <trkpt lat="32.768566" lon="35.161301">
        <ele>105.0</ele>
        <time>2011-05-25T18:04:10Z</time>
      </trkpt>
      <trkpt lat="32.768557" lon="35.16138">
        <ele>105.0</ele>
        <time>2011-05-25T18:04:16Z</time>
      </trkpt>
      <trkpt lat="32.76855" lon="35.161465">
        <ele>105.0</ele>
        <time>2011-05-25T18:04:21Z</time>
      </trkpt>
      <trkpt lat="32.768543" lon="35.161556">
        <ele>105.0</ele>
        <time>2011-05-25T18:04:25Z</time>
      </trkpt>
      <trkpt lat="32.768537" lon="35.161634">
        <ele>105.0</ele>
        <time>2011-05-25T18:04:30Z</time>
      </trkpt>
      <trkpt lat="32.768531" lon="35.161711">
        <ele>106.0</ele>
        <time>2011-05-25T18:04:35Z</time>
      </trkpt>
      <trkpt lat="32.768495" lon="35.161884">
        <ele>106.0</ele>
        <time>2011-05-25T18:04:41Z</time>
      </trkpt>
      <trkpt lat="32.768442" lon="35.162051">
        <ele>106.0</ele>
        <time>2011-05-25T18:04:45Z</time>
      </trkpt>
      <trkpt lat="32.76839" lon="35.162203">
        <ele>106.0</ele>
        <time>2011-05-25T18:04:49Z</time>
      </trkpt>
      <trkpt lat="32.768367" lon="35.162295">
        <ele>106.0</ele>
        <time>2011-05-25T18:04:52Z</time>
      </trkpt>
      <trkpt lat="32.768338" lon="35.162466">
        <ele>106.0</ele>
        <time>2011-05-25T18:04:58Z</time>
      </trkpt>
      <trkpt lat="32.768324" lon="35.162565">
        <ele>106.0</ele>
        <time>2011-05-25T18:05:03Z</time>
      </trkpt>
      <trkpt lat="32.768311" lon="35.162676">
        <ele>106.0</ele>
        <time>2011-05-25T18:05:08Z</time>
      </trkpt>
      <trkpt lat="32.768304" lon="35.162764">
        <ele>106.0</ele>
        <time>2011-05-25T18:05:13Z</time>
      </trkpt>
      <trkpt lat="32.768301" lon="35.162863">
        <ele>106.0</ele>
        <time>2011-05-25T18:05:19Z</time>
      </trkpt>
      <trkpt lat="32.768297" lon="35.163044">
        <ele>106.0</ele>
        <time>2011-05-25T18:05:26Z</time>
      </trkpt>
      <trkpt lat="32.768292" lon="35.163138">
        <ele>106.0</ele>
        <time>2011-05-25T18:05:30Z</time>
      </trkpt>
      <trkpt lat="32.768287" lon="35.163223">
        <ele>106.0</ele>
        <time>2011-05-25T18:05:34Z</time>
      </trkpt>
      <trkpt lat="32.768297" lon="35.16342">
        <ele>106.0</ele>
        <time>2011-05-25T18:05:42Z</time>
      </trkpt>
      <trkpt lat="32.768315" lon="35.163494">
        <ele>106.0</ele>
        <time>2011-05-25T18:05:45Z</time>
      </trkpt>
      <trkpt lat="32.768335" lon="35.163575">
        <ele>107.0</ele>
        <time>2011-05-25T18:05:48Z</time>
      </trkpt>
      <trkpt lat="32.768359" lon="35.163666">
        <ele>107.0</ele>
        <time>2011-05-25T18:05:52Z</time>
      </trkpt>
      <trkpt lat="32.768425" lon="35.163837">
        <ele>107.0</ele>
        <time>2011-05-25T18:05:58Z</time>
      </trkpt>
      <trkpt lat="32.768474" lon="35.16379">
        <ele>107.0</ele>
        <time>2011-05-25T18:06:04Z</time>
      </trkpt>
      <trkpt lat="32.76853" lon="35.163833">
        <ele>107.0</ele>
        <time>2011-05-25T18:06:54Z</time>
      </trkpt>
      <trkpt lat="32.768585" lon="35.163869">
        <ele>108.0</ele>
        <time>2011-05-25T18:06:58Z</time>
      </trkpt>
      <trkpt lat="32.768681" lon="35.163896">
        <ele>108.0</ele>
        <time>2011-05-25T18:07:01Z</time>
      </trkpt>
      <trkpt lat="32.768761" lon="35.163919">
        <ele>108.0</ele>
        <time>2011-05-25T18:07:03Z</time>
      </trkpt>
      <trkpt lat="32.768823" lon="35.163896">
        <ele>109.0</ele>
        <time>2011-05-25T18:07:08Z</time>
      </trkpt>
      <trkpt lat="32.768773" lon="35.163684">
        <ele>110.0</ele>
        <time>2011-05-25T18:07:23Z</time>
      </trkpt>
      <trkpt lat="32.76871" lon="35.163545">
        <ele>111.0</ele>
        <time>2011-05-25T18:07:30Z</time>
      </trkpt>
      <trkpt lat="32.768713" lon="35.163464">
        <ele>111.0</ele>
        <time>2011-05-25T18:07:33Z</time>
      </trkpt>
      <trkpt lat="32.768725" lon="35.163192">
        <ele>111.0</ele>
        <time>2011-05-25T18:07:41Z</time>
      </trkpt>
      <trkpt lat="32.768752" lon="35.162991">
        <ele>113.0</ele>
        <time>2011-05-25T18:07:45Z</time>
      </trkpt>
      <trkpt lat="32.768814" lon="35.162585">
        <ele>114.0</ele>
        <time>2011-05-25T18:07:50Z</time>
      </trkpt>
      <trkpt lat="32.768867" lon="35.162266">
        <ele>114.0</ele>
        <time>2011-05-25T18:07:54Z</time>
      </trkpt>
      <trkpt lat="32.76894" lon="35.16194">
        <ele>113.0</ele>
        <time>2011-05-25T18:07:58Z</time>
      </trkpt>
      <trkpt lat="32.769022" lon="35.161635">
        <ele>112.0</ele>
        <time>2011-05-25T18:08:02Z</time>
      </trkpt>
      <trkpt lat="32.769075" lon="35.161402">
        <ele>114.0</ele>
        <time>2011-05-25T18:08:06Z</time>
      </trkpt>
      <trkpt lat="32.769119" lon="35.161193">
        <ele>115.0</ele>
        <time>2011-05-25T18:08:10Z</time>
      </trkpt>
      <trkpt lat="32.769207" lon="35.161034">
        <ele>116.0</ele>
        <time>2011-05-25T18:08:14Z</time>
      </trkpt>
      <trkpt lat="32.769354" lon="35.160984">
        <ele>115.0</ele>
        <time>2011-05-25T18:08:41Z</time>
      </trkpt>
      <trkpt lat="32.769605" lon="35.161071">
        <ele>114.0</ele>
        <time>2011-05-25T18:08:53Z</time>
      </trkpt>
      <trkpt lat="32.769825" lon="35.161249">
        <ele>113.0</ele>
        <time>2011-05-25T18:08:57Z</time>
      </trkpt>
      <trkpt lat="32.769987" lon="35.161657">
        <ele>112.0</ele>
        <time>2011-05-25T18:09:02Z</time>
      </trkpt>
      <trkpt lat="32.770269" lon="35.161849">
        <ele>112.0</ele>
        <time>2011-05-25T18:09:06Z</time>
      </trkpt>
      <trkpt lat="32.770469" lon="35.161939">
        <ele>111.0</ele>
        <time>2011-05-25T18:09:09Z</time>
      </trkpt>
      <trkpt lat="32.770652" lon="35.161986">
        <ele>111.0</ele>
        <time>2011-05-25T18:09:13Z</time>
      </trkpt>
      <trkpt lat="32.770804" lon="35.161979">
        <ele>111.0</ele>
        <time>2011-05-25T18:09:18Z</time>
      </trkpt>
      <trkpt lat="32.770865" lon="35.161926">
        <ele>111.0</ele>
        <time>2011-05-25T18:09:21Z</time>
      </trkpt>
      <trkpt lat="32.770972" lon="35.16184">
        <ele>112.0</ele>
        <time>2011-05-25T18:10:10Z</time>
      </trkpt>
      <trkpt lat="32.770651" lon="35.161665">
        <ele>110.0</ele>
        <time>2011-05-25T18:10:58Z</time>
      </trkpt>
      <trkpt lat="32.77033" lon="35.161662">
        <ele>110.0</ele>
        <time>2011-05-25T18:11:01Z</time>
      </trkpt>
      <trkpt lat="32.770269" lon="35.161639">
        <ele>110.0</ele>
        <time>2011-05-25T18:11:09Z</time>
      </trkpt>
      <trkpt lat="32.770208" lon="35.161675">
        <ele>108.0</ele>
        <time>2011-05-25T18:23:36Z</time>
      </trkpt>
      <trkpt lat="32.770209" lon="35.161733">
        <ele>108.0</ele>
        <time>2011-05-25T18:23:42Z</time>
      </trkpt>
      <trkpt lat="32.770394" lon="35.161834">
        <ele>108.0</ele>
        <time>2011-05-25T18:23:46Z</time>
      </trkpt>
      <trkpt lat="32.770527" lon="35.161911">
        <ele>108.0</ele>
        <time>2011-05-25T18:23:50Z</time>
      </trkpt>
      <trkpt lat="32.770586" lon="35.161941">
        <ele>108.0</ele>
        <time>2011-05-25T18:23:52Z</time>
      </trkpt>
      <trkpt lat="32.770653" lon="35.161952">
        <ele>108.0</ele>
        <time>2011-05-25T18:23:57Z</time>
      </trkpt>
      <trkpt lat="32.770713" lon="35.161929">
        <ele>107.0</ele>
        <time>2011-05-25T18:24:01Z</time>
      </trkpt>
      <trkpt lat="32.770777" lon="35.161896">
        <ele>107.0</ele>
        <time>2011-05-25T18:24:05Z</time>
      </trkpt>
      <trkpt lat="32.771234" lon="35.161759">
        <ele>106.0</ele>
        <time>2011-05-25T18:24:18Z</time>
      </trkpt>
      <trkpt lat="32.771557" lon="35.161713">
        <ele>105.0</ele>
        <time>2011-05-25T18:24:22Z</time>
      </trkpt>
      <trkpt lat="32.77185" lon="35.161662">
        <ele>104.0</ele>
        <time>2011-05-25T18:24:26Z</time>
      </trkpt>
      <trkpt lat="32.77213" lon="35.161604">
        <ele>105.0</ele>
        <time>2011-05-25T18:24:30Z</time>
      </trkpt>
      <trkpt lat="32.772336" lon="35.161563">
        <ele>106.0</ele>
        <time>2011-05-25T18:24:33Z</time>
      </trkpt>
      <trkpt lat="32.772646" lon="35.161518">
        <ele>106.0</ele>
        <time>2011-05-25T18:24:38Z</time>
      </trkpt>
      <trkpt lat="32.772837" lon="35.161485">
        <ele>106.0</ele>
        <time>2011-05-25T18:24:42Z</time>
      </trkpt>
      <trkpt lat="32.773005" lon="35.161457">
        <ele>105.0</ele>
        <time>2011-05-25T18:24:46Z</time>
      </trkpt>
      <trkpt lat="32.773223" lon="35.161451">
        <ele>105.0</ele>
        <time>2011-05-25T18:24:52Z</time>
      </trkpt>
      <trkpt lat="32.773398" lon="35.161451">
        <ele>105.0</ele>
        <time>2011-05-25T18:24:58Z</time>
      </trkpt>
      <trkpt lat="32.773485" lon="35.161449">
        <ele>105.0</ele>
        <time>2011-05-25T18:25:01Z</time>
      </trkpt>
      <trkpt lat="32.773571" lon="35.161448">
        <ele>105.0</ele>
        <time>2011-05-25T18:25:04Z</time>
      </trkpt>
      <trkpt lat="32.773749" lon="35.161451">
        <ele>105.0</ele>
        <time>2011-05-25T18:25:10Z</time>
      </trkpt>
      <trkpt lat="32.773838" lon="35.16145">
        <ele>105.0</ele>
        <time>2011-05-25T18:25:13Z</time>
      </trkpt>
      <trkpt lat="32.773925" lon="35.161446">
        <ele>105.0</ele>
        <time>2011-05-25T18:25:16Z</time>
      </trkpt>
      <trkpt lat="32.774099" lon="35.161407">
        <ele>105.0</ele>
        <time>2011-05-25T18:25:22Z</time>
      </trkpt>
      <trkpt lat="32.774187" lon="35.161368">
        <ele>105.0</ele>
        <time>2011-05-25T18:25:25Z</time>
      </trkpt>
      <trkpt lat="32.774271" lon="35.161338">
        <ele>105.0</ele>
        <time>2011-05-25T18:25:28Z</time>
      </trkpt>
      <trkpt lat="32.774433" lon="35.161249">
        <ele>106.0</ele>
        <time>2011-05-25T18:25:34Z</time>
      </trkpt>
      <trkpt lat="32.774509" lon="35.161189">
        <ele>106.0</ele>
        <time>2011-05-25T18:25:37Z</time>
      </trkpt>
      <trkpt lat="32.774574" lon="35.161119">
        <ele>106.0</ele>
        <time>2011-05-25T18:25:40Z</time>
      </trkpt>
      <trkpt lat="32.774714" lon="35.160996">
        <ele>106.0</ele>
        <time>2011-05-25T18:25:46Z</time>
      </trkpt>
      <trkpt lat="32.774783" lon="35.160936">
        <ele>106.0</ele>
        <time>2011-05-25T18:25:49Z</time>
      </trkpt>
      <trkpt lat="32.774854" lon="35.160872">
        <ele>106.0</ele>
        <time>2011-05-25T18:25:52Z</time>
      </trkpt>
      <trkpt lat="32.774988" lon="35.160731">
        <ele>106.0</ele>
        <time>2011-05-25T18:25:58Z</time>
      </trkpt>
      <trkpt lat="32.775055" lon="35.160654">
        <ele>106.0</ele>
        <time>2011-05-25T18:26:01Z</time>
      </trkpt>
      <trkpt lat="32.77515" lon="35.160547">
        <ele>106.0</ele>
        <time>2011-05-25T18:26:05Z</time>
      </trkpt>
      <trkpt lat="32.775269" lon="35.160422">
        <ele>106.0</ele>
        <time>2011-05-25T18:26:10Z</time>
      </trkpt>
      <trkpt lat="32.77533" lon="35.16036">
        <ele>106.0</ele>
        <time>2011-05-25T18:26:12Z</time>
      </trkpt>
      <trkpt lat="32.775546" lon="35.160189">
        <ele>106.0</ele>
        <time>2011-05-25T18:26:18Z</time>
      </trkpt>
      <trkpt lat="32.77568" lon="35.160084">
        <ele>106.0</ele>
        <time>2011-05-25T18:26:22Z</time>
      </trkpt>
      <trkpt lat="32.775819" lon="35.159987">
        <ele>106.0</ele>
        <time>2011-05-25T18:26:26Z</time>
      </trkpt>
      <trkpt lat="32.775947" lon="35.159915">
        <ele>106.0</ele>
        <time>2011-05-25T18:26:30Z</time>
      </trkpt>
      <trkpt lat="32.776007" lon="35.159882">
        <ele>107.0</ele>
        <time>2011-05-25T18:26:32Z</time>
      </trkpt>
      <trkpt lat="32.776178" lon="35.159807">
        <ele>107.0</ele>
        <time>2011-05-25T18:26:38Z</time>
      </trkpt>
      <trkpt lat="32.776229" lon="35.159755">
        <ele>107.0</ele>
        <time>2011-05-25T18:26:48Z</time>
      </trkpt>
      <trkpt lat="32.776206" lon="35.159649">
        <ele>108.0</ele>
        <time>2011-05-25T18:26:58Z</time>
      </trkpt>
      <trkpt lat="32.77617" lon="35.159585">
        <ele>108.0</ele>
        <time>2011-05-25T18:27:01Z</time>
      </trkpt>
      <trkpt lat="32.776135" lon="35.159522">
        <ele>108.0</ele>
        <time>2011-05-25T18:27:10Z</time>
      </trkpt>
      <trkpt lat="32.776077" lon="35.15944">
        <ele>108.0</ele>
        <time>2011-05-25T18:27:29Z</time>
      </trkpt>
      <trkpt lat="32.775993" lon="35.159252">
        <ele>108.0</ele>
        <time>2011-05-25T18:27:33Z</time>
      </trkpt>
      <trkpt lat="32.77599" lon="35.159158">
        <ele>108.0</ele>
        <time>2011-05-25T18:27:35Z</time>
      </trkpt>
      <trkpt lat="32.776034" lon="35.158876">
        <ele>107.0</ele>
        <time>2011-05-25T18:27:42Z</time>
      </trkpt>
      <trkpt lat="32.776044" lon="35.15878">
        <ele>107.0</ele>
        <time>2011-05-25T18:27:45Z</time>
      </trkpt>
      <trkpt lat="32.776069" lon="35.158578">
        <ele>105.0</ele>
        <time>2011-05-25T18:27:49Z</time>
      </trkpt>
      <trkpt lat="32.776116" lon="35.158365">
        <ele>103.0</ele>
        <time>2011-05-25T18:27:53Z</time>
      </trkpt>
      <trkpt lat="32.776169" lon="35.158109">
        <ele>103.0</ele>
        <time>2011-05-25T18:27:57Z</time>
      </trkpt>
      <trkpt lat="32.776226" lon="35.15783">
        <ele>102.0</ele>
        <time>2011-05-25T18:28:01Z</time>
      </trkpt>
      <trkpt lat="32.776265" lon="35.157548">
        <ele>102.0</ele>
        <time>2011-05-25T18:28:05Z</time>
      </trkpt>
      <trkpt lat="32.776286" lon="35.157269">
        <ele>101.0</ele>
        <time>2011-05-25T18:28:09Z</time>
      </trkpt>
      <trkpt lat="32.776291" lon="35.156987">
        <ele>101.0</ele>
        <time>2011-05-25T18:28:13Z</time>
      </trkpt>
      <trkpt lat="32.776285" lon="35.156602">
        <ele>100.0</ele>
        <time>2011-05-25T18:28:18Z</time>
      </trkpt>
      <trkpt lat="32.776283" lon="35.156273">
        <ele>100.0</ele>
        <time>2011-05-25T18:28:22Z</time>
      </trkpt>
      <trkpt lat="32.776264" lon="35.155937">
        <ele>99.0</ele>
        <time>2011-05-25T18:28:26Z</time>
      </trkpt>
      <trkpt lat="32.776265" lon="35.155696">
        <ele>98.0</ele>
        <time>2011-05-25T18:28:29Z</time>
      </trkpt>
      <trkpt lat="32.776221" lon="35.15531">
        <ele>97.0</ele>
        <time>2011-05-25T18:28:34Z</time>
      </trkpt>
      <trkpt lat="32.776211" lon="35.154985">
        <ele>96.0</ele>
        <time>2011-05-25T18:28:38Z</time>
      </trkpt>
      <trkpt lat="32.776222" lon="35.154765">
        <ele>96.0</ele>
        <time>2011-05-25T18:28:41Z</time>
      </trkpt>
      <trkpt lat="32.776251" lon="35.154515">
        <ele>96.0</ele>
        <time>2011-05-25T18:28:45Z</time>
      </trkpt>
      <trkpt lat="32.776304" lon="35.154266">
        <ele>95.0</ele>
        <time>2011-05-25T18:28:49Z</time>
      </trkpt>
      <trkpt lat="32.776357" lon="35.15404">
        <ele>94.0</ele>
        <time>2011-05-25T18:28:53Z</time>
      </trkpt>
      <trkpt lat="32.776412" lon="35.153872">
        <ele>94.0</ele>
        <time>2011-05-25T18:28:57Z</time>
      </trkpt>
      <trkpt lat="32.776487" lon="35.153748">
        <ele>94.0</ele>
        <time>2011-05-25T18:29:01Z</time>
      </trkpt>
      <trkpt lat="32.77659" lon="35.153609">
        <ele>94.0</ele>
        <time>2011-05-25T18:29:06Z</time>
      </trkpt>
      <trkpt lat="32.776652" lon="35.153527">
        <ele>94.0</ele>
        <time>2011-05-25T18:29:09Z</time>
      </trkpt>
      <trkpt lat="32.776709" lon="35.153446">
        <ele>94.0</ele>
        <time>2011-05-25T18:29:12Z</time>
      </trkpt>
      <trkpt lat="32.776831" lon="35.153308">
        <ele>94.0</ele>
        <time>2011-05-25T18:29:18Z</time>
      </trkpt>
      <trkpt lat="32.776897" lon="35.153231">
        <ele>94.0</ele>
        <time>2011-05-25T18:29:21Z</time>
      </trkpt>
      <trkpt lat="32.777096" lon="35.153029">
        <ele>93.0</ele>
        <time>2011-05-25T18:29:30Z</time>
      </trkpt>
      <trkpt lat="32.777148" lon="35.152936">
        <ele>94.0</ele>
        <time>2011-05-25T18:29:33Z</time>
      </trkpt>
      <trkpt lat="32.777227" lon="35.15281">
        <ele>95.0</ele>
        <time>2011-05-25T18:29:37Z</time>
      </trkpt>
      <trkpt lat="32.77725" lon="35.15271">
        <ele>95.0</ele>
        <time>2011-05-25T18:29:40Z</time>
      </trkpt>
      <trkpt lat="32.777291" lon="35.15251">
        <ele>94.0</ele>
        <time>2011-05-25T18:29:46Z</time>
      </trkpt>
      <trkpt lat="32.77731" lon="35.152439">
        <ele>94.0</ele>
        <time>2011-05-25T18:30:16Z</time>
      </trkpt>
      <trkpt lat="32.777319" lon="35.152342">
        <ele>94.0</ele>
        <time>2011-05-25T18:30:21Z</time>
      </trkpt>
      <trkpt lat="32.777328" lon="35.15225">
        <ele>94.0</ele>
        <time>2011-05-25T18:30:24Z</time>
      </trkpt>
      <trkpt lat="32.777353" lon="35.152162">
        <ele>93.0</ele>
        <time>2011-05-25T18:30:27Z</time>
      </trkpt>
      <trkpt lat="32.777381" lon="35.152068">
        <ele>93.0</ele>
        <time>2011-05-25T18:30:31Z</time>
      </trkpt>
      <trkpt lat="32.77741" lon="35.151996">
        <ele>93.0</ele>
        <time>2011-05-25T18:30:36Z</time>
      </trkpt>
      <trkpt lat="32.777535" lon="35.151799">
        <ele>92.0</ele>
        <time>2011-05-25T18:30:48Z</time>
      </trkpt>
      <trkpt lat="32.777686" lon="35.151722">
        <ele>91.9999</ele>
        <time>2011-05-25T18:30:54Z</time>
      </trkpt>
      <trkpt lat="32.77792" lon="35.151799">
        <ele>91.0</ele>
        <time>2011-05-25T18:30:58Z</time>
      </trkpt>
      <trkpt lat="32.778139" lon="35.151845">
        <ele>91.0</ele>
        <time>2011-05-25T18:31:06Z</time>
      </trkpt>
      <trkpt lat="32.778226" lon="35.151872">
        <ele>91.0</ele>
        <time>2011-05-25T18:31:09Z</time>
      </trkpt>
      <trkpt lat="32.778304" lon="35.151905">
        <ele>91.0</ele>
        <time>2011-05-25T18:31:12Z</time>
      </trkpt>
      <trkpt lat="32.778376" lon="35.151949">
        <ele>91.0</ele>
        <time>2011-05-25T18:31:15Z</time>
      </trkpt>
      <trkpt lat="32.778523" lon="35.152064">
        <ele>90.0</ele>
        <time>2011-05-25T18:31:21Z</time>
      </trkpt>
      <trkpt lat="32.778593" lon="35.152103">
        <ele>90.0</ele>
        <time>2011-05-25T18:31:24Z</time>
      </trkpt>
      <trkpt lat="32.778666" lon="35.152132">
        <ele>90.0</ele>
        <time>2011-05-25T18:31:28Z</time>
      </trkpt>
      <trkpt lat="32.77873" lon="35.152128">
        <ele>90.0</ele>
        <time>2011-05-25T18:31:35Z</time>
      </trkpt>
      <trkpt lat="32.778813" lon="35.152117">
        <ele>90.0</ele>
        <time>2011-05-25T18:31:41Z</time>
      </trkpt>
      <trkpt lat="32.77888" lon="35.152109">
        <ele>90.0</ele>
        <time>2011-05-25T18:31:46Z</time>
      </trkpt>
      <trkpt lat="32.778962" lon="35.152096">
        <ele>89.9999</ele>
        <time>2011-05-25T18:31:51Z</time>
      </trkpt>
      <trkpt lat="32.77912" lon="35.152092">
        <ele>89.9999</ele>
        <time>2011-05-25T18:32:03Z</time>
      </trkpt>
      <trkpt lat="32.779191" lon="35.152093">
        <ele>91.0</ele>
        <time>2011-05-25T18:32:08Z</time>
      </trkpt>
      <trkpt lat="32.779255" lon="35.152091">
        <ele>91.0001</ele>
        <time>2011-05-25T18:32:13Z</time>
      </trkpt>
      <trkpt lat="32.779328" lon="35.152079">
        <ele>91.0</ele>
        <time>2011-05-25T18:32:18Z</time>
      </trkpt>
      <trkpt lat="32.779392" lon="35.152068">
        <ele>91.0</ele>
        <time>2011-05-25T18:32:22Z</time>
      </trkpt>
      <trkpt lat="32.779456" lon="35.152057">
        <ele>91.0</ele>
        <time>2011-05-25T18:32:27Z</time>
      </trkpt>
      <trkpt lat="32.779524" lon="35.152054">
        <ele>91.0</ele>
        <time>2011-05-25T18:32:31Z</time>
      </trkpt>
      <trkpt lat="32.779606" lon="35.152059">
        <ele>90.9999</ele>
        <time>2011-05-25T18:32:36Z</time>
      </trkpt>
      <trkpt lat="32.779672" lon="35.152063">
        <ele>91.9999</ele>
        <time>2011-05-25T18:32:39Z</time>
      </trkpt>
      <trkpt lat="32.779752" lon="35.152052">
        <ele>92.0</ele>
        <time>2011-05-25T18:32:43Z</time>
      </trkpt>
      <trkpt lat="32.779819" lon="35.152027">
        <ele>92.0</ele>
        <time>2011-05-25T18:32:47Z</time>
      </trkpt>
      <trkpt lat="32.779885" lon="35.151994">
        <ele>92.0</ele>
        <time>2011-05-25T18:32:51Z</time>
      </trkpt>
      <trkpt lat="32.779959" lon="35.151962">
        <ele>92.0001</ele>
        <time>2011-05-25T18:32:55Z</time>
      </trkpt>
      <trkpt lat="32.780032" lon="35.151936">
        <ele>93.0</ele>
        <time>2011-05-25T18:33:00Z</time>
      </trkpt>
      <trkpt lat="32.780241" lon="35.151875">
        <ele>93.0</ele>
        <time>2011-05-25T18:33:12Z</time>
      </trkpt>
      <trkpt lat="32.780313" lon="35.151873">
        <ele>94.0</ele>
        <time>2011-05-25T18:33:16Z</time>
      </trkpt>
      <trkpt lat="32.780385" lon="35.151871">
        <ele>94.0</ele>
        <time>2011-05-25T18:33:20Z</time>
      </trkpt>
      <trkpt lat="32.78052" lon="35.151856">
        <ele>94.0</ele>
        <time>2011-05-25T18:33:28Z</time>
      </trkpt>
      <trkpt lat="32.780585" lon="35.151843">
        <ele>94.0</ele>
        <time>2011-05-25T18:33:32Z</time>
      </trkpt>
      <trkpt lat="32.780658" lon="35.151826">
        <ele>94.0</ele>
        <time>2011-05-25T18:33:36Z</time>
      </trkpt>
      <trkpt lat="32.780864" lon="35.15177">
        <ele>95.0</ele>
        <time>2011-05-25T18:33:47Z</time>
      </trkpt>
      <trkpt lat="32.781008" lon="35.151729">
        <ele>95.0</ele>
        <time>2011-05-25T18:33:54Z</time>
      </trkpt>
      <trkpt lat="32.781219" lon="35.151678">
        <ele>95.9999</ele>
        <time>2011-05-25T18:34:04Z</time>
      </trkpt>
      <trkpt lat="32.781356" lon="35.151657">
        <ele>95.9999</ele>
        <time>2011-05-25T18:34:10Z</time>
      </trkpt>
      <trkpt lat="32.781423" lon="35.151647">
        <ele>95.9999</ele>
        <time>2011-05-25T18:34:13Z</time>
      </trkpt>
      <trkpt lat="32.781492" lon="35.151635">
        <ele>95.9999</ele>
        <time>2011-05-25T18:34:16Z</time>
      </trkpt>
      <trkpt lat="32.781635" lon="35.151605">
        <ele>95.9999</ele>
        <time>2011-05-25T18:34:22Z</time>
      </trkpt>
      <trkpt lat="32.781701" lon="35.151588">
        <ele>95.9999</ele>
        <time>2011-05-25T18:34:25Z</time>
      </trkpt>
      <trkpt lat="32.781898" lon="35.15155">
        <ele>97.0</ele>
        <time>2011-05-25T18:34:34Z</time>
      </trkpt>
      <trkpt lat="32.782106" lon="35.151497">
        <ele>96.9999</ele>
        <time>2011-05-25T18:34:44Z</time>
      </trkpt>
      <trkpt lat="32.782231" lon="35.151461">
        <ele>98.0</ele>
        <time>2011-05-25T18:34:50Z</time>
      </trkpt>
      <trkpt lat="32.782295" lon="35.151452">
        <ele>98.0</ele>
        <time>2011-05-25T18:34:53Z</time>
      </trkpt>
      <trkpt lat="32.78238" lon="35.151439">
        <ele>98.0</ele>
        <time>2011-05-25T18:34:57Z</time>
      </trkpt>
      <trkpt lat="32.782442" lon="35.151428">
        <ele>98.0</ele>
        <time>2011-05-25T18:35:00Z</time>
      </trkpt>
      <trkpt lat="32.782635" lon="35.151397">
        <ele>97.9999</ele>
        <time>2011-05-25T18:35:09Z</time>
      </trkpt>
      <trkpt lat="32.782706" lon="35.15139">
        <ele>98.0</ele>
        <time>2011-05-25T18:35:12Z</time>
      </trkpt>
      <trkpt lat="32.782827" lon="35.151437">
        <ele>99.0</ele>
        <time>2011-05-25T18:35:18Z</time>
      </trkpt>
      <trkpt lat="32.782884" lon="35.15147">
        <ele>99.0</ele>
        <time>2011-05-25T18:35:21Z</time>
      </trkpt>
      <trkpt lat="32.782947" lon="35.15149">
        <ele>99.0</ele>
        <time>2011-05-25T18:35:24Z</time>
      </trkpt>
      <trkpt lat="32.783152" lon="35.151503">
        <ele>99.0002</ele>
        <time>2011-05-25T18:35:33Z</time>
      </trkpt>
      <trkpt lat="32.783224" lon="35.151499">
        <ele>99.0</ele>
        <time>2011-05-25T18:35:37Z</time>
      </trkpt>
      <trkpt lat="32.783306" lon="35.151495">
        <ele>99.0</ele>
        <time>2011-05-25T18:35:41Z</time>
      </trkpt>
      <trkpt lat="32.783388" lon="35.15149">
        <ele>99.0</ele>
        <time>2011-05-25T18:35:45Z</time>
      </trkpt>
      <trkpt lat="32.783613" lon="35.151496">
        <ele>99.0</ele>
        <time>2011-05-25T18:35:56Z</time>
      </trkpt>
      <trkpt lat="32.783686" lon="35.151514">
        <ele>100.0</ele>
        <time>2011-05-25T18:36:00Z</time>
      </trkpt>
      <trkpt lat="32.78388" lon="35.151612">
        <ele>100.0</ele>
        <time>2011-05-25T18:36:12Z</time>
      </trkpt>
      <trkpt lat="32.783943" lon="35.151644">
        <ele>100.0</ele>
        <time>2011-05-25T18:36:16Z</time>
      </trkpt>
      <trkpt lat="32.784006" lon="35.15167">
        <ele>100.0</ele>
        <time>2011-05-25T18:36:20Z</time>
      </trkpt>
      <trkpt lat="32.784073" lon="35.151699">
        <ele>100.0</ele>
        <time>2011-05-25T18:36:24Z</time>
      </trkpt>
      <trkpt lat="32.784142" lon="35.151731">
        <ele>100.0</ele>
        <time>2011-05-25T18:36:28Z</time>
      </trkpt>
      <trkpt lat="32.784206" lon="35.151757">
        <ele>100.0</ele>
        <time>2011-05-25T18:36:32Z</time>
      </trkpt>
      <trkpt lat="32.784273" lon="35.151783">
        <ele>100.0</ele>
        <time>2011-05-25T18:36:36Z</time>
      </trkpt>
      <trkpt lat="32.784343" lon="35.151816">
        <ele>100.0</ele>
        <time>2011-05-25T18:36:40Z</time>
      </trkpt>
      <trkpt lat="32.784413" lon="35.151844">
        <ele>100.0</ele>
        <time>2011-05-25T18:36:44Z</time>
      </trkpt>
      <trkpt lat="32.784481" lon="35.151874">
        <ele>100.0</ele>
        <time>2011-05-25T18:36:48Z</time>
      </trkpt>
      <trkpt lat="32.784549" lon="35.151896">
        <ele>101.0</ele>
        <time>2011-05-25T18:36:52Z</time>
      </trkpt>
      <trkpt lat="32.784612" lon="35.151915">
        <ele>101.0</ele>
        <time>2011-05-25T18:36:55Z</time>
      </trkpt>
      <trkpt lat="32.784683" lon="35.151939">
        <ele>101.0</ele>
        <time>2011-05-25T18:36:59Z</time>
      </trkpt>
      <trkpt lat="32.784743" lon="35.15197">
        <ele>101.0</ele>
        <time>2011-05-25T18:37:03Z</time>
      </trkpt>
      <trkpt lat="32.784805" lon="35.152008">
        <ele>101.0</ele>
        <time>2011-05-25T18:37:07Z</time>
      </trkpt>
      <trkpt lat="32.78487" lon="35.152049">
        <ele>101.0</ele>
        <time>2011-05-25T18:37:11Z</time>
      </trkpt>
      <trkpt lat="32.785006" lon="35.152115">
        <ele>101.0</ele>
        <time>2011-05-25T18:37:18Z</time>
      </trkpt>
      <trkpt lat="32.785072" lon="35.152137">
        <ele>101.0</ele>
        <time>2011-05-25T18:37:21Z</time>
      </trkpt>
      <trkpt lat="32.785137" lon="35.152164">
        <ele>102.0</ele>
        <time>2011-05-25T18:37:24Z</time>
      </trkpt>
      <trkpt lat="32.785274" lon="35.15224">
        <ele>102.0</ele>
        <time>2011-05-25T18:37:30Z</time>
      </trkpt>
      <trkpt lat="32.78547" lon="35.152374">
        <ele>102.0</ele>
        <time>2011-05-25T18:37:42Z</time>
      </trkpt>
      <trkpt lat="32.785539" lon="35.152409">
        <ele>102.0</ele>
        <time>2011-05-25T18:37:47Z</time>
      </trkpt>
      <trkpt lat="32.785603" lon="35.152443">
        <ele>102.0</ele>
        <time>2011-05-25T18:37:52Z</time>
      </trkpt>
      <trkpt lat="32.785663" lon="35.15247">
        <ele>102.0</ele>
        <time>2011-05-25T18:37:57Z</time>
      </trkpt>
      <trkpt lat="32.785737" lon="35.152492">
        <ele>103.0</ele>
        <time>2011-05-25T18:38:03Z</time>
      </trkpt>
      <trkpt lat="32.785812" lon="35.15252">
        <ele>103.0</ele>
        <time>2011-05-25T18:38:07Z</time>
      </trkpt>
      <trkpt lat="32.785876" lon="35.152554">
        <ele>103.0</ele>
        <time>2011-05-25T18:38:13Z</time>
      </trkpt>
      <trkpt lat="32.785933" lon="35.152596">
        <ele>103.0</ele>
        <time>2011-05-25T18:38:18Z</time>
      </trkpt>
      <trkpt lat="32.785999" lon="35.152613">
        <ele>103.0</ele>
        <time>2011-05-25T18:38:23Z</time>
      </trkpt>
      <trkpt lat="32.786073" lon="35.152631">
        <ele>104.0</ele>
        <time>2011-05-25T18:38:28Z</time>
      </trkpt>
      <trkpt lat="32.786132" lon="35.152656">
        <ele>104.0</ele>
        <time>2011-05-25T18:38:32Z</time>
      </trkpt>
      <trkpt lat="32.7862" lon="35.152689">
        <ele>104.0</ele>
        <time>2011-05-25T18:38:37Z</time>
      </trkpt>
      <trkpt lat="32.786334" lon="35.152774">
        <ele>104.0</ele>
        <time>2011-05-25T18:38:47Z</time>
      </trkpt>
      <trkpt lat="32.78656" lon="35.152819">
        <ele>104.0</ele>
        <time>2011-05-25T18:39:02Z</time>
      </trkpt>
      <trkpt lat="32.786626" lon="35.15283">
        <ele>104.0</ele>
        <time>2011-05-25T18:39:06Z</time>
      </trkpt>
      <trkpt lat="32.786829" lon="35.152891">
        <ele>105.0</ele>
        <time>2011-05-25T18:39:21Z</time>
      </trkpt>
      <trkpt lat="32.786897" lon="35.152897">
        <ele>105.0</ele>
        <time>2011-05-25T18:39:26Z</time>
      </trkpt>
      <trkpt lat="32.787106" lon="35.15295">
        <ele>105.0</ele>
        <time>2011-05-25T18:39:41Z</time>
      </trkpt>
      <trkpt lat="32.787164" lon="35.152987">
        <ele>105.0</ele>
        <time>2011-05-25T18:39:46Z</time>
      </trkpt>
      <trkpt lat="32.787229" lon="35.153014">
        <ele>105.001</ele>
        <time>2011-05-25T18:39:50Z</time>
      </trkpt>
      <trkpt lat="32.787293" lon="35.153034">
        <ele>106.0</ele>
        <time>2011-05-25T18:39:57Z</time>
      </trkpt>
      <trkpt lat="32.787364" lon="35.153049">
        <ele>106.0</ele>
        <time>2011-05-25T18:40:02Z</time>
      </trkpt>
      <trkpt lat="32.787433" lon="35.153059">
        <ele>106.0</ele>
        <time>2011-05-25T18:40:07Z</time>
      </trkpt>
      <trkpt lat="32.787496" lon="35.153069">
        <ele>107.0</ele>
        <time>2011-05-25T18:40:11Z</time>
      </trkpt>
      <trkpt lat="32.787565" lon="35.153086">
        <ele>107.0</ele>
        <time>2011-05-25T18:40:15Z</time>
      </trkpt>
      <trkpt lat="32.787631" lon="35.153106">
        <ele>107.0</ele>
        <time>2011-05-25T18:40:19Z</time>
      </trkpt>
      <trkpt lat="32.787693" lon="35.153123">
        <ele>107.0</ele>
        <time>2011-05-25T18:40:23Z</time>
      </trkpt>
      <trkpt lat="32.787773" lon="35.153144">
        <ele>107.0</ele>
        <time>2011-05-25T18:40:27Z</time>
      </trkpt>
      <trkpt lat="32.78798" lon="35.153202">
        <ele>108.0</ele>
        <time>2011-05-25T18:40:40Z</time>
      </trkpt>
      <trkpt lat="32.788043" lon="35.153228">
        <ele>108.0</ele>
        <time>2011-05-25T18:40:51Z</time>
      </trkpt>
      <trkpt lat="32.788055" lon="35.153154">
        <ele>110.0</ele>
        <time>2011-05-25T18:44:36Z</time>
      </trkpt>
      <trkpt lat="32.788119" lon="35.153161">
        <ele>111.0</ele>
        <time>2011-05-25T18:44:40Z</time>
      </trkpt>
      <trkpt lat="32.78826" lon="35.153197">
        <ele>112.0</ele>
        <time>2011-05-25T18:44:46Z</time>
      </trkpt>
      <trkpt lat="32.788408" lon="35.153187">
        <ele>113.0</ele>
        <time>2011-05-25T18:44:50Z</time>
      </trkpt>
      <trkpt lat="32.788605" lon="35.153146">
        <ele>115.0</ele>
        <time>2011-05-25T18:44:54Z</time>
      </trkpt>
      <trkpt lat="32.788962" lon="35.153023">
        <ele>119.0</ele>
        <time>2011-05-25T18:45:02Z</time>
      </trkpt>
      <trkpt lat="32.789117" lon="35.152965">
        <ele>119.0</ele>
        <time>2011-05-25T18:45:06Z</time>
      </trkpt>
      <trkpt lat="32.789194" lon="35.152933">
        <ele>119.0</ele>
        <time>2011-05-25T18:45:09Z</time>
      </trkpt>
      <trkpt lat="32.789266" lon="35.152925">
        <ele>119.0</ele>
        <time>2011-05-25T18:45:32Z</time>
      </trkpt>
      <trkpt lat="32.789435" lon="35.152873">
        <ele>119.0</ele>
        <time>2011-05-25T18:45:38Z</time>
      </trkpt>
      <trkpt lat="32.789513" lon="35.152828">
        <ele>119.0</ele>
        <time>2011-05-25T18:45:41Z</time>
      </trkpt>
      <trkpt lat="32.789585" lon="35.152791">
        <ele>119.0</ele>
        <time>2011-05-25T18:45:44Z</time>
      </trkpt>
      <trkpt lat="32.789885" lon="35.152851">
        <ele>120.0</ele>
        <time>2011-05-25T18:45:53Z</time>
      </trkpt>
      <trkpt lat="32.789962" lon="35.152864">
        <ele>120.0</ele>
        <time>2011-05-25T18:45:56Z</time>
      </trkpt>
      <trkpt lat="32.790042" lon="35.152869">
        <ele>121.0</ele>
        <time>2011-05-25T18:45:59Z</time>
      </trkpt>
      <trkpt lat="32.790221" lon="35.152872">
        <ele>122.0</ele>
        <time>2011-05-25T18:46:05Z</time>
      </trkpt>
      <trkpt lat="32.790301" lon="35.152871">
        <ele>122.0</ele>
        <time>2011-05-25T18:46:08Z</time>
      </trkpt>
      <trkpt lat="32.790372" lon="35.152854">
        <ele>123.0</ele>
        <time>2011-05-25T18:46:11Z</time>
      </trkpt>
      <trkpt lat="32.790536" lon="35.152803">
        <ele>124.0</ele>
        <time>2011-05-25T18:46:17Z</time>
      </trkpt>
      <trkpt lat="32.790676" lon="35.152756">
        <ele>125.0</ele>
        <time>2011-05-25T18:46:21Z</time>
      </trkpt>
      <trkpt lat="32.790835" lon="35.152689">
        <ele>125.0</ele>
        <time>2011-05-25T18:46:25Z</time>
      </trkpt>
      <trkpt lat="32.790899" lon="35.152655">
        <ele>125.0</ele>
        <time>2011-05-25T18:46:27Z</time>
      </trkpt>
      <trkpt lat="32.791036" lon="35.152579">
        <ele>126.0</ele>
        <time>2011-05-25T18:46:33Z</time>
      </trkpt>
      <trkpt lat="32.791106" lon="35.152551">
        <ele>127.0</ele>
        <time>2011-05-25T18:46:36Z</time>
      </trkpt>
      <trkpt lat="32.791169" lon="35.15253">
        <ele>127.0</ele>
        <time>2011-05-25T18:46:40Z</time>
      </trkpt>
      <trkpt lat="32.791236" lon="35.152507">
        <ele>128.0</ele>
        <time>2011-05-25T18:46:47Z</time>
      </trkpt>
      <trkpt lat="32.791302" lon="35.152487">
        <ele>128.0</ele>
        <time>2011-05-25T18:46:53Z</time>
      </trkpt>
      <trkpt lat="32.791368" lon="35.152471">
        <ele>129.0</ele>
        <time>2011-05-25T18:46:57Z</time>
      </trkpt>
      <trkpt lat="32.791459" lon="35.152448">
        <ele>128.999</ele>
        <time>2011-05-25T18:47:01Z</time>
      </trkpt>
      <trkpt lat="32.791532" lon="35.152428">
        <ele>129.0</ele>
        <time>2011-05-25T18:47:05Z</time>
      </trkpt>
      <trkpt lat="32.791612" lon="35.1524">
        <ele>129.0</ele>
        <time>2011-05-25T18:47:18Z</time>
      </trkpt>
      <trkpt lat="32.791671" lon="35.152371">
        <ele>129.0</ele>
        <time>2011-05-25T18:47:24Z</time>
      </trkpt>
      <trkpt lat="32.791825" lon="35.15228">
        <ele>129.999</ele>
        <time>2011-05-25T18:47:36Z</time>
      </trkpt>
      <trkpt lat="32.791987" lon="35.152218">
        <ele>130.0</ele>
        <time>2011-05-25T18:47:41Z</time>
      </trkpt>
      <trkpt lat="32.792078" lon="35.15218">
        <ele>129.999</ele>
        <time>2011-05-25T18:47:44Z</time>
      </trkpt>
      <trkpt lat="32.7922" lon="35.15208">
        <ele>130.999</ele>
        <time>2011-05-25T18:47:48Z</time>
      </trkpt>
      <trkpt lat="32.792306" lon="35.15198">
        <ele>131.0</ele>
        <time>2011-05-25T18:47:52Z</time>
      </trkpt>
      <trkpt lat="32.792373" lon="35.151911">
        <ele>132.0</ele>
        <time>2011-05-25T18:47:55Z</time>
      </trkpt>
      <trkpt lat="32.792474" lon="35.15181">
        <ele>132.0</ele>
        <time>2011-05-25T18:48:01Z</time>
      </trkpt>
      <trkpt lat="32.792544" lon="35.151747">
        <ele>133.0</ele>
        <time>2011-05-25T18:48:04Z</time>
      </trkpt>
      <trkpt lat="32.79261" lon="35.15169">
        <ele>133.0</ele>
        <time>2011-05-25T18:48:07Z</time>
      </trkpt>
      <trkpt lat="32.792781" lon="35.151462">
        <ele>134.0</ele>
        <time>2011-05-25T18:48:14Z</time>
      </trkpt>
      <trkpt lat="32.792823" lon="35.151248">
        <ele>134.0</ele>
        <time>2011-05-25T18:48:16Z</time>
      </trkpt>
      <trkpt lat="32.792867" lon="35.151024">
        <ele>134.0</ele>
        <time>2011-05-25T18:48:20Z</time>
      </trkpt>
      <trkpt lat="32.792844" lon="35.150744">
        <ele>134.0</ele>
        <time>2011-05-25T18:48:26Z</time>
      </trkpt>
      <trkpt lat="32.792832" lon="35.150651">
        <ele>135.0</ele>
        <time>2011-05-25T18:48:29Z</time>
      </trkpt>
      <trkpt lat="32.792828" lon="35.150551">
        <ele>135.0</ele>
        <time>2011-05-25T18:48:32Z</time>
      </trkpt>
      <trkpt lat="32.792829" lon="35.150352">
        <ele>135.0</ele>
        <time>2011-05-25T18:48:37Z</time>
      </trkpt>
      <trkpt lat="32.79289" lon="35.150157">
        <ele>138.0</ele>
        <time>2011-05-25T18:48:41Z</time>
      </trkpt>
      <trkpt lat="32.792914" lon="35.150078">
        <ele>138.0</ele>
        <time>2011-05-25T18:48:43Z</time>
      </trkpt>
      <trkpt lat="32.793039" lon="35.149954">
        <ele>139.0</ele>
        <time>2011-05-25T18:48:49Z</time>
      </trkpt>
      <trkpt lat="32.793102" lon="35.149897">
        <ele>139.0</ele>
        <time>2011-05-25T18:48:52Z</time>
      </trkpt>
      <trkpt lat="32.793234" lon="35.149797">
        <ele>139.0</ele>
        <time>2011-05-25T18:48:57Z</time>
      </trkpt>
      <trkpt lat="32.793355" lon="35.149702">
        <ele>139.0</ele>
        <time>2011-05-25T18:49:01Z</time>
      </trkpt>
      <trkpt lat="32.793483" lon="35.149577">
        <ele>139.0</ele>
        <time>2011-05-25T18:49:05Z</time>
      </trkpt>
      <trkpt lat="32.793616" lon="35.149451">
        <ele>140.0</ele>
        <time>2011-05-25T18:49:09Z</time>
      </trkpt>
      <trkpt lat="32.793754" lon="35.149326">
        <ele>141.0</ele>
        <time>2011-05-25T18:49:14Z</time>
      </trkpt>
      <trkpt lat="32.793874" lon="35.149156">
        <ele>143.0</ele>
        <time>2011-05-25T18:49:18Z</time>
      </trkpt>
      <trkpt lat="32.793942" lon="35.14898">
        <ele>143.0</ele>
        <time>2011-05-25T18:49:22Z</time>
      </trkpt>
      <trkpt lat="32.793974" lon="35.148888">
        <ele>143.0</ele>
        <time>2011-05-25T18:49:24Z</time>
      </trkpt>
      <trkpt lat="32.79409" lon="35.148593">
        <ele>144.0</ele>
        <time>2011-05-25T18:49:30Z</time>
      </trkpt>
      <trkpt lat="32.794155" lon="35.148385">
        <ele>144.0</ele>
        <time>2011-05-25T18:49:34Z</time>
      </trkpt>
      <trkpt lat="32.794237" lon="35.148141">
        <ele>145.0</ele>
        <time>2011-05-25T18:49:38Z</time>
      </trkpt>
      <trkpt lat="32.794378" lon="35.147775">
        <ele>147.0</ele>
        <time>2011-05-25T18:49:44Z</time>
      </trkpt>
      <trkpt lat="32.794422" lon="35.147665">
        <ele>147.0</ele>
        <time>2011-05-25T18:49:50Z</time>
      </trkpt>
      <trkpt lat="32.794452" lon="35.147589">
        <ele>146.0</ele>
        <time>2011-05-25T18:50:03Z</time>
      </trkpt>
      <trkpt lat="32.794483" lon="35.147513">
        <ele>146.0</ele>
        <time>2011-05-25T18:50:08Z</time>
      </trkpt>
      <trkpt lat="32.794526" lon="35.147439">
        <ele>145.0</ele>
        <time>2011-05-25T18:50:41Z</time>
      </trkpt>
      <trkpt lat="32.794591" lon="35.147405">
        <ele>145.0</ele>
        <time>2011-05-25T18:50:45Z</time>
      </trkpt>
      <trkpt lat="32.794738" lon="35.147353">
        <ele>145.0</ele>
        <time>2011-05-25T18:50:49Z</time>
      </trkpt>
      <trkpt lat="32.794823" lon="35.147312">
        <ele>145.0</ele>
        <time>2011-05-25T18:50:52Z</time>
      </trkpt>
      <trkpt lat="32.794971" lon="35.14722">
        <ele>145.0</ele>
        <time>2011-05-25T18:50:58Z</time>
      </trkpt>
      <trkpt lat="32.795031" lon="35.147173">
        <ele>144.0</ele>
        <time>2011-05-25T18:51:00Z</time>
      </trkpt>
      <trkpt lat="32.795139" lon="35.147079">
        <ele>144.0</ele>
        <time>2011-05-25T18:51:06Z</time>
      </trkpt>
      <trkpt lat="32.795195" lon="35.147035">
        <ele>144.0</ele>
        <time>2011-05-25T18:51:08Z</time>
      </trkpt>
      <trkpt lat="32.79535" lon="35.146928">
        <ele>144.0</ele>
        <time>2011-05-25T18:51:14Z</time>
      </trkpt>
      <trkpt lat="32.795411" lon="35.146884">
        <ele>144.0</ele>
        <time>2011-05-25T18:51:17Z</time>
      </trkpt>
      <trkpt lat="32.795472" lon="35.146836">
        <ele>144.0</ele>
        <time>2011-05-25T18:51:20Z</time>
      </trkpt>
      <trkpt lat="32.795537" lon="35.146783">
        <ele>145.0</ele>
        <time>2011-05-25T18:51:24Z</time>
      </trkpt>
      <trkpt lat="32.795608" lon="35.146716">
        <ele>145.0</ele>
        <time>2011-05-25T18:51:29Z</time>
      </trkpt>
      <trkpt lat="32.795656" lon="35.146663">
        <ele>145.0</ele>
        <time>2011-05-25T18:51:33Z</time>
      </trkpt>
      <trkpt lat="32.795706" lon="35.146605">
        <ele>145.0</ele>
        <time>2011-05-25T18:51:36Z</time>
      </trkpt>
      <trkpt lat="32.795752" lon="35.146551">
        <ele>145.0</ele>
        <time>2011-05-25T18:51:39Z</time>
      </trkpt>
      <trkpt lat="32.795804" lon="35.146475">
        <ele>145.0</ele>
        <time>2011-05-25T18:51:44Z</time>
      </trkpt>
      <trkpt lat="32.795853" lon="35.146411">
        <ele>145.0</ele>
        <time>2011-05-25T18:51:48Z</time>
      </trkpt>
      <trkpt lat="32.795896" lon="35.146347">
        <ele>145.0</ele>
        <time>2011-05-25T18:52:04Z</time>
      </trkpt>
      <trkpt lat="32.795946" lon="35.1463">
        <ele>145.0</ele>
        <time>2011-05-25T18:52:12Z</time>
      </trkpt>
      <trkpt lat="32.796001" lon="35.146262">
        <ele>145.0</ele>
        <time>2011-05-25T18:52:25Z</time>
      </trkpt>
      <trkpt lat="32.796056" lon="35.146085">
        <ele>145.0</ele>
        <time>2011-05-25T18:52:30Z</time>
      </trkpt>
      <trkpt lat="32.796031" lon="35.14592">
        <ele>145.0</ele>
        <time>2011-05-25T18:52:34Z</time>
      </trkpt>
      <trkpt lat="32.795977" lon="35.145775">
        <ele>144.0</ele>
        <time>2011-05-25T18:52:38Z</time>
      </trkpt>
      <trkpt lat="32.795944" lon="35.14569">
        <ele>144.0</ele>
        <time>2011-05-25T18:52:41Z</time>
      </trkpt>
      <trkpt lat="32.795902" lon="35.145625">
        <ele>144.0</ele>
        <time>2011-05-25T18:52:44Z</time>
      </trkpt>
      <trkpt lat="32.795866" lon="35.145546">
        <ele>144.0</ele>
        <time>2011-05-25T18:52:47Z</time>
      </trkpt>
      <trkpt lat="32.795839" lon="35.145466">
        <ele>144.0</ele>
        <time>2011-05-25T18:52:52Z</time>
      </trkpt>
      <trkpt lat="32.79584" lon="35.14523">
        <ele>143.0</ele>
        <time>2011-05-25T18:53:10Z</time>
      </trkpt>
      <trkpt lat="32.795863" lon="35.145155">
        <ele>143.0</ele>
        <time>2011-05-25T18:53:14Z</time>
      </trkpt>
      <trkpt lat="32.795885" lon="35.145079">
        <ele>143.0</ele>
        <time>2011-05-25T18:53:17Z</time>
      </trkpt>
      <trkpt lat="32.795957" lon="35.14482">
        <ele>143.0</ele>
        <time>2011-05-25T18:53:22Z</time>
      </trkpt>
      <trkpt lat="32.796115" lon="35.144549">
        <ele>143.0</ele>
        <time>2011-05-25T18:53:26Z</time>
      </trkpt>
      <trkpt lat="32.796331" lon="35.144435">
        <ele>144.0</ele>
        <time>2011-05-25T18:53:30Z</time>
      </trkpt>
      <trkpt lat="32.796484" lon="35.144322">
        <ele>145.0</ele>
        <time>2011-05-25T18:53:34Z</time>
      </trkpt>
      <trkpt lat="32.796613" lon="35.144127">
        <ele>147.0</ele>
        <time>2011-05-25T18:53:38Z</time>
      </trkpt>
      <trkpt lat="32.796755" lon="35.143994">
        <ele>147.0</ele>
        <time>2011-05-25T18:53:42Z</time>
      </trkpt>
      <trkpt lat="32.796913" lon="35.143859">
        <ele>147.0</ele>
        <time>2011-05-25T18:53:46Z</time>
      </trkpt>
      <trkpt lat="32.796985" lon="35.14368">
        <ele>148.0</ele>
        <time>2011-05-25T18:53:50Z</time>
      </trkpt>
      <trkpt lat="32.796992" lon="35.143602">
        <ele>148.0</ele>
        <time>2011-05-25T18:53:52Z</time>
      </trkpt>
      <trkpt lat="32.797" lon="35.1435">
        <ele>148.0</ele>
        <time>2011-05-25T18:53:55Z</time>
      </trkpt>
      <trkpt lat="32.797008" lon="35.143424">
        <ele>148.0</ele>
        <time>2011-05-25T18:54:22Z</time>
      </trkpt>
      <trkpt lat="32.796984" lon="35.143344">
        <ele>146.0</ele>
        <time>2011-05-25T18:55:37Z</time>
      </trkpt>
      <trkpt lat="32.796967" lon="35.143139">
        <ele>145.0</ele>
        <time>2011-05-25T18:55:41Z</time>
      </trkpt>
      <trkpt lat="32.797048" lon="35.142593">
        <ele>138.0</ele>
        <time>2011-05-25T18:57:58Z</time>
      </trkpt>
      <trkpt lat="32.797163" lon="35.14208">
        <ele>135.0</ele>
        <time>2011-05-25T18:58:02Z</time>
      </trkpt>
      <trkpt lat="32.797256" lon="35.14175">
        <ele>132.0</ele>
        <time>2011-05-25T18:58:06Z</time>
      </trkpt>
      <trkpt lat="32.797329" lon="35.141542">
        <ele>130.0</ele>
        <time>2011-05-25T18:58:09Z</time>
      </trkpt>
      <trkpt lat="32.797458" lon="35.141204">
        <ele>127.0</ele>
        <time>2011-05-25T18:58:14Z</time>
      </trkpt>
      <trkpt lat="32.797579" lon="35.140935">
        <ele>125.0</ele>
        <time>2011-05-25T18:58:18Z</time>
      </trkpt>
      <trkpt lat="32.797678" lon="35.140668">
        <ele>124.0</ele>
        <time>2011-05-25T18:58:22Z</time>
      </trkpt>
      <trkpt lat="32.797759" lon="35.14041">
        <ele>123.0</ele>
        <time>2011-05-25T18:58:26Z</time>
      </trkpt>
      <trkpt lat="32.797852" lon="35.140184">
        <ele>123.0</ele>
        <time>2011-05-25T18:58:30Z</time>
      </trkpt>
      <trkpt lat="32.797934" lon="35.139979">
        <ele>122.0</ele>
        <time>2011-05-25T18:58:34Z</time>
      </trkpt>
      <trkpt lat="32.798034" lon="35.139806">
        <ele>120.0</ele>
        <time>2011-05-25T18:58:38Z</time>
      </trkpt>
      <trkpt lat="32.798274" lon="35.139402">
        <ele>118.0</ele>
        <time>2011-05-25T18:58:46Z</time>
      </trkpt>
      <trkpt lat="32.798401" lon="35.139148">
        <ele>118.0</ele>
        <time>2011-05-25T18:58:50Z</time>
      </trkpt>
      <trkpt lat="32.798487" lon="35.13895">
        <ele>119.0</ele>
        <time>2011-05-25T18:58:53Z</time>
      </trkpt>
      <trkpt lat="32.798581" lon="35.138696">
        <ele>119.0</ele>
        <time>2011-05-25T18:58:57Z</time>
      </trkpt>
      <trkpt lat="32.798625" lon="35.138571">
        <ele>119.0</ele>
        <time>2011-05-25T18:58:59Z</time>
      </trkpt>
      <trkpt lat="32.79871" lon="35.138281">
        <ele>119.0</ele>
        <time>2011-05-25T18:59:05Z</time>
      </trkpt>
      <trkpt lat="32.798737" lon="35.138099">
        <ele>119.0</ele>
        <time>2011-05-25T18:59:10Z</time>
      </trkpt>
      <trkpt lat="32.798743" lon="35.13794">
        <ele>118.0</ele>
        <time>2011-05-25T18:59:14Z</time>
      </trkpt>
      <trkpt lat="32.798741" lon="35.137864">
        <ele>118.0</ele>
        <time>2011-05-25T18:59:16Z</time>
      </trkpt>
      <trkpt lat="32.798735" lon="35.137663">
        <ele>118.0</ele>
        <time>2011-05-25T18:59:22Z</time>
      </trkpt>
      <trkpt lat="32.798733" lon="35.137568">
        <ele>118.0</ele>
        <time>2011-05-25T18:59:25Z</time>
      </trkpt>
      <trkpt lat="32.798736" lon="35.137473">
        <ele>118.0</ele>
        <time>2011-05-25T18:59:28Z</time>
      </trkpt>
      <trkpt lat="32.798792" lon="35.137288">
        <ele>117.0</ele>
        <time>2011-05-25T18:59:34Z</time>
      </trkpt>
      <trkpt lat="32.799027" lon="35.137299">
        <ele>117.0</ele>
        <time>2011-05-25T18:59:42Z</time>
      </trkpt>
      <trkpt lat="32.799185" lon="35.137427">
        <ele>115.0</ele>
        <time>2011-05-25T18:59:46Z</time>
      </trkpt>
      <trkpt lat="32.799249" lon="35.137474">
        <ele>115.0</ele>
        <time>2011-05-25T18:59:48Z</time>
      </trkpt>
      <trkpt lat="32.799307" lon="35.13751">
        <ele>115.0</ele>
        <time>2011-05-25T19:01:43Z</time>
      </trkpt>
      <trkpt lat="32.799307" lon="35.13751">
        <time>2011-05-25T19:02:39Z</time>
      </trkpt>
    </trkseg>
  </trk>
</gpx>